<?xml version='1.0' encoding='UTF-8'?><gpx version="1.1" creator="JPX - https://github.com/jenetics/jpx" xmlns="http://www.topografix.com/GPX/1/1"><trk><trkseg><trkpt lat="43.0313965" lon="13.8569134"><ele>5.0</ele><time>2026-04-11T09:11:12.532Z</time></trkpt><trkpt lat="43.0313193" lon="13.8569465"><ele>5.0</ele><time>2026-04-11T09:11:13.531Z</time></trkpt><trkpt lat="43.0312148" lon="13.8569869"><ele>5.0</ele><time>2026-04-11T09:11:14.532Z</time></trkpt><trkpt lat="43.0310782" lon="13.8570332"><ele>5.0</ele><time>2026-04-11T09:11:15.532Z</time></trkpt><trkpt lat="43.0309032" lon="13.8570935"><ele>5.333333333333334</ele><time>2026-04-11T09:11:16.532Z</time></trkpt><trkpt lat="43.0307266" lon="13.8571493"><ele>5.666666666666667</ele><time>2026-04-11T09:11:17.532Z</time></trkpt><trkpt lat="43.0305686" lon="13.8571962"><ele>6.0</ele><time>2026-04-11T09:11:18.532Z</time></trkpt><trkpt lat="43.03043" lon="13.8572383"><ele>6.0</ele><time>2026-04-11T09:11:19.532Z</time></trkpt><trkpt lat="43.0303215" lon="13.8572641"><ele>6.0</ele><time>2026-04-11T09:11:20.532Z</time></trkpt><trkpt lat="43.0302454" lon="13.8572736"><ele>6.0</ele><time>2026-04-11T09:11:21.532Z</time></trkpt><trkpt lat="43.0301326" lon="13.8572208"><ele>6.0</ele><time>2026-04-11T09:11:23.532Z</time></trkpt><trkpt lat="43.0300386" lon="13.8571617"><ele>6.0</ele><time>2026-04-11T09:11:25.532Z</time></trkpt><trkpt lat="43.0299616" lon="13.85714"><ele>5.999999999999999</ele><time>2026-04-11T09:11:27.532Z</time></trkpt><trkpt lat="43.0298896" lon="13.8571642"><ele>6.0</ele><time>2026-04-11T09:14:26.532Z</time></trkpt><trkpt lat="43.0298194" lon="13.8571929"><ele>6.0</ele><time>2026-04-11T09:14:28.532Z</time></trkpt><trkpt lat="43.029766" lon="13.8572436"><ele>6.0</ele><time>2026-04-11T09:14:30.532Z</time></trkpt><trkpt lat="43.0297539" lon="13.8573486"><ele>6.0</ele><time>2026-04-11T09:14:33.532Z</time></trkpt><trkpt lat="43.0296909" lon="13.8573969"><ele>5.999999999999999</ele><time>2026-04-11T09:14:46.531Z</time></trkpt><trkpt lat="43.029618" lon="13.8574231"><ele>6.0</ele><time>2026-04-11T09:14:47.532Z</time></trkpt><trkpt lat="43.0295169" lon="13.8574633"><ele>6.0</ele><time>2026-04-11T09:14:48.532Z</time></trkpt><trkpt lat="43.0294042" lon="13.8575074"><ele>6.0</ele><time>2026-04-11T09:14:49.532Z</time></trkpt><trkpt lat="43.0292914" lon="13.8575404"><ele>6.0</ele><time>2026-04-11T09:14:50.532Z</time></trkpt><trkpt lat="43.0291881" lon="13.8575713"><ele>6.0</ele><time>2026-04-11T09:14:51.532Z</time></trkpt><trkpt lat="43.0290924" lon="13.8575993"><ele>6.0</ele><time>2026-04-11T09:14:52.532Z</time></trkpt><trkpt lat="43.029024" lon="13.857612"><ele>6.25</ele><time>2026-04-11T09:14:53.532Z</time></trkpt><trkpt lat="43.0289572" lon="13.8576327"><ele>6.5</ele><time>2026-04-11T09:14:54.532Z</time></trkpt><trkpt lat="43.0288549" lon="13.857666"><ele>6.75</ele><time>2026-04-11T09:14:55.532Z</time></trkpt><trkpt lat="43.0287189" lon="13.8577077"><ele>7.0</ele><time>2026-04-11T09:14:56.532Z</time></trkpt><trkpt lat="43.0285738" lon="13.8577443"><ele>7.0</ele><time>2026-04-11T09:14:57.532Z</time></trkpt><trkpt lat="43.0284277" lon="13.8577793"><ele>7.0</ele><time>2026-04-11T09:14:58.532Z</time></trkpt><trkpt lat="43.0282892" lon="13.8578157"><ele>7.0</ele><time>2026-04-11T09:14:59.532Z</time></trkpt><trkpt lat="43.0281497" lon="13.8578466"><ele>7.0</ele><time>2026-04-11T09:15:00.532Z</time></trkpt><trkpt lat="43.0280401" lon="13.8578555"><ele>7.5</ele><time>2026-04-11T09:15:01.532Z</time></trkpt><trkpt lat="43.0279213" lon="13.8578756"><ele>8.0</ele><time>2026-04-11T09:15:02.532Z</time></trkpt><trkpt lat="43.0278027" lon="13.857891"><ele>8.5</ele><time>2026-04-11T09:15:03.532Z</time></trkpt><trkpt lat="43.0276841" lon="13.8579116"><ele>9.0</ele><time>2026-04-11T09:15:04.532Z</time></trkpt><trkpt lat="43.0275695" lon="13.8579284"><ele>8.8</ele><time>2026-04-11T09:15:05.532Z</time></trkpt><trkpt lat="43.0274634" lon="13.8579476"><ele>8.600000000000001</ele><time>2026-04-11T09:15:06.532Z</time></trkpt><trkpt lat="43.0273592" lon="13.8579669"><ele>8.4</ele><time>2026-04-11T09:15:07.532Z</time></trkpt><trkpt lat="43.0272614" lon="13.8579842"><ele>8.200000000000001</ele><time>2026-04-11T09:15:08.532Z</time></trkpt><trkpt lat="43.0271644" lon="13.8580002"><ele>8.0</ele><time>2026-04-11T09:15:09.532Z</time></trkpt><trkpt lat="43.0270716" lon="13.8580169"><ele>8.0</ele><time>2026-04-11T09:15:10.531Z</time></trkpt><trkpt lat="43.0269824" lon="13.8580359"><ele>8.0</ele><time>2026-04-11T09:15:11.532Z</time></trkpt><trkpt lat="43.0268945" lon="13.8580331"><ele>8.0</ele><time>2026-04-11T09:15:12.532Z</time></trkpt><trkpt lat="43.0268201" lon="13.8579807"><ele>8.0</ele><time>2026-04-11T09:15:13.532Z</time></trkpt><trkpt lat="43.0267286" lon="13.8578765"><ele>8.0</ele><time>2026-04-11T09:15:14.532Z</time></trkpt><trkpt lat="43.0266233" lon="13.8577183"><ele>9.0</ele><time>2026-04-11T09:15:15.532Z</time></trkpt><trkpt lat="43.026524" lon="13.8575664"><ele>10.0</ele><time>2026-04-11T09:15:16.532Z</time></trkpt><trkpt lat="43.0264295" lon="13.8574186"><ele>11.0</ele><time>2026-04-11T09:15:17.532Z</time></trkpt><trkpt lat="43.0263421" lon="13.85728"><ele>12.0</ele><time>2026-04-11T09:15:18.532Z</time></trkpt><trkpt lat="43.0262526" lon="13.857145"><ele>12.0</ele><time>2026-04-11T09:15:19.532Z</time></trkpt><trkpt lat="43.0261643" lon="13.8570128"><ele>12.0</ele><time>2026-04-11T09:15:20.532Z</time></trkpt><trkpt lat="43.0260786" lon="13.856888"><ele>12.0</ele><time>2026-04-11T09:15:21.532Z</time></trkpt><trkpt lat="43.0259923" lon="13.8567682"><ele>12.0</ele><time>2026-04-11T09:15:22.532Z</time></trkpt><trkpt lat="43.0259158" lon="13.8566502"><ele>12.0</ele><time>2026-04-11T09:15:23.532Z</time></trkpt><trkpt lat="43.0258393" lon="13.8565398"><ele>12.0</ele><time>2026-04-11T09:15:24.531Z</time></trkpt><trkpt lat="43.0257604" lon="13.8564277"><ele>12.0</ele><time>2026-04-11T09:15:25.532Z</time></trkpt><trkpt lat="43.02568" lon="13.8563145"><ele>12.0</ele><time>2026-04-11T09:15:26.531Z</time></trkpt><trkpt lat="43.0256051" lon="13.8561929"><ele>12.5</ele><time>2026-04-11T09:15:27.531Z</time></trkpt><trkpt lat="43.025527" lon="13.8560655"><ele>13.0</ele><time>2026-04-11T09:15:28.532Z</time></trkpt><trkpt lat="43.0254519" lon="13.8559322"><ele>13.5</ele><time>2026-04-11T09:15:29.532Z</time></trkpt><trkpt lat="43.0253715" lon="13.8558053"><ele>14.0</ele><time>2026-04-11T09:15:30.532Z</time></trkpt><trkpt lat="43.0252936" lon="13.8556744"><ele>14.0</ele><time>2026-04-11T09:15:31.532Z</time></trkpt><trkpt lat="43.0252138" lon="13.8555404"><ele>14.0</ele><time>2026-04-11T09:15:32.532Z</time></trkpt><trkpt lat="43.0251315" lon="13.8554044"><ele>14.0</ele><time>2026-04-11T09:15:33.532Z</time></trkpt><trkpt lat="43.0250486" lon="13.8552618"><ele>14.0</ele><time>2026-04-11T09:15:34.532Z</time></trkpt><trkpt lat="43.0249612" lon="13.855118"><ele>14.5</ele><time>2026-04-11T09:15:35.532Z</time></trkpt><trkpt lat="43.0248669" lon="13.8549672"><ele>15.0</ele><time>2026-04-11T09:15:36.532Z</time></trkpt><trkpt lat="43.0247818" lon="13.8548274"><ele>15.5</ele><time>2026-04-11T09:15:37.532Z</time></trkpt><trkpt lat="43.0247011" lon="13.8546847"><ele>16.0</ele><time>2026-04-11T09:15:38.532Z</time></trkpt><trkpt lat="43.024618" lon="13.8545436"><ele>16.0</ele><time>2026-04-11T09:15:39.532Z</time></trkpt><trkpt lat="43.0245336" lon="13.8544018"><ele>16.0</ele><time>2026-04-11T09:15:40.532Z</time></trkpt><trkpt lat="43.0244492" lon="13.8542558"><ele>16.0</ele><time>2026-04-11T09:15:41.532Z</time></trkpt><trkpt lat="43.0243653" lon="13.8541011"><ele>16.0</ele><time>2026-04-11T09:15:42.532Z</time></trkpt><trkpt lat="43.0242812" lon="13.8539475"><ele>16.75</ele><time>2026-04-11T09:15:43.532Z</time></trkpt><trkpt lat="43.0241959" lon="13.8537921"><ele>17.5</ele><time>2026-04-11T09:15:44.532Z</time></trkpt><trkpt lat="43.0241087" lon="13.853633"><ele>18.25</ele><time>2026-04-11T09:15:45.532Z</time></trkpt><trkpt lat="43.0240179" lon="13.8534835"><ele>19.0</ele><time>2026-04-11T09:15:46.532Z</time></trkpt><trkpt lat="43.0239305" lon="13.8533201"><ele>21.0</ele><time>2026-04-11T09:15:47.532Z</time></trkpt><trkpt lat="43.0238508" lon="13.8531502"><ele>23.0</ele><time>2026-04-11T09:15:48.532Z</time></trkpt><trkpt lat="43.0237772" lon="13.8529695"><ele>25.0</ele><time>2026-04-11T09:15:49.532Z</time></trkpt><trkpt lat="43.0237106" lon="13.852776"><ele>24.666666666666668</ele><time>2026-04-11T09:15:50.532Z</time></trkpt><trkpt lat="43.0236513" lon="13.8525539"><ele>24.333333333333336</ele><time>2026-04-11T09:15:51.532Z</time></trkpt><trkpt lat="43.0236012" lon="13.8523165"><ele>24.0</ele><time>2026-04-11T09:15:52.532Z</time></trkpt><trkpt lat="43.0235498" lon="13.8520788"><ele>24.0</ele><time>2026-04-11T09:15:53.532Z</time></trkpt><trkpt lat="43.0234968" lon="13.851841"><ele>24.0</ele><time>2026-04-11T09:15:54.532Z</time></trkpt><trkpt lat="43.0234427" lon="13.8515972"><ele>24.0</ele><time>2026-04-11T09:15:55.532Z</time></trkpt><trkpt lat="43.0233861" lon="13.8513594"><ele>24.333333333333336</ele><time>2026-04-11T09:15:56.532Z</time></trkpt><trkpt lat="43.0233265" lon="13.8511196"><ele>24.666666666666668</ele><time>2026-04-11T09:15:57.532Z</time></trkpt><trkpt lat="43.0232621" lon="13.8508969"><ele>25.0</ele><time>2026-04-11T09:15:58.532Z</time></trkpt><trkpt lat="43.0231931" lon="13.8506876"><ele>26.333333333333336</ele><time>2026-04-11T09:15:59.532Z</time></trkpt><trkpt lat="43.0231157" lon="13.8504861"><ele>27.666666666666664</ele><time>2026-04-11T09:16:00.532Z</time></trkpt><trkpt lat="43.023021" lon="13.8502972"><ele>29.0</ele><time>2026-04-11T09:16:01.532Z</time></trkpt><trkpt lat="43.0229176" lon="13.8501306"><ele>29.0</ele><time>2026-04-11T09:16:02.532Z</time></trkpt><trkpt lat="43.0227994" lon="13.8499608"><ele>29.0</ele><time>2026-04-11T09:16:03.532Z</time></trkpt><trkpt lat="43.0226714" lon="13.8498037"><ele>29.0</ele><time>2026-04-11T09:16:04.532Z</time></trkpt><trkpt lat="43.0225419" lon="13.8496495"><ele>29.666666666666664</ele><time>2026-04-11T09:16:05.532Z</time></trkpt><trkpt lat="43.0224068" lon="13.8494941"><ele>30.333333333333336</ele><time>2026-04-11T09:16:06.532Z</time></trkpt><trkpt lat="43.0222725" lon="13.8493476"><ele>31.0</ele><time>2026-04-11T09:16:07.532Z</time></trkpt><trkpt lat="43.0221356" lon="13.8492099"><ele>31.0</ele><time>2026-04-11T09:16:08.531Z</time></trkpt><trkpt lat="43.0220029" lon="13.8490693"><ele>31.0</ele><time>2026-04-11T09:16:09.532Z</time></trkpt><trkpt lat="43.0218725" lon="13.8489288"><ele>31.0</ele><time>2026-04-11T09:16:10.532Z</time></trkpt><trkpt lat="43.021739" lon="13.8487863"><ele>33.66666666666667</ele><time>2026-04-11T09:16:11.532Z</time></trkpt><trkpt lat="43.0216116" lon="13.8486339"><ele>36.333333333333336</ele><time>2026-04-11T09:16:12.532Z</time></trkpt><trkpt lat="43.0214951" lon="13.8484854"><ele>39.0</ele><time>2026-04-11T09:16:13.532Z</time></trkpt><trkpt lat="43.0213798" lon="13.8483368"><ele>39.333333333333336</ele><time>2026-04-11T09:16:14.532Z</time></trkpt><trkpt lat="43.021267" lon="13.8481827"><ele>39.66666666666667</ele><time>2026-04-11T09:16:15.532Z</time></trkpt><trkpt lat="43.0211541" lon="13.848027"><ele>40.0</ele><time>2026-04-11T09:16:16.531Z</time></trkpt><trkpt lat="43.0210379" lon="13.8478673"><ele>40.0</ele><time>2026-04-11T09:16:17.532Z</time></trkpt><trkpt lat="43.0209149" lon="13.8477013"><ele>40.0</ele><time>2026-04-11T09:16:18.532Z</time></trkpt><trkpt lat="43.0208065" lon="13.8475179"><ele>40.0</ele><time>2026-04-11T09:16:19.531Z</time></trkpt><trkpt lat="43.0206985" lon="13.8473338"><ele>40.333333333333336</ele><time>2026-04-11T09:16:20.532Z</time></trkpt><trkpt lat="43.0205935" lon="13.8471493"><ele>40.666666666666664</ele><time>2026-04-11T09:16:21.532Z</time></trkpt><trkpt lat="43.0204921" lon="13.8469705"><ele>41.0</ele><time>2026-04-11T09:16:22.532Z</time></trkpt><trkpt lat="43.0203928" lon="13.846794"><ele>39.666666666666664</ele><time>2026-04-11T09:16:23.532Z</time></trkpt><trkpt lat="43.0202917" lon="13.8466128"><ele>38.333333333333336</ele><time>2026-04-11T09:16:24.531Z</time></trkpt><trkpt lat="43.0201913" lon="13.8464312"><ele>37.0</ele><time>2026-04-11T09:16:25.532Z</time></trkpt><trkpt lat="43.0200849" lon="13.8462537"><ele>38.0</ele><time>2026-04-11T09:16:26.531Z</time></trkpt><trkpt lat="43.0199757" lon="13.8460774"><ele>39.0</ele><time>2026-04-11T09:16:27.531Z</time></trkpt><trkpt lat="43.0198593" lon="13.8459116"><ele>40.0</ele><time>2026-04-11T09:16:28.532Z</time></trkpt><trkpt lat="43.0197414" lon="13.845755"><ele>40.0</ele><time>2026-04-11T09:16:29.532Z</time></trkpt><trkpt lat="43.0196143" lon="13.8455971"><ele>40.0</ele><time>2026-04-11T09:16:30.532Z</time></trkpt><trkpt lat="43.0194821" lon="13.8454477"><ele>40.0</ele><time>2026-04-11T09:16:31.532Z</time></trkpt><trkpt lat="43.0193543" lon="13.8452959"><ele>40.0</ele><time>2026-04-11T09:16:32.532Z</time></trkpt><trkpt lat="43.0192312" lon="13.8451395"><ele>40.0</ele><time>2026-04-11T09:16:33.532Z</time></trkpt><trkpt lat="43.0191108" lon="13.8449748"><ele>40.0</ele><time>2026-04-11T09:16:34.531Z</time></trkpt><trkpt lat="43.0189872" lon="13.8448073"><ele>40.66666666666667</ele><time>2026-04-11T09:16:35.532Z</time></trkpt><trkpt lat="43.0188671" lon="13.8446314"><ele>41.333333333333336</ele><time>2026-04-11T09:16:36.531Z</time></trkpt><trkpt lat="43.0187429" lon="13.8444495"><ele>42.0</ele><time>2026-04-11T09:16:37.532Z</time></trkpt><trkpt lat="43.0186238" lon="13.8442593"><ele>42.0</ele><time>2026-04-11T09:16:38.532Z</time></trkpt><trkpt lat="43.0185059" lon="13.8440583"><ele>42.0</ele><time>2026-04-11T09:16:39.532Z</time></trkpt><trkpt lat="43.0183905" lon="13.8438509"><ele>42.0</ele><time>2026-04-11T09:16:40.531Z</time></trkpt><trkpt lat="43.0182879" lon="13.8436283"><ele>44.66666666666667</ele><time>2026-04-11T09:16:41.532Z</time></trkpt><trkpt lat="43.0181933" lon="13.8433842"><ele>47.333333333333336</ele><time>2026-04-11T09:16:42.532Z</time></trkpt><trkpt lat="43.0181043" lon="13.8431084"><ele>50.0</ele><time>2026-04-11T09:16:43.532Z</time></trkpt><trkpt lat="43.0180319" lon="13.842817"><ele>49.5</ele><time>2026-04-11T09:16:44.531Z</time></trkpt><trkpt lat="43.01797" lon="13.8425024"><ele>49.0</ele><time>2026-04-11T09:16:45.532Z</time></trkpt><trkpt lat="43.0179183" lon="13.8421965"><ele>49.0</ele><time>2026-04-11T09:16:46.532Z</time></trkpt><trkpt lat="43.0178754" lon="13.8419065"><ele>49.0</ele><time>2026-04-11T09:16:47.532Z</time></trkpt><trkpt lat="43.0178333" lon="13.8416349"><ele>49.0</ele><time>2026-04-11T09:16:48.531Z</time></trkpt><trkpt lat="43.0177959" lon="13.8413778"><ele>48.666666666666664</ele><time>2026-04-11T09:16:49.532Z</time></trkpt><trkpt lat="43.0177636" lon="13.8411187"><ele>48.33333333333333</ele><time>2026-04-11T09:16:50.532Z</time></trkpt><trkpt lat="43.0177369" lon="13.8408668"><ele>48.0</ele><time>2026-04-11T09:16:51.532Z</time></trkpt><trkpt lat="43.0177209" lon="13.8405991"><ele>48.66666666666667</ele><time>2026-04-11T09:16:52.532Z</time></trkpt><trkpt lat="43.0177202" lon="13.840319"><ele>49.333333333333336</ele><time>2026-04-11T09:16:53.531Z</time></trkpt><trkpt lat="43.0177214" lon="13.8400257"><ele>50.0</ele><time>2026-04-11T09:16:54.532Z</time></trkpt><trkpt lat="43.0177295" lon="13.839742"><ele>50.66666666666667</ele><time>2026-04-11T09:16:55.532Z</time></trkpt><trkpt lat="43.0177449" lon="13.8394655"><ele>51.33333333333333</ele><time>2026-04-11T09:16:56.532Z</time></trkpt><trkpt lat="43.0177584" lon="13.8391993"><ele>52.0</ele><time>2026-04-11T09:16:57.532Z</time></trkpt><trkpt lat="43.0177728" lon="13.8389292"><ele>53.0</ele><time>2026-04-11T09:16:58.532Z</time></trkpt><trkpt lat="43.0177879" lon="13.8386444"><ele>54.0</ele><time>2026-04-11T09:16:59.532Z</time></trkpt><trkpt lat="43.0178063" lon="13.8383714"><ele>55.0</ele><time>2026-04-11T09:17:00.532Z</time></trkpt><trkpt lat="43.0178163" lon="13.8381168"><ele>55.33333333333333</ele><time>2026-04-11T09:17:01.532Z</time></trkpt><trkpt lat="43.0178299" lon="13.8378649"><ele>55.66666666666667</ele><time>2026-04-11T09:17:02.532Z</time></trkpt><trkpt lat="43.0178475" lon="13.8376169"><ele>56.0</ele><time>2026-04-11T09:17:03.532Z</time></trkpt><trkpt lat="43.0178596" lon="13.8373641"><ele>57.0</ele><time>2026-04-11T09:17:04.531Z</time></trkpt><trkpt lat="43.0178613" lon="13.8371186"><ele>58.0</ele><time>2026-04-11T09:17:05.532Z</time></trkpt><trkpt lat="43.017862" lon="13.8368699"><ele>59.0</ele><time>2026-04-11T09:17:06.532Z</time></trkpt><trkpt lat="43.0178592" lon="13.8366239"><ele>59.333333333333336</ele><time>2026-04-11T09:17:07.532Z</time></trkpt><trkpt lat="43.0178521" lon="13.8363701"><ele>59.66666666666667</ele><time>2026-04-11T09:17:08.532Z</time></trkpt><trkpt lat="43.0178389" lon="13.8361212"><ele>60.0</ele><time>2026-04-11T09:17:09.531Z</time></trkpt><trkpt lat="43.0178243" lon="13.8358789"><ele>60.66666666666667</ele><time>2026-04-11T09:17:10.532Z</time></trkpt><trkpt lat="43.0178082" lon="13.8356521"><ele>61.333333333333336</ele><time>2026-04-11T09:17:11.531Z</time></trkpt><trkpt lat="43.0177838" lon="13.8354392"><ele>62.0</ele><time>2026-04-11T09:17:12.532Z</time></trkpt><trkpt lat="43.0177485" lon="13.8352259"><ele>62.66666666666667</ele><time>2026-04-11T09:17:13.532Z</time></trkpt><trkpt lat="43.0177078" lon="13.8350191"><ele>63.33333333333333</ele><time>2026-04-11T09:17:14.532Z</time></trkpt><trkpt lat="43.0176605" lon="13.8348036"><ele>64.0</ele><time>2026-04-11T09:17:15.532Z</time></trkpt><trkpt lat="43.0176148" lon="13.8345918"><ele>64.0</ele><time>2026-04-11T09:17:16.532Z</time></trkpt><trkpt lat="43.0175742" lon="13.834378"><ele>64.0</ele><time>2026-04-11T09:17:17.531Z</time></trkpt><trkpt lat="43.0175449" lon="13.8341548"><ele>64.0</ele><time>2026-04-11T09:17:18.531Z</time></trkpt><trkpt lat="43.0175178" lon="13.8339357"><ele>65.66666666666666</ele><time>2026-04-11T09:17:19.532Z</time></trkpt><trkpt lat="43.0174939" lon="13.833712"><ele>67.33333333333333</ele><time>2026-04-11T09:17:20.532Z</time></trkpt><trkpt lat="43.0174704" lon="13.8334883"><ele>69.0</ele><time>2026-04-11T09:17:21.531Z</time></trkpt><trkpt lat="43.0174511" lon="13.8332678"><ele>71.0</ele><time>2026-04-11T09:17:22.532Z</time></trkpt><trkpt lat="43.0174451" lon="13.8330417"><ele>73.0</ele><time>2026-04-11T09:17:23.531Z</time></trkpt><trkpt lat="43.0174475" lon="13.8328114"><ele>75.0</ele><time>2026-04-11T09:17:24.532Z</time></trkpt><trkpt lat="43.0174551" lon="13.8325716"><ele>76.33333333333333</ele><time>2026-04-11T09:17:25.532Z</time></trkpt><trkpt lat="43.0174626" lon="13.8323315"><ele>77.66666666666666</ele><time>2026-04-11T09:17:26.532Z</time></trkpt><trkpt lat="43.01747" lon="13.832089"><ele>79.0</ele><time>2026-04-11T09:17:27.531Z</time></trkpt><trkpt lat="43.0174764" lon="13.8318459"><ele>78.66666666666666</ele><time>2026-04-11T09:17:28.532Z</time></trkpt><trkpt lat="43.0174763" lon="13.8316002"><ele>78.33333333333333</ele><time>2026-04-11T09:17:29.531Z</time></trkpt><trkpt lat="43.0174771" lon="13.8313729"><ele>78.0</ele><time>2026-04-11T09:17:30.532Z</time></trkpt><trkpt lat="43.0174797" lon="13.8311537"><ele>78.0</ele><time>2026-04-11T09:17:31.532Z</time></trkpt><trkpt lat="43.0174826" lon="13.8309365"><ele>78.0</ele><time>2026-04-11T09:17:32.531Z</time></trkpt><trkpt lat="43.0174824" lon="13.8307195"><ele>78.0</ele><time>2026-04-11T09:17:33.532Z</time></trkpt><trkpt lat="43.0174812" lon="13.8305201"><ele>78.0</ele><time>2026-04-11T09:17:34.532Z</time></trkpt><trkpt lat="43.0174753" lon="13.8303402"><ele>78.0</ele><time>2026-04-11T09:17:35.532Z</time></trkpt><trkpt lat="43.0174458" lon="13.8301905"><ele>78.0</ele><time>2026-04-11T09:17:36.532Z</time></trkpt><trkpt lat="43.017395" lon="13.8300619"><ele>78.0</ele><time>2026-04-11T09:17:37.532Z</time></trkpt><trkpt lat="43.0173392" lon="13.829931"><ele>78.75</ele><time>2026-04-11T09:17:38.532Z</time></trkpt><trkpt lat="43.0172873" lon="13.8297887"><ele>79.5</ele><time>2026-04-11T09:17:39.532Z</time></trkpt><trkpt lat="43.0172407" lon="13.8296394"><ele>80.25</ele><time>2026-04-11T09:17:40.531Z</time></trkpt><trkpt lat="43.0171938" lon="13.8294839"><ele>81.0</ele><time>2026-04-11T09:17:41.532Z</time></trkpt><trkpt lat="43.0171449" lon="13.8293232"><ele>82.25</ele><time>2026-04-11T09:17:42.532Z</time></trkpt><trkpt lat="43.0170975" lon="13.8291544"><ele>83.5</ele><time>2026-04-11T09:17:43.531Z</time></trkpt><trkpt lat="43.0170519" lon="13.8289839"><ele>84.75</ele><time>2026-04-11T09:17:44.532Z</time></trkpt><trkpt lat="43.0170049" lon="13.8288083"><ele>86.0</ele><time>2026-04-11T09:17:45.532Z</time></trkpt><trkpt lat="43.0169649" lon="13.828628"><ele>86.25</ele><time>2026-04-11T09:17:46.532Z</time></trkpt><trkpt lat="43.0169291" lon="13.8284371"><ele>86.5</ele><time>2026-04-11T09:17:47.532Z</time></trkpt><trkpt lat="43.0169127" lon="13.8282404"><ele>86.75</ele><time>2026-04-11T09:17:48.531Z</time></trkpt><trkpt lat="43.0169103" lon="13.828033"><ele>87.0</ele><time>2026-04-11T09:17:49.532Z</time></trkpt><trkpt lat="43.0169224" lon="13.8278146"><ele>87.33333333333333</ele><time>2026-04-11T09:17:50.532Z</time></trkpt><trkpt lat="43.0169316" lon="13.8275958"><ele>87.66666666666666</ele><time>2026-04-11T09:17:51.532Z</time></trkpt><trkpt lat="43.0169403" lon="13.8273699"><ele>88.0</ele><time>2026-04-11T09:17:52.532Z</time></trkpt><trkpt lat="43.0169505" lon="13.8271381"><ele>88.0</ele><time>2026-04-11T09:17:53.532Z</time></trkpt><trkpt lat="43.0169601" lon="13.8269084"><ele>88.0</ele><time>2026-04-11T09:17:54.532Z</time></trkpt><trkpt lat="43.0169721" lon="13.8266813"><ele>88.0</ele><time>2026-04-11T09:17:55.531Z</time></trkpt><trkpt lat="43.0169783" lon="13.826455"><ele>88.33333333333333</ele><time>2026-04-11T09:17:56.532Z</time></trkpt><trkpt lat="43.016972" lon="13.8262253"><ele>88.66666666666667</ele><time>2026-04-11T09:17:57.532Z</time></trkpt><trkpt lat="43.0169507" lon="13.8260046"><ele>89.0</ele><time>2026-04-11T09:17:58.532Z</time></trkpt><trkpt lat="43.016922" lon="13.8257852"><ele>89.66666666666667</ele><time>2026-04-11T09:17:59.532Z</time></trkpt><trkpt lat="43.0168875" lon="13.8255661"><ele>90.33333333333333</ele><time>2026-04-11T09:18:00.532Z</time></trkpt><trkpt lat="43.0168568" lon="13.8253498"><ele>91.0</ele><time>2026-04-11T09:18:01.532Z</time></trkpt><trkpt lat="43.0168388" lon="13.8251266"><ele>92.0</ele><time>2026-04-11T09:18:02.532Z</time></trkpt><trkpt lat="43.0168445" lon="13.8249114"><ele>93.0</ele><time>2026-04-11T09:18:03.532Z</time></trkpt><trkpt lat="43.0168649" lon="13.824703"><ele>94.0</ele><time>2026-04-11T09:18:04.532Z</time></trkpt><trkpt lat="43.0168902" lon="13.824496"><ele>96.0</ele><time>2026-04-11T09:18:05.532Z</time></trkpt><trkpt lat="43.0169127" lon="13.8242837"><ele>98.0</ele><time>2026-04-11T09:18:06.532Z</time></trkpt><trkpt lat="43.0169221" lon="13.8240674"><ele>100.0</ele><time>2026-04-11T09:18:07.532Z</time></trkpt><trkpt lat="43.0169138" lon="13.8238452"><ele>100.0</ele><time>2026-04-11T09:18:08.532Z</time></trkpt><trkpt lat="43.0168959" lon="13.8236315"><ele>100.0</ele><time>2026-04-11T09:18:09.532Z</time></trkpt><trkpt lat="43.0168831" lon="13.8234299"><ele>100.0</ele><time>2026-04-11T09:18:10.532Z</time></trkpt><trkpt lat="43.0168781" lon="13.8232457"><ele>100.0</ele><time>2026-04-11T09:18:11.531Z</time></trkpt><trkpt lat="43.0168913" lon="13.8230813"><ele>101.75</ele><time>2026-04-11T09:18:12.532Z</time></trkpt><trkpt lat="43.0169233" lon="13.8229334"><ele>103.5</ele><time>2026-04-11T09:18:13.532Z</time></trkpt><trkpt lat="43.0169837" lon="13.822781"><ele>105.25</ele><time>2026-04-11T09:18:14.532Z</time></trkpt><trkpt lat="43.0170675" lon="13.8226052"><ele>107.0</ele><time>2026-04-11T09:18:15.531Z</time></trkpt><trkpt lat="43.0171514" lon="13.82244"><ele>106.5</ele><time>2026-04-11T09:18:16.532Z</time></trkpt><trkpt lat="43.0172372" lon="13.8223014"><ele>106.0</ele><time>2026-04-11T09:18:17.531Z</time></trkpt><trkpt lat="43.0173295" lon="13.8221866"><ele>105.5</ele><time>2026-04-11T09:18:18.532Z</time></trkpt><trkpt lat="43.0174322" lon="13.8220981"><ele>105.0</ele><time>2026-04-11T09:18:19.532Z</time></trkpt><trkpt lat="43.0175463" lon="13.8220264"><ele>105.0</ele><time>2026-04-11T09:18:20.532Z</time></trkpt><trkpt lat="43.0176588" lon="13.8219696"><ele>105.0</ele><time>2026-04-11T09:18:21.532Z</time></trkpt><trkpt lat="43.0177718" lon="13.8219088"><ele>105.0</ele><time>2026-04-11T09:18:22.531Z</time></trkpt><trkpt lat="43.0178823" lon="13.8218445"><ele>105.0</ele><time>2026-04-11T09:18:23.531Z</time></trkpt><trkpt lat="43.0179846" lon="13.82176"><ele>105.75</ele><time>2026-04-11T09:18:24.531Z</time></trkpt><trkpt lat="43.0180779" lon="13.8216495"><ele>106.5</ele><time>2026-04-11T09:18:25.532Z</time></trkpt><trkpt lat="43.0181494" lon="13.821524"><ele>107.25</ele><time>2026-04-11T09:18:26.532Z</time></trkpt><trkpt lat="43.0181915" lon="13.8213758"><ele>108.0</ele><time>2026-04-11T09:18:27.531Z</time></trkpt><trkpt lat="43.018219" lon="13.8212169"><ele>108.0</ele><time>2026-04-11T09:18:28.532Z</time></trkpt><trkpt lat="43.0182379" lon="13.8210461"><ele>108.0</ele><time>2026-04-11T09:18:29.532Z</time></trkpt><trkpt lat="43.0182616" lon="13.8208693"><ele>108.0</ele><time>2026-04-11T09:18:30.532Z</time></trkpt><trkpt lat="43.0182817" lon="13.8206916"><ele>108.0</ele><time>2026-04-11T09:18:31.532Z</time></trkpt><trkpt lat="43.0183043" lon="13.8205087"><ele>109.5</ele><time>2026-04-11T09:18:32.532Z</time></trkpt><trkpt lat="43.0183261" lon="13.8203279"><ele>111.0</ele><time>2026-04-11T09:18:33.532Z</time></trkpt><trkpt lat="43.0183524" lon="13.8201402"><ele>112.5</ele><time>2026-04-11T09:18:34.532Z</time></trkpt><trkpt lat="43.0183827" lon="13.8199557"><ele>114.0</ele><time>2026-04-11T09:18:35.532Z</time></trkpt><trkpt lat="43.0183953" lon="13.8197778"><ele>114.6</ele><time>2026-04-11T09:18:36.532Z</time></trkpt><trkpt lat="43.0183971" lon="13.8196221"><ele>115.2</ele><time>2026-04-11T09:18:37.531Z</time></trkpt><trkpt lat="43.0183973" lon="13.8194856"><ele>115.79999999999998</ele><time>2026-04-11T09:18:38.532Z</time></trkpt><trkpt lat="43.018401" lon="13.8193692"><ele>116.39999999999999</ele><time>2026-04-11T09:18:39.532Z</time></trkpt><trkpt lat="43.0184057" lon="13.8192403"><ele>117.0</ele><time>2026-04-11T09:18:41.532Z</time></trkpt><trkpt lat="43.0183657" lon="13.8191445"><ele>122.19999999999999</ele><time>2026-04-11T09:18:52.532Z</time></trkpt><trkpt lat="43.0183172" lon="13.8190411"><ele>127.39999999999999</ele><time>2026-04-11T09:18:55.532Z</time></trkpt><trkpt lat="43.0182793" lon="13.8188948"><ele>132.60000000000002</ele><time>2026-04-11T09:18:57.532Z</time></trkpt><trkpt lat="43.0182109" lon="13.8188149"><ele>137.8</ele><time>2026-04-11T09:18:59.532Z</time></trkpt><trkpt lat="43.0181467" lon="13.8188338"><ele>143.0</ele><time>2026-04-11T09:19:01.532Z</time></trkpt><trkpt lat="43.0180742" lon="13.8189544"><ele>143.0</ele><time>2026-04-11T09:19:03.532Z</time></trkpt><trkpt lat="43.0180373" lon="13.8190844"><ele>143.0</ele><time>2026-04-11T09:19:04.532Z</time></trkpt><trkpt lat="43.017991" lon="13.8191958"><ele>143.0</ele><time>2026-04-11T09:19:05.532Z</time></trkpt><trkpt lat="43.017928" lon="13.8193166"><ele>143.0</ele><time>2026-04-11T09:19:06.532Z</time></trkpt><trkpt lat="43.0178652" lon="13.8194303"><ele>143.0</ele><time>2026-04-11T09:19:07.532Z</time></trkpt><trkpt lat="43.017811" lon="13.8195038"><ele>141.6</ele><time>2026-04-11T09:19:08.531Z</time></trkpt><trkpt lat="43.0177458" lon="13.819566"><ele>140.20000000000002</ele><time>2026-04-11T09:19:09.532Z</time></trkpt><trkpt lat="43.0176691" lon="13.8196039"><ele>138.8</ele><time>2026-04-11T09:19:10.531Z</time></trkpt><trkpt lat="43.0175669" lon="13.8196172"><ele>137.4</ele><time>2026-04-11T09:19:11.532Z</time></trkpt><trkpt lat="43.0174698" lon="13.8196476"><ele>136.0</ele><time>2026-04-11T09:19:12.532Z</time></trkpt><trkpt lat="43.0173692" lon="13.8196531"><ele>136.0</ele><time>2026-04-11T09:19:13.532Z</time></trkpt><trkpt lat="43.0172632" lon="13.8196643"><ele>136.0</ele><time>2026-04-11T09:19:14.532Z</time></trkpt><trkpt lat="43.0171537" lon="13.8196793"><ele>136.0</ele><time>2026-04-11T09:19:15.532Z</time></trkpt><trkpt lat="43.0170436" lon="13.8196899"><ele>136.0</ele><time>2026-04-11T09:19:16.532Z</time></trkpt><trkpt lat="43.0169197" lon="13.8196914"><ele>136.0</ele><time>2026-04-11T09:19:17.532Z</time></trkpt><trkpt lat="43.0167976" lon="13.8196788"><ele>136.0</ele><time>2026-04-11T09:19:18.532Z</time></trkpt><trkpt lat="43.0166829" lon="13.8196574"><ele>136.0</ele><time>2026-04-11T09:19:19.532Z</time></trkpt><trkpt lat="43.0165549" lon="13.8196086"><ele>136.0</ele><time>2026-04-11T09:19:20.531Z</time></trkpt><trkpt lat="43.0164149" lon="13.8195476"><ele>133.5</ele><time>2026-04-11T09:19:21.532Z</time></trkpt><trkpt lat="43.0163132" lon="13.8194892"><ele>131.0</ele><time>2026-04-11T09:19:22.532Z</time></trkpt><trkpt lat="43.0162127" lon="13.8193896"><ele>128.5</ele><time>2026-04-11T09:19:23.532Z</time></trkpt><trkpt lat="43.0160855" lon="13.819251"><ele>126.0</ele><time>2026-04-11T09:19:24.532Z</time></trkpt><trkpt lat="43.0159431" lon="13.8190869"><ele>127.25</ele><time>2026-04-11T09:19:25.532Z</time></trkpt><trkpt lat="43.0158227" lon="13.8189575"><ele>128.5</ele><time>2026-04-11T09:19:26.531Z</time></trkpt><trkpt lat="43.0157389" lon="13.8188588"><ele>129.75</ele><time>2026-04-11T09:19:27.532Z</time></trkpt><trkpt lat="43.0156554" lon="13.8187396"><ele>131.0</ele><time>2026-04-11T09:19:28.532Z</time></trkpt><trkpt lat="43.0155493" lon="13.8185993"><ele>136.0</ele><time>2026-04-11T09:19:29.532Z</time></trkpt><trkpt lat="43.015435" lon="13.8184801"><ele>141.0</ele><time>2026-04-11T09:19:30.532Z</time></trkpt><trkpt lat="43.0153137" lon="13.818338"><ele>146.0</ele><time>2026-04-11T09:19:31.532Z</time></trkpt><trkpt lat="43.0152052" lon="13.8182281"><ele>151.0</ele><time>2026-04-11T09:19:32.532Z</time></trkpt><trkpt lat="43.0151176" lon="13.8181255"><ele>151.0</ele><time>2026-04-11T09:19:33.532Z</time></trkpt><trkpt lat="43.015049" lon="13.8180183"><ele>151.0</ele><time>2026-04-11T09:19:34.532Z</time></trkpt><trkpt lat="43.0150201" lon="13.8179208"><ele>151.0</ele><time>2026-04-11T09:19:35.531Z</time></trkpt><trkpt lat="43.0150043" lon="13.8178163"><ele>151.0</ele><time>2026-04-11T09:19:36.532Z</time></trkpt><trkpt lat="43.014995" lon="13.8176864"><ele>151.0</ele><time>2026-04-11T09:19:37.531Z</time></trkpt><trkpt lat="43.014993" lon="13.8175268"><ele>149.33333333333334</ele><time>2026-04-11T09:19:38.532Z</time></trkpt><trkpt lat="43.0149927" lon="13.8173487"><ele>147.66666666666666</ele><time>2026-04-11T09:19:39.532Z</time></trkpt><trkpt lat="43.0149797" lon="13.8171058"><ele>146.0</ele><time>2026-04-11T09:19:40.532Z</time></trkpt><trkpt lat="43.0149558" lon="13.8169148"><ele>151.0</ele><time>2026-04-11T09:19:41.531Z</time></trkpt><trkpt lat="43.0149308" lon="13.8167163"><ele>156.0</ele><time>2026-04-11T09:19:42.532Z</time></trkpt><trkpt lat="43.0149099" lon="13.8165393"><ele>161.0</ele><time>2026-04-11T09:19:43.532Z</time></trkpt><trkpt lat="43.0148855" lon="13.816398"><ele>166.0</ele><time>2026-04-11T09:19:44.532Z</time></trkpt><trkpt lat="43.014849" lon="13.8162884"><ele>166.0</ele><time>2026-04-11T09:19:45.531Z</time></trkpt><trkpt lat="43.0147981" lon="13.8161958"><ele>166.0</ele><time>2026-04-11T09:19:46.532Z</time></trkpt><trkpt lat="43.0147272" lon="13.8161178"><ele>166.0</ele><time>2026-04-11T09:19:47.532Z</time></trkpt><trkpt lat="43.0146529" lon="13.8160602"><ele>166.0</ele><time>2026-04-11T09:19:48.532Z</time></trkpt><trkpt lat="43.0145809" lon="13.8160242"><ele>166.0</ele><time>2026-04-11T09:19:49.532Z</time></trkpt><trkpt lat="43.0145189" lon="13.815994"><ele>166.0</ele><time>2026-04-11T09:19:50.532Z</time></trkpt><trkpt lat="43.0144277" lon="13.8158785"><ele>169.0</ele><time>2026-04-11T09:19:52.532Z</time></trkpt><trkpt lat="43.0143969" lon="13.8157916"><ele>172.0</ele><time>2026-04-11T09:19:53.531Z</time></trkpt><trkpt lat="43.0143694" lon="13.8156896"><ele>175.0</ele><time>2026-04-11T09:19:54.532Z</time></trkpt><trkpt lat="43.0143362" lon="13.8155907"><ele>178.0</ele><time>2026-04-11T09:19:55.532Z</time></trkpt><trkpt lat="43.0142498" lon="13.8154968"><ele>181.0</ele><time>2026-04-11T09:19:57.532Z</time></trkpt><trkpt lat="43.0141892" lon="13.8155488"><ele>184.0</ele><time>2026-04-11T09:19:59.532Z</time></trkpt><trkpt lat="43.0141718" lon="13.8156792"><ele>184.0</ele><time>2026-04-11T09:20:01.532Z</time></trkpt><trkpt lat="43.014168" lon="13.815785"><ele>184.0</ele><time>2026-04-11T09:20:02.532Z</time></trkpt><trkpt lat="43.0141551" lon="13.8158803"><ele>184.0</ele><time>2026-04-11T09:20:03.532Z</time></trkpt><trkpt lat="43.014088" lon="13.8159624"><ele>184.0</ele><time>2026-04-11T09:20:05.531Z</time></trkpt><trkpt lat="43.0140035" lon="13.8159369"><ele>184.0</ele><time>2026-04-11T09:20:07.532Z</time></trkpt><trkpt lat="43.0138992" lon="13.8158625"><ele>184.0</ele><time>2026-04-11T09:20:09.532Z</time></trkpt><trkpt lat="43.0138036" lon="13.8157704"><ele>183.6</ele><time>2026-04-11T09:20:11.532Z</time></trkpt><trkpt lat="43.0137547" lon="13.815713"><ele>183.2</ele><time>2026-04-11T09:20:12.532Z</time></trkpt><trkpt lat="43.0136732" lon="13.8156297"><ele>182.79999999999998</ele><time>2026-04-11T09:20:14.532Z</time></trkpt><trkpt lat="43.0135929" lon="13.815545"><ele>182.39999999999998</ele><time>2026-04-11T09:20:16.532Z</time></trkpt><trkpt lat="43.0135038" lon="13.8154369"><ele>182.0</ele><time>2026-04-11T09:20:18.531Z</time></trkpt><trkpt lat="43.0134464" lon="13.8153827"><ele>182.0</ele><time>2026-04-11T09:20:19.532Z</time></trkpt><trkpt lat="43.0133882" lon="13.8153246"><ele>182.0</ele><time>2026-04-11T09:20:20.531Z</time></trkpt><trkpt lat="43.0133362" lon="13.8152654"><ele>182.0</ele><time>2026-04-11T09:20:21.532Z</time></trkpt><trkpt lat="43.0132862" lon="13.8152071"><ele>182.0</ele><time>2026-04-11T09:20:22.531Z</time></trkpt><trkpt lat="43.0132335" lon="13.8151529"><ele>182.0</ele><time>2026-04-11T09:20:23.532Z</time></trkpt><trkpt lat="43.01314" lon="13.8150599"><ele>182.0</ele><time>2026-04-11T09:20:25.532Z</time></trkpt><trkpt lat="43.0130915" lon="13.8149943"><ele>184.8</ele><time>2026-04-11T09:20:26.532Z</time></trkpt><trkpt lat="43.0130405" lon="13.8149054"><ele>187.6</ele><time>2026-04-11T09:20:27.532Z</time></trkpt><trkpt lat="43.0129879" lon="13.8148029"><ele>190.4</ele><time>2026-04-11T09:20:28.532Z</time></trkpt><trkpt lat="43.0129298" lon="13.8146862"><ele>193.20000000000002</ele><time>2026-04-11T09:20:29.531Z</time></trkpt><trkpt lat="43.0128738" lon="13.8145609"><ele>196.0</ele><time>2026-04-11T09:20:30.531Z</time></trkpt><trkpt lat="43.0128197" lon="13.8144498"><ele>195.99999999999997</ele><time>2026-04-11T09:20:31.532Z</time></trkpt><trkpt lat="43.0127668" lon="13.8143453"><ele>196.0</ele><time>2026-04-11T09:20:32.532Z</time></trkpt><trkpt lat="43.0127235" lon="13.8142511"><ele>196.0</ele><time>2026-04-11T09:20:33.531Z</time></trkpt><trkpt lat="43.0126902" lon="13.8141547"><ele>196.0</ele><time>2026-04-11T09:20:34.532Z</time></trkpt><trkpt lat="43.0126649" lon="13.8140691"><ele>195.99999999999997</ele><time>2026-04-11T09:20:35.532Z</time></trkpt><trkpt lat="43.0126078" lon="13.8139557"><ele>196.0</ele><time>2026-04-11T09:20:37.532Z</time></trkpt><trkpt lat="43.0125404" lon="13.8138258"><ele>196.0</ele><time>2026-04-11T09:20:39.532Z</time></trkpt><trkpt lat="43.0124639" lon="13.8136888"><ele>196.0</ele><time>2026-04-11T09:20:41.532Z</time></trkpt><trkpt lat="43.0124157" lon="13.8136096"><ele>196.0</ele><time>2026-04-11T09:20:42.532Z</time></trkpt><trkpt lat="43.0123626" lon="13.8135236"><ele>196.0</ele><time>2026-04-11T09:20:43.532Z</time></trkpt><trkpt lat="43.0123079" lon="13.8134291"><ele>196.0</ele><time>2026-04-11T09:20:44.532Z</time></trkpt><trkpt lat="43.0122522" lon="13.8133296"><ele>199.49999999999997</ele><time>2026-04-11T09:20:45.532Z</time></trkpt><trkpt lat="43.0121978" lon="13.8132312"><ele>203.0</ele><time>2026-04-11T09:20:46.532Z</time></trkpt><trkpt lat="43.012145" lon="13.8131378"><ele>206.5</ele><time>2026-04-11T09:20:47.532Z</time></trkpt><trkpt lat="43.0120921" lon="13.8130445"><ele>210.0</ele><time>2026-04-11T09:20:48.532Z</time></trkpt><trkpt lat="43.0120366" lon="13.8129477"><ele>213.49999999999997</ele><time>2026-04-11T09:20:49.532Z</time></trkpt><trkpt lat="43.0119813" lon="13.8128476"><ele>217.0</ele><time>2026-04-11T09:20:50.532Z</time></trkpt><trkpt lat="43.0119269" lon="13.8127458"><ele>218.99999999999997</ele><time>2026-04-11T09:20:51.531Z</time></trkpt><trkpt lat="43.0118714" lon="13.8126395"><ele>221.0</ele><time>2026-04-11T09:20:52.532Z</time></trkpt><trkpt lat="43.0118214" lon="13.8125396"><ele>223.0</ele><time>2026-04-11T09:20:53.532Z</time></trkpt><trkpt lat="43.0117815" lon="13.8124448"><ele>225.0</ele><time>2026-04-11T09:20:54.532Z</time></trkpt><trkpt lat="43.0117507" lon="13.8123478"><ele>226.99999999999997</ele><time>2026-04-11T09:20:55.532Z</time></trkpt><trkpt lat="43.0117282" lon="13.8122604"><ele>229.0</ele><time>2026-04-11T09:20:56.531Z</time></trkpt><trkpt lat="43.0116908" lon="13.8121071"><ele>226.83333333333331</ele><time>2026-04-11T09:20:58.532Z</time></trkpt><trkpt lat="43.0116476" lon="13.8119422"><ele>224.66666666666666</ele><time>2026-04-11T09:21:00.532Z</time></trkpt><trkpt lat="43.0116238" lon="13.8118548"><ele>222.5</ele><time>2026-04-11T09:21:01.531Z</time></trkpt><trkpt lat="43.011601" lon="13.8117695"><ele>220.33333333333331</ele><time>2026-04-11T09:21:02.531Z</time></trkpt><trkpt lat="43.0115768" lon="13.8116707"><ele>218.16666666666666</ele><time>2026-04-11T09:21:03.532Z</time></trkpt><trkpt lat="43.0115524" lon="13.8115839"><ele>216.0</ele><time>2026-04-11T09:21:04.532Z</time></trkpt><trkpt lat="43.011493" lon="13.8114026"><ele>216.0</ele><time>2026-04-11T09:21:06.532Z</time></trkpt><trkpt lat="43.0114587" lon="13.811268"><ele>216.0</ele><time>2026-04-11T09:21:07.532Z</time></trkpt><trkpt lat="43.0114182" lon="13.8110991"><ele>216.0</ele><time>2026-04-11T09:21:08.532Z</time></trkpt><trkpt lat="43.0113666" lon="13.8109016"><ele>216.0</ele><time>2026-04-11T09:21:09.531Z</time></trkpt><trkpt lat="43.0113166" lon="13.8107287"><ele>220.0</ele><time>2026-04-11T09:21:10.532Z</time></trkpt><trkpt lat="43.0112768" lon="13.8105958"><ele>224.00000000000003</ele><time>2026-04-11T09:21:11.531Z</time></trkpt><trkpt lat="43.0112497" lon="13.8104948"><ele>228.00000000000003</ele><time>2026-04-11T09:21:12.532Z</time></trkpt><trkpt lat="43.0112246" lon="13.8103913"><ele>232.0</ele><time>2026-04-11T09:21:13.532Z</time></trkpt><trkpt lat="43.0111893" lon="13.8102569"><ele>236.0</ele><time>2026-04-11T09:21:14.531Z</time></trkpt><trkpt lat="43.0111603" lon="13.8101343"><ele>237.60000000000002</ele><time>2026-04-11T09:21:15.532Z</time></trkpt><trkpt lat="43.0111444" lon="13.810044"><ele>239.20000000000002</ele><time>2026-04-11T09:21:16.532Z</time></trkpt><trkpt lat="43.011137" lon="13.8098886"><ele>240.79999999999998</ele><time>2026-04-11T09:21:18.532Z</time></trkpt><trkpt lat="43.0111584" lon="13.8097282"><ele>242.39999999999998</ele><time>2026-04-11T09:21:20.532Z</time></trkpt><trkpt lat="43.0111787" lon="13.8096443"><ele>244.0</ele><time>2026-04-11T09:21:21.532Z</time></trkpt><trkpt lat="43.0112328" lon="13.8095269"><ele>244.0</ele><time>2026-04-11T09:21:23.532Z</time></trkpt><trkpt lat="43.0113309" lon="13.809452"><ele>243.99999999999997</ele><time>2026-04-11T09:21:25.531Z</time></trkpt><trkpt lat="43.0114381" lon="13.809413"><ele>243.99999999999997</ele><time>2026-04-11T09:21:27.531Z</time></trkpt><trkpt lat="43.0115308" lon="13.8093617"><ele>244.0</ele><time>2026-04-11T09:21:29.532Z</time></trkpt><trkpt lat="43.011575" lon="13.8092526"><ele>244.0</ele><time>2026-04-11T09:21:31.532Z</time></trkpt><trkpt lat="43.0115907" lon="13.8091258"><ele>243.99999999999997</ele><time>2026-04-11T09:21:33.532Z</time></trkpt><trkpt lat="43.0116243" lon="13.8090096"><ele>244.0</ele><time>2026-04-11T09:21:35.532Z</time></trkpt><trkpt lat="43.0116522" lon="13.8089298"><ele>244.0</ele><time>2026-04-11T09:21:38.532Z</time></trkpt><trkpt lat="43.0116964" lon="13.8088071"><ele>244.0</ele><time>2026-04-11T09:22:19.532Z</time></trkpt><trkpt lat="43.0117493" lon="13.8087094"><ele>243.99999999999997</ele><time>2026-04-11T09:22:21.532Z</time></trkpt><trkpt lat="43.0118217" lon="13.808624"><ele>244.0</ele><time>2026-04-11T09:22:23.531Z</time></trkpt><trkpt lat="43.0119111" lon="13.8085235"><ele>247.6</ele><time>2026-04-11T09:22:25.532Z</time></trkpt><trkpt lat="43.0119928" lon="13.8084118"><ele>251.2</ele><time>2026-04-11T09:22:27.531Z</time></trkpt><trkpt lat="43.0120413" lon="13.8083043"><ele>254.79999999999998</ele><time>2026-04-11T09:22:29.532Z</time></trkpt><trkpt lat="43.0120728" lon="13.8082135"><ele>258.4</ele><time>2026-04-11T09:22:31.532Z</time></trkpt><trkpt lat="43.0120647" lon="13.8080887"><ele>262.0</ele><time>2026-04-11T09:22:33.532Z</time></trkpt><trkpt lat="43.0120313" lon="13.8079764"><ele>262.0</ele><time>2026-04-11T09:22:34.532Z</time></trkpt><trkpt lat="43.0119886" lon="13.8078483"><ele>262.0</ele><time>2026-04-11T09:22:35.532Z</time></trkpt><trkpt lat="43.0119392" lon="13.8077531"><ele>262.0</ele><time>2026-04-11T09:22:36.532Z</time></trkpt><trkpt lat="43.0118796" lon="13.8076495"><ele>262.0</ele><time>2026-04-11T09:22:37.532Z</time></trkpt><trkpt lat="43.0118251" lon="13.807508"><ele>262.0</ele><time>2026-04-11T09:22:38.532Z</time></trkpt><trkpt lat="43.0117847" lon="13.8073851"><ele>262.4</ele><time>2026-04-11T09:22:39.532Z</time></trkpt><trkpt lat="43.0117349" lon="13.8072454"><ele>262.79999999999995</ele><time>2026-04-11T09:22:40.532Z</time></trkpt><trkpt lat="43.0116747" lon="13.8070826"><ele>263.2</ele><time>2026-04-11T09:22:41.532Z</time></trkpt><trkpt lat="43.0116427" lon="13.8069736"><ele>263.59999999999997</ele><time>2026-04-11T09:22:42.532Z</time></trkpt><trkpt lat="43.0116215" lon="13.8068823"><ele>264.0</ele><time>2026-04-11T09:22:43.532Z</time></trkpt><trkpt lat="43.0116205" lon="13.8067799"><ele>262.8333333333333</ele><time>2026-04-11T09:22:44.532Z</time></trkpt><trkpt lat="43.0116242" lon="13.8066829"><ele>261.6666666666667</ele><time>2026-04-11T09:22:45.532Z</time></trkpt><trkpt lat="43.0116345" lon="13.8065786"><ele>260.5</ele><time>2026-04-11T09:22:46.532Z</time></trkpt><trkpt lat="43.0116279" lon="13.8064705"><ele>259.33333333333337</ele><time>2026-04-11T09:22:47.532Z</time></trkpt><trkpt lat="43.0116055" lon="13.8063856"><ele>258.1666666666667</ele><time>2026-04-11T09:22:48.532Z</time></trkpt><trkpt lat="43.0115856" lon="13.8063001"><ele>257.0</ele><time>2026-04-11T09:22:49.531Z</time></trkpt><trkpt lat="43.0115824" lon="13.8061431"><ele>257.0</ele><time>2026-04-11T09:22:51.532Z</time></trkpt><trkpt lat="43.0115881" lon="13.8060408"><ele>257.0</ele><time>2026-04-11T09:22:52.532Z</time></trkpt><trkpt lat="43.0115956" lon="13.8059407"><ele>257.0</ele><time>2026-04-11T09:22:53.531Z</time></trkpt><trkpt lat="43.0116038" lon="13.805837"><ele>257.0</ele><time>2026-04-11T09:22:54.532Z</time></trkpt><trkpt lat="43.0116126" lon="13.8057326"><ele>257.0</ele><time>2026-04-11T09:22:55.532Z</time></trkpt><trkpt lat="43.0116284" lon="13.8055848"><ele>257.0</ele><time>2026-04-11T09:22:57.532Z</time></trkpt><trkpt lat="43.0116811" lon="13.8054459"><ele>259.83333333333337</ele><time>2026-04-11T09:22:59.532Z</time></trkpt><trkpt lat="43.0117235" lon="13.8053605"><ele>262.6666666666667</ele><time>2026-04-11T09:23:00.532Z</time></trkpt><trkpt lat="43.0117426" lon="13.8052692"><ele>265.5</ele><time>2026-04-11T09:23:01.532Z</time></trkpt><trkpt lat="43.0117549" lon="13.8051607"><ele>268.3333333333333</ele><time>2026-04-11T09:23:02.532Z</time></trkpt><trkpt lat="43.0117597" lon="13.8050579"><ele>271.16666666666663</ele><time>2026-04-11T09:23:03.532Z</time></trkpt><trkpt lat="43.0117622" lon="13.8049412"><ele>274.0</ele><time>2026-04-11T09:23:04.532Z</time></trkpt><trkpt lat="43.0117663" lon="13.8048054"><ele>274.8333333333333</ele><time>2026-04-11T09:23:05.532Z</time></trkpt><trkpt lat="43.0117709" lon="13.8046727"><ele>275.66666666666663</ele><time>2026-04-11T09:23:06.532Z</time></trkpt><trkpt lat="43.0117737" lon="13.8045559"><ele>276.5</ele><time>2026-04-11T09:23:07.532Z</time></trkpt><trkpt lat="43.0117758" lon="13.8044449"><ele>277.3333333333333</ele><time>2026-04-11T09:23:08.532Z</time></trkpt><trkpt lat="43.01178" lon="13.8043329"><ele>278.1666666666667</ele><time>2026-04-11T09:23:09.532Z</time></trkpt><trkpt lat="43.0117863" lon="13.804223"><ele>279.0</ele><time>2026-04-11T09:23:10.531Z</time></trkpt><trkpt lat="43.0117836" lon="13.804107"><ele>279.59999999999997</ele><time>2026-04-11T09:23:11.532Z</time></trkpt><trkpt lat="43.0117744" lon="13.8039977"><ele>280.2</ele><time>2026-04-11T09:23:12.532Z</time></trkpt><trkpt lat="43.0117607" lon="13.8038911"><ele>280.79999999999995</ele><time>2026-04-11T09:23:13.532Z</time></trkpt><trkpt lat="43.0117402" lon="13.8037761"><ele>281.4</ele><time>2026-04-11T09:23:14.531Z</time></trkpt><trkpt lat="43.0117114" lon="13.8036393"><ele>282.0</ele><time>2026-04-11T09:23:15.531Z</time></trkpt><trkpt lat="43.0116726" lon="13.8035081"><ele>282.2</ele><time>2026-04-11T09:23:16.532Z</time></trkpt><trkpt lat="43.0116266" lon="13.8033916"><ele>282.4</ele><time>2026-04-11T09:23:17.532Z</time></trkpt><trkpt lat="43.011553" lon="13.803254"><ele>282.6</ele><time>2026-04-11T09:23:18.532Z</time></trkpt><trkpt lat="43.0114695" lon="13.8031334"><ele>282.8</ele><time>2026-04-11T09:23:19.532Z</time></trkpt><trkpt lat="43.011401" lon="13.8030326"><ele>283.0</ele><time>2026-04-11T09:23:20.531Z</time></trkpt><trkpt lat="43.0113466" lon="13.8029312"><ele>283.0</ele><time>2026-04-11T09:23:21.532Z</time></trkpt><trkpt lat="43.0112921" lon="13.8028222"><ele>283.0</ele><time>2026-04-11T09:23:22.532Z</time></trkpt><trkpt lat="43.0112348" lon="13.8027114"><ele>283.0</ele><time>2026-04-11T09:23:23.532Z</time></trkpt><trkpt lat="43.0111954" lon="13.8026167"><ele>283.0</ele><time>2026-04-11T09:23:24.531Z</time></trkpt><trkpt lat="43.0111603" lon="13.8025289"><ele>283.0</ele><time>2026-04-11T09:23:25.532Z</time></trkpt><trkpt lat="43.0111359" lon="13.802425"><ele>283.0</ele><time>2026-04-11T09:23:26.532Z</time></trkpt><trkpt lat="43.0111172" lon="13.8023116"><ele>284.3333333333333</ele><time>2026-04-11T09:23:27.532Z</time></trkpt><trkpt lat="43.0110971" lon="13.8022011"><ele>285.66666666666663</ele><time>2026-04-11T09:23:28.532Z</time></trkpt><trkpt lat="43.0110754" lon="13.8020959"><ele>287.0</ele><time>2026-04-11T09:23:29.532Z</time></trkpt><trkpt lat="43.0110503" lon="13.8019856"><ele>288.3333333333333</ele><time>2026-04-11T09:23:30.532Z</time></trkpt><trkpt lat="43.0110353" lon="13.8018827"><ele>289.6666666666667</ele><time>2026-04-11T09:23:31.532Z</time></trkpt><trkpt lat="43.0110148" lon="13.8017628"><ele>291.0</ele><time>2026-04-11T09:23:32.532Z</time></trkpt><trkpt lat="43.0109937" lon="13.8016376"><ele>291.0</ele><time>2026-04-11T09:23:33.532Z</time></trkpt><trkpt lat="43.0109723" lon="13.8015255"><ele>291.0</ele><time>2026-04-11T09:23:34.531Z</time></trkpt><trkpt lat="43.0109557" lon="13.8014203"><ele>291.0</ele><time>2026-04-11T09:23:35.532Z</time></trkpt><trkpt lat="43.0109421" lon="13.801324"><ele>291.0</ele><time>2026-04-11T09:23:36.532Z</time></trkpt><trkpt lat="43.0109225" lon="13.8011716"><ele>291.0</ele><time>2026-04-11T09:23:38.532Z</time></trkpt><trkpt lat="43.0109181" lon="13.8010149"><ele>291.0</ele><time>2026-04-11T09:23:40.532Z</time></trkpt><trkpt lat="43.010891" lon="13.8008713"><ele>291.0</ele><time>2026-04-11T09:23:42.532Z</time></trkpt><trkpt lat="43.010858" lon="13.8007608"><ele>291.0</ele><time>2026-04-11T09:23:43.532Z</time></trkpt><trkpt lat="43.0108351" lon="13.8006619"><ele>291.0</ele><time>2026-04-11T09:23:44.532Z</time></trkpt><trkpt lat="43.0108057" lon="13.8005513"><ele>291.0</ele><time>2026-04-11T09:23:45.532Z</time></trkpt><trkpt lat="43.0107831" lon="13.8004379"><ele>291.0</ele><time>2026-04-11T09:23:46.532Z</time></trkpt><trkpt lat="43.010762" lon="13.80032"><ele>289.6</ele><time>2026-04-11T09:23:47.531Z</time></trkpt><trkpt lat="43.0107383" lon="13.8001986"><ele>288.20000000000005</ele><time>2026-04-11T09:23:48.532Z</time></trkpt><trkpt lat="43.0107082" lon="13.8000685"><ele>286.79999999999995</ele><time>2026-04-11T09:23:49.532Z</time></trkpt><trkpt lat="43.0106734" lon="13.7999303"><ele>285.4</ele><time>2026-04-11T09:23:50.531Z</time></trkpt><trkpt lat="43.0106298" lon="13.7997832"><ele>284.0</ele><time>2026-04-11T09:23:51.531Z</time></trkpt><trkpt lat="43.0105833" lon="13.7996314"><ele>284.0</ele><time>2026-04-11T09:23:52.532Z</time></trkpt><trkpt lat="43.0105354" lon="13.7994832"><ele>284.0</ele><time>2026-04-11T09:23:53.531Z</time></trkpt><trkpt lat="43.0104945" lon="13.7993389"><ele>284.0</ele><time>2026-04-11T09:23:54.532Z</time></trkpt><trkpt lat="43.0104491" lon="13.7991987"><ele>284.0</ele><time>2026-04-11T09:23:55.532Z</time></trkpt><trkpt lat="43.0104001" lon="13.7990799"><ele>284.0</ele><time>2026-04-11T09:23:56.532Z</time></trkpt><trkpt lat="43.0103553" lon="13.7989922"><ele>284.83333333333337</ele><time>2026-04-11T09:23:57.532Z</time></trkpt><trkpt lat="43.0103091" lon="13.7989257"><ele>285.6666666666667</ele><time>2026-04-11T09:23:58.531Z</time></trkpt><trkpt lat="43.0102592" lon="13.7988648"><ele>286.5</ele><time>2026-04-11T09:23:59.532Z</time></trkpt><trkpt lat="43.0101951" lon="13.7987853"><ele>287.3333333333333</ele><time>2026-04-11T09:24:00.531Z</time></trkpt><trkpt lat="43.010117" lon="13.798691"><ele>288.16666666666663</ele><time>2026-04-11T09:24:01.532Z</time></trkpt><trkpt lat="43.0100281" lon="13.7985832"><ele>289.0</ele><time>2026-04-11T09:24:02.532Z</time></trkpt><trkpt lat="43.0099456" lon="13.798484"><ele>289.0</ele><time>2026-04-11T09:24:03.532Z</time></trkpt><trkpt lat="43.0098816" lon="13.798403"><ele>289.0</ele><time>2026-04-11T09:24:04.531Z</time></trkpt><trkpt lat="43.0098223" lon="13.7983237"><ele>289.0</ele><time>2026-04-11T09:24:05.532Z</time></trkpt><trkpt lat="43.0097641" lon="13.7982466"><ele>289.0</ele><time>2026-04-11T09:24:06.532Z</time></trkpt><trkpt lat="43.0097034" lon="13.7981688"><ele>289.0</ele><time>2026-04-11T09:24:07.532Z</time></trkpt><trkpt lat="43.0096478" lon="13.7980889"><ele>289.0</ele><time>2026-04-11T09:24:08.532Z</time></trkpt><trkpt lat="43.0095949" lon="13.7980121"><ele>289.0</ele><time>2026-04-11T09:24:09.532Z</time></trkpt><trkpt lat="43.0095342" lon="13.7979228"><ele>289.0</ele><time>2026-04-11T09:24:10.531Z</time></trkpt><trkpt lat="43.0094748" lon="13.7978375"><ele>289.0</ele><time>2026-04-11T09:24:11.532Z</time></trkpt><trkpt lat="43.0094155" lon="13.7977635"><ele>289.0</ele><time>2026-04-11T09:24:12.532Z</time></trkpt><trkpt lat="43.0093575" lon="13.7976964"><ele>289.0</ele><time>2026-04-11T09:24:13.532Z</time></trkpt><trkpt lat="43.0092968" lon="13.7976336"><ele>289.0</ele><time>2026-04-11T09:24:14.532Z</time></trkpt><trkpt lat="43.0092277" lon="13.7975713"><ele>291.0</ele><time>2026-04-11T09:24:15.532Z</time></trkpt><trkpt lat="43.0091409" lon="13.797495"><ele>293.0</ele><time>2026-04-11T09:24:16.532Z</time></trkpt><trkpt lat="43.0090371" lon="13.7973993"><ele>295.0</ele><time>2026-04-11T09:24:17.532Z</time></trkpt><trkpt lat="43.0089222" lon="13.7972921"><ele>297.0</ele><time>2026-04-11T09:24:18.532Z</time></trkpt><trkpt lat="43.0088208" lon="13.7971952"><ele>297.0</ele><time>2026-04-11T09:24:19.531Z</time></trkpt><trkpt lat="43.0087399" lon="13.7970965"><ele>297.0</ele><time>2026-04-11T09:24:20.532Z</time></trkpt><trkpt lat="43.0086619" lon="13.7969733"><ele>297.0</ele><time>2026-04-11T09:24:21.532Z</time></trkpt><trkpt lat="43.0085825" lon="13.7968367"><ele>297.0</ele><time>2026-04-11T09:24:22.532Z</time></trkpt><trkpt lat="43.0084914" lon="13.7967003"><ele>299.5</ele><time>2026-04-11T09:24:23.532Z</time></trkpt><trkpt lat="43.0083887" lon="13.7965601"><ele>302.0</ele><time>2026-04-11T09:24:24.532Z</time></trkpt><trkpt lat="43.0082784" lon="13.7964179"><ele>304.5</ele><time>2026-04-11T09:24:25.532Z</time></trkpt><trkpt lat="43.0081742" lon="13.7962813"><ele>307.0</ele><time>2026-04-11T09:24:26.532Z</time></trkpt><trkpt lat="43.0080987" lon="13.7961784"><ele>308.0</ele><time>2026-04-11T09:24:27.532Z</time></trkpt><trkpt lat="43.0080432" lon="13.7961275"><ele>309.0</ele><time>2026-04-11T09:24:28.532Z</time></trkpt><trkpt lat="43.0079709" lon="13.7961019"><ele>310.0</ele><time>2026-04-11T09:24:29.532Z</time></trkpt><trkpt lat="43.0078604" lon="13.7960704"><ele>311.0</ele><time>2026-04-11T09:24:30.532Z</time></trkpt><trkpt lat="43.0077541" lon="13.7960339"><ele>312.0</ele><time>2026-04-11T09:24:31.532Z</time></trkpt><trkpt lat="43.0076669" lon="13.7960071"><ele>312.5</ele><time>2026-04-11T09:24:32.532Z</time></trkpt><trkpt lat="43.0075598" lon="13.7959694"><ele>313.0</ele><time>2026-04-11T09:24:33.532Z</time></trkpt><trkpt lat="43.007427" lon="13.7959127"><ele>313.5</ele><time>2026-04-11T09:24:34.532Z</time></trkpt><trkpt lat="43.0072832" lon="13.7958491"><ele>314.0</ele><time>2026-04-11T09:24:35.532Z</time></trkpt><trkpt lat="43.0071506" lon="13.7957915"><ele>315.5</ele><time>2026-04-11T09:24:36.532Z</time></trkpt><trkpt lat="43.0070158" lon="13.7957444"><ele>317.0</ele><time>2026-04-11T09:24:37.532Z</time></trkpt><trkpt lat="43.0068838" lon="13.7957001"><ele>318.5</ele><time>2026-04-11T09:24:38.531Z</time></trkpt><trkpt lat="43.0067716" lon="13.7956687"><ele>320.0</ele><time>2026-04-11T09:24:39.532Z</time></trkpt><trkpt lat="43.0066516" lon="13.7956491"><ele>320.6</ele><time>2026-04-11T09:24:40.532Z</time></trkpt><trkpt lat="43.0065282" lon="13.7956454"><ele>321.2</ele><time>2026-04-11T09:24:41.532Z</time></trkpt><trkpt lat="43.0064176" lon="13.7956459"><ele>321.79999999999995</ele><time>2026-04-11T09:24:42.532Z</time></trkpt><trkpt lat="43.0063255" lon="13.7956321"><ele>322.4</ele><time>2026-04-11T09:24:43.532Z</time></trkpt><trkpt lat="43.0062445" lon="13.7955905"><ele>323.0</ele><time>2026-04-11T09:24:44.532Z</time></trkpt><trkpt lat="43.0061893" lon="13.7955242"><ele>323.0</ele><time>2026-04-11T09:24:45.532Z</time></trkpt><trkpt lat="43.0061338" lon="13.7954394"><ele>323.0</ele><time>2026-04-11T09:24:46.532Z</time></trkpt><trkpt lat="43.0060737" lon="13.7952882"><ele>323.0</ele><time>2026-04-11T09:24:47.532Z</time></trkpt><trkpt lat="43.0060202" lon="13.7951863"><ele>323.0</ele><time>2026-04-11T09:24:48.532Z</time></trkpt><trkpt lat="43.0059614" lon="13.7951343"><ele>323.0</ele><time>2026-04-11T09:24:49.532Z</time></trkpt><trkpt lat="43.0058889" lon="13.7951263"><ele>323.0</ele><time>2026-04-11T09:24:50.532Z</time></trkpt><trkpt lat="43.0058041" lon="13.7951542"><ele>323.25</ele><time>2026-04-11T09:24:51.532Z</time></trkpt><trkpt lat="43.0056938" lon="13.79522"><ele>323.5</ele><time>2026-04-11T09:24:52.532Z</time></trkpt><trkpt lat="43.0055711" lon="13.7952821"><ele>323.75</ele><time>2026-04-11T09:24:53.532Z</time></trkpt><trkpt lat="43.0054558" lon="13.7953141"><ele>324.0</ele><time>2026-04-11T09:24:54.532Z</time></trkpt><trkpt lat="43.0053717" lon="13.7953145"><ele>324.0</ele><time>2026-04-11T09:24:55.532Z</time></trkpt><trkpt lat="43.0052899" lon="13.7952968"><ele>324.0</ele><time>2026-04-11T09:24:57.532Z</time></trkpt><trkpt lat="43.0052299" lon="13.7952649"><ele>324.0</ele><time>2026-04-11T09:25:13.532Z</time></trkpt><trkpt lat="43.0051879" lon="13.7951757"><ele>324.0</ele><time>2026-04-11T09:25:15.532Z</time></trkpt><trkpt lat="43.0051387" lon="13.7950288"><ele>324.0</ele><time>2026-04-11T09:25:17.532Z</time></trkpt><trkpt lat="43.0051062" lon="13.7949327"><ele>324.0</ele><time>2026-04-11T09:25:18.532Z</time></trkpt><trkpt lat="43.0050761" lon="13.7948259"><ele>324.6</ele><time>2026-04-11T09:25:19.532Z</time></trkpt><trkpt lat="43.0050523" lon="13.7947085"><ele>325.2</ele><time>2026-04-11T09:25:20.532Z</time></trkpt><trkpt lat="43.0050281" lon="13.7945899"><ele>325.8</ele><time>2026-04-11T09:25:21.532Z</time></trkpt><trkpt lat="43.0049976" lon="13.7944692"><ele>326.40000000000003</ele><time>2026-04-11T09:25:22.532Z</time></trkpt><trkpt lat="43.0049581" lon="13.7943434"><ele>327.0</ele><time>2026-04-11T09:25:23.531Z</time></trkpt><trkpt lat="43.0049059" lon="13.7942139"><ele>329.5</ele><time>2026-04-11T09:25:24.532Z</time></trkpt><trkpt lat="43.0048393" lon="13.7940803"><ele>332.0</ele><time>2026-04-11T09:25:25.531Z</time></trkpt><trkpt lat="43.0047637" lon="13.793946"><ele>334.5</ele><time>2026-04-11T09:25:26.532Z</time></trkpt><trkpt lat="43.0046925" lon="13.793826"><ele>337.0</ele><time>2026-04-11T09:25:27.532Z</time></trkpt><trkpt lat="43.0046224" lon="13.7937206"><ele>337.0</ele><time>2026-04-11T09:25:28.532Z</time></trkpt><trkpt lat="43.0045558" lon="13.7936393"><ele>337.0</ele><time>2026-04-11T09:25:29.532Z</time></trkpt><trkpt lat="43.0044879" lon="13.7935795"><ele>337.0</ele><time>2026-04-11T09:25:30.532Z</time></trkpt><trkpt lat="43.0044029" lon="13.7935319"><ele>337.0</ele><time>2026-04-11T09:25:31.532Z</time></trkpt><trkpt lat="43.0042991" lon="13.7934906"><ele>337.0</ele><time>2026-04-11T09:25:32.532Z</time></trkpt><trkpt lat="43.0041985" lon="13.7934596"><ele>336.25</ele><time>2026-04-11T09:25:33.532Z</time></trkpt><trkpt lat="43.0040872" lon="13.7934125"><ele>335.5</ele><time>2026-04-11T09:25:34.532Z</time></trkpt><trkpt lat="43.0039823" lon="13.7933342"><ele>334.75</ele><time>2026-04-11T09:25:35.532Z</time></trkpt><trkpt lat="43.0038628" lon="13.793207"><ele>334.0</ele><time>2026-04-11T09:25:36.531Z</time></trkpt><trkpt lat="43.0037421" lon="13.7930706"><ele>334.0</ele><time>2026-04-11T09:25:37.531Z</time></trkpt><trkpt lat="43.0036186" lon="13.7929297"><ele>334.0</ele><time>2026-04-11T09:25:38.532Z</time></trkpt><trkpt lat="43.0035136" lon="13.7927946"><ele>334.0</ele><time>2026-04-11T09:25:39.532Z</time></trkpt><trkpt lat="43.003413" lon="13.7926639"><ele>334.0</ele><time>2026-04-11T09:25:40.532Z</time></trkpt><trkpt lat="43.0033119" lon="13.7925293"><ele>332.0</ele><time>2026-04-11T09:25:41.531Z</time></trkpt><trkpt lat="43.0032137" lon="13.7923934"><ele>330.0</ele><time>2026-04-11T09:25:42.532Z</time></trkpt><trkpt lat="43.0031245" lon="13.7922544"><ele>328.0</ele><time>2026-04-11T09:25:43.531Z</time></trkpt><trkpt lat="43.0030357" lon="13.7920743"><ele>326.0</ele><time>2026-04-11T09:25:44.532Z</time></trkpt><trkpt lat="43.0029509" lon="13.7918694"><ele>329.25</ele><time>2026-04-11T09:25:45.531Z</time></trkpt><trkpt lat="43.0028831" lon="13.7916751"><ele>332.5</ele><time>2026-04-11T09:25:46.532Z</time></trkpt><trkpt lat="43.0028252" lon="13.7914821"><ele>335.75</ele><time>2026-04-11T09:25:47.531Z</time></trkpt><trkpt lat="43.0027689" lon="13.7913084"><ele>339.0</ele><time>2026-04-11T09:25:48.532Z</time></trkpt><trkpt lat="43.0027081" lon="13.7911622"><ele>339.0</ele><time>2026-04-11T09:25:49.532Z</time></trkpt><trkpt lat="43.0026291" lon="13.7910519"><ele>339.0</ele><time>2026-04-11T09:25:50.532Z</time></trkpt><trkpt lat="43.0025235" lon="13.7909688"><ele>339.0</ele><time>2026-04-11T09:25:51.532Z</time></trkpt><trkpt lat="43.0023853" lon="13.7909"><ele>339.0</ele><time>2026-04-11T09:25:52.532Z</time></trkpt><trkpt lat="43.0022544" lon="13.7908448"><ele>341.4</ele><time>2026-04-11T09:25:53.532Z</time></trkpt><trkpt lat="43.0021701" lon="13.7907906"><ele>343.79999999999995</ele><time>2026-04-11T09:25:54.532Z</time></trkpt><trkpt lat="43.0021159" lon="13.7907208"><ele>346.20000000000005</ele><time>2026-04-11T09:25:55.532Z</time></trkpt><trkpt lat="43.0020723" lon="13.7906269"><ele>348.6</ele><time>2026-04-11T09:25:56.531Z</time></trkpt><trkpt lat="43.0020333" lon="13.7905019"><ele>351.0</ele><time>2026-04-11T09:25:57.532Z</time></trkpt><trkpt lat="43.0019933" lon="13.7903375"><ele>353.0</ele><time>2026-04-11T09:25:58.532Z</time></trkpt><trkpt lat="43.0019387" lon="13.7901431"><ele>355.0</ele><time>2026-04-11T09:25:59.532Z</time></trkpt><trkpt lat="43.0018794" lon="13.7899561"><ele>357.0</ele><time>2026-04-11T09:26:00.532Z</time></trkpt><trkpt lat="43.0018396" lon="13.7897979"><ele>359.0</ele><time>2026-04-11T09:26:01.532Z</time></trkpt><trkpt lat="43.0018094" lon="13.7896563"><ele>359.0</ele><time>2026-04-11T09:26:02.532Z</time></trkpt><trkpt lat="43.0017729" lon="13.7895317"><ele>359.0</ele><time>2026-04-11T09:26:03.532Z</time></trkpt><trkpt lat="43.0017283" lon="13.7894342"><ele>359.0</ele><time>2026-04-11T09:26:04.531Z</time></trkpt><trkpt lat="43.0016732" lon="13.7893598"><ele>359.0</ele><time>2026-04-11T09:26:05.532Z</time></trkpt><trkpt lat="43.0016069" lon="13.7892973"><ele>359.0</ele><time>2026-04-11T09:26:06.531Z</time></trkpt><trkpt lat="43.0015317" lon="13.7892321"><ele>359.0</ele><time>2026-04-11T09:26:07.532Z</time></trkpt><trkpt lat="43.0014416" lon="13.7891719"><ele>360.2</ele><time>2026-04-11T09:26:08.532Z</time></trkpt><trkpt lat="43.0013471" lon="13.7891258"><ele>361.4</ele><time>2026-04-11T09:26:09.532Z</time></trkpt><trkpt lat="43.0012541" lon="13.7890882"><ele>362.6</ele><time>2026-04-11T09:26:10.532Z</time></trkpt><trkpt lat="43.0011596" lon="13.7890504"><ele>363.8</ele><time>2026-04-11T09:26:11.532Z</time></trkpt><trkpt lat="43.0010662" lon="13.7890074"><ele>365.0</ele><time>2026-04-11T09:26:12.532Z</time></trkpt><trkpt lat="43.0009719" lon="13.788968"><ele>365.0</ele><time>2026-04-11T09:26:13.532Z</time></trkpt><trkpt lat="43.0008733" lon="13.788952"><ele>365.0</ele><time>2026-04-11T09:26:14.532Z</time></trkpt><trkpt lat="43.0007697" lon="13.7889584"><ele>365.0</ele><time>2026-04-11T09:26:15.532Z</time></trkpt><trkpt lat="43.0006635" lon="13.788991"><ele>365.0</ele><time>2026-04-11T09:26:16.531Z</time></trkpt><trkpt lat="43.0005591" lon="13.7890125"><ele>365.0</ele><time>2026-04-11T09:26:17.532Z</time></trkpt><trkpt lat="43.0004574" lon="13.7889924"><ele>365.4</ele><time>2026-04-11T09:26:18.531Z</time></trkpt><trkpt lat="43.000357" lon="13.7889311"><ele>365.8</ele><time>2026-04-11T09:26:19.532Z</time></trkpt><trkpt lat="43.0002777" lon="13.7888372"><ele>366.20000000000005</ele><time>2026-04-11T09:26:20.532Z</time></trkpt><trkpt lat="43.0002112" lon="13.7887159"><ele>366.6</ele><time>2026-04-11T09:26:21.532Z</time></trkpt><trkpt lat="43.0001403" lon="13.7886014"><ele>367.0</ele><time>2026-04-11T09:26:22.532Z</time></trkpt><trkpt lat="43.0000625" lon="13.7885088"><ele>367.0</ele><time>2026-04-11T09:26:23.532Z</time></trkpt><trkpt lat="42.999972" lon="13.788438"><ele>367.0</ele><time>2026-04-11T09:26:24.532Z</time></trkpt><trkpt lat="42.999864" lon="13.7883898"><ele>367.0</ele><time>2026-04-11T09:26:25.532Z</time></trkpt><trkpt lat="42.9997314" lon="13.7883632"><ele>367.0</ele><time>2026-04-11T09:26:26.532Z</time></trkpt><trkpt lat="42.9995913" lon="13.7883631"><ele>367.0</ele><time>2026-04-11T09:26:27.532Z</time></trkpt><trkpt lat="42.9994607" lon="13.7883671"><ele>367.0</ele><time>2026-04-11T09:26:28.532Z</time></trkpt><trkpt lat="42.9993334" lon="13.7883537"><ele>367.0</ele><time>2026-04-11T09:26:29.532Z</time></trkpt><trkpt lat="42.9992026" lon="13.7883262"><ele>367.0</ele><time>2026-04-11T09:26:30.532Z</time></trkpt><trkpt lat="42.9990732" lon="13.7882937"><ele>367.66666666666663</ele><time>2026-04-11T09:26:31.532Z</time></trkpt><trkpt lat="42.9989338" lon="13.7882543"><ele>368.3333333333333</ele><time>2026-04-11T09:26:32.532Z</time></trkpt><trkpt lat="42.9987694" lon="13.7882162"><ele>369.0</ele><time>2026-04-11T09:26:33.532Z</time></trkpt><trkpt lat="42.9985798" lon="13.7881854"><ele>369.0</ele><time>2026-04-11T09:26:34.531Z</time></trkpt><trkpt lat="42.9983729" lon="13.7881629"><ele>369.0</ele><time>2026-04-11T09:26:35.532Z</time></trkpt><trkpt lat="42.9981433" lon="13.78814"><ele>369.0</ele><time>2026-04-11T09:26:36.532Z</time></trkpt><trkpt lat="42.9979182" lon="13.788126"><ele>369.0</ele><time>2026-04-11T09:26:37.532Z</time></trkpt><trkpt lat="42.9977214" lon="13.7881227"><ele>369.0</ele><time>2026-04-11T09:26:38.532Z</time></trkpt><trkpt lat="42.997547" lon="13.7881324"><ele>369.0</ele><time>2026-04-11T09:26:39.532Z</time></trkpt><trkpt lat="42.9973926" lon="13.7881443"><ele>371.25</ele><time>2026-04-11T09:26:40.532Z</time></trkpt><trkpt lat="42.9972515" lon="13.7881631"><ele>373.5</ele><time>2026-04-11T09:26:41.532Z</time></trkpt><trkpt lat="42.9971171" lon="13.7881673"><ele>375.75</ele><time>2026-04-11T09:26:42.532Z</time></trkpt><trkpt lat="42.9969938" lon="13.7881424"><ele>378.0</ele><time>2026-04-11T09:26:43.532Z</time></trkpt><trkpt lat="42.9968834" lon="13.7880863"><ele>378.0</ele><time>2026-04-11T09:26:44.531Z</time></trkpt><trkpt lat="42.9967825" lon="13.788001"><ele>378.0</ele><time>2026-04-11T09:26:45.532Z</time></trkpt><trkpt lat="42.9966718" lon="13.78788"><ele>378.0</ele><time>2026-04-11T09:26:46.531Z</time></trkpt><trkpt lat="42.9965416" lon="13.7877357"><ele>378.0</ele><time>2026-04-11T09:26:47.532Z</time></trkpt><trkpt lat="42.9964201" lon="13.7876044"><ele>380.5</ele><time>2026-04-11T09:26:48.531Z</time></trkpt><trkpt lat="42.996314" lon="13.7874774"><ele>383.0</ele><time>2026-04-11T09:26:49.532Z</time></trkpt><trkpt lat="42.9962123" lon="13.7873784"><ele>385.5</ele><time>2026-04-11T09:26:50.532Z</time></trkpt><trkpt lat="42.9961017" lon="13.7872862"><ele>388.0</ele><time>2026-04-11T09:26:51.532Z</time></trkpt><trkpt lat="42.9959875" lon="13.7871924"><ele>388.0</ele><time>2026-04-11T09:26:52.531Z</time></trkpt><trkpt lat="42.9958785" lon="13.7870965"><ele>388.0</ele><time>2026-04-11T09:26:53.532Z</time></trkpt><trkpt lat="42.9957666" lon="13.7869945"><ele>388.0</ele><time>2026-04-11T09:26:54.532Z</time></trkpt><trkpt lat="42.9956502" lon="13.7868808"><ele>388.0</ele><time>2026-04-11T09:26:55.531Z</time></trkpt><trkpt lat="42.9955305" lon="13.7867593"><ele>388.6666666666667</ele><time>2026-04-11T09:26:56.532Z</time></trkpt><trkpt lat="42.9954111" lon="13.7866326"><ele>389.33333333333337</ele><time>2026-04-11T09:26:57.532Z</time></trkpt><trkpt lat="42.9952926" lon="13.7865046"><ele>390.0</ele><time>2026-04-11T09:26:58.532Z</time></trkpt><trkpt lat="42.9951736" lon="13.7863772"><ele>390.0</ele><time>2026-04-11T09:26:59.532Z</time></trkpt><trkpt lat="42.9950537" lon="13.7862524"><ele>390.0</ele><time>2026-04-11T09:27:00.532Z</time></trkpt><trkpt lat="42.9949367" lon="13.7861299"><ele>390.0</ele><time>2026-04-11T09:27:01.532Z</time></trkpt><trkpt lat="42.9948239" lon="13.7860103"><ele>390.0</ele><time>2026-04-11T09:27:02.531Z</time></trkpt><trkpt lat="42.9947119" lon="13.78589"><ele>390.0</ele><time>2026-04-11T09:27:03.532Z</time></trkpt><trkpt lat="42.994591" lon="13.785761"><ele>390.0</ele><time>2026-04-11T09:27:04.531Z</time></trkpt><trkpt lat="42.994457" lon="13.7856121"><ele>390.0</ele><time>2026-04-11T09:27:05.532Z</time></trkpt><trkpt lat="42.994324" lon="13.7854537"><ele>390.0</ele><time>2026-04-11T09:27:06.532Z</time></trkpt><trkpt lat="42.9941993" lon="13.7853054"><ele>390.0</ele><time>2026-04-11T09:27:07.532Z</time></trkpt><trkpt lat="42.9940871" lon="13.785175"><ele>390.0</ele><time>2026-04-11T09:27:08.532Z</time></trkpt><trkpt lat="42.9939766" lon="13.7850529"><ele>393.33333333333337</ele><time>2026-04-11T09:27:09.532Z</time></trkpt><trkpt lat="42.9938629" lon="13.7849264"><ele>396.6666666666667</ele><time>2026-04-11T09:27:10.532Z</time></trkpt><trkpt lat="42.993744" lon="13.7847976"><ele>400.0</ele><time>2026-04-11T09:27:11.532Z</time></trkpt><trkpt lat="42.9936178" lon="13.7846712"><ele>400.0</ele><time>2026-04-11T09:27:12.531Z</time></trkpt><trkpt lat="42.9934796" lon="13.7845565"><ele>400.0</ele><time>2026-04-11T09:27:13.532Z</time></trkpt><trkpt lat="42.9933213" lon="13.7844422"><ele>400.0</ele><time>2026-04-11T09:27:14.532Z</time></trkpt><trkpt lat="42.9931449" lon="13.7843223"><ele>401.33333333333337</ele><time>2026-04-11T09:27:15.532Z</time></trkpt><trkpt lat="42.9929827" lon="13.7842104"><ele>402.66666666666663</ele><time>2026-04-11T09:27:16.531Z</time></trkpt><trkpt lat="42.9928349" lon="13.7841058"><ele>404.0</ele><time>2026-04-11T09:27:17.532Z</time></trkpt><trkpt lat="42.9926827" lon="13.7840031"><ele>404.0</ele><time>2026-04-11T09:27:18.532Z</time></trkpt><trkpt lat="42.9925304" lon="13.7838972"><ele>404.0</ele><time>2026-04-11T09:27:19.532Z</time></trkpt><trkpt lat="42.9923804" lon="13.7837916"><ele>404.0</ele><time>2026-04-11T09:27:20.532Z</time></trkpt><trkpt lat="42.9922224" lon="13.7836893"><ele>404.66666666666663</ele><time>2026-04-11T09:27:21.532Z</time></trkpt><trkpt lat="42.9920592" lon="13.7835946"><ele>405.33333333333337</ele><time>2026-04-11T09:27:22.532Z</time></trkpt><trkpt lat="42.9918957" lon="13.7834925"><ele>406.0</ele><time>2026-04-11T09:27:23.532Z</time></trkpt><trkpt lat="42.9917375" lon="13.7833773"><ele>408.0</ele><time>2026-04-11T09:27:24.532Z</time></trkpt><trkpt lat="42.9915874" lon="13.7832545"><ele>410.0</ele><time>2026-04-11T09:27:25.532Z</time></trkpt><trkpt lat="42.9914394" lon="13.7831248"><ele>412.0</ele><time>2026-04-11T09:27:26.532Z</time></trkpt><trkpt lat="42.9913058" lon="13.7829948"><ele>412.0</ele><time>2026-04-11T09:27:27.532Z</time></trkpt><trkpt lat="42.9911856" lon="13.7828652"><ele>412.0</ele><time>2026-04-11T09:27:28.532Z</time></trkpt><trkpt lat="42.9910802" lon="13.7827329"><ele>412.0</ele><time>2026-04-11T09:27:29.532Z</time></trkpt><trkpt lat="42.9910026" lon="13.7826169"><ele>412.0</ele><time>2026-04-11T09:27:30.532Z</time></trkpt><trkpt lat="42.9909404" lon="13.7825117"><ele>409.6666666666667</ele><time>2026-04-11T09:27:31.531Z</time></trkpt><trkpt lat="42.990895" lon="13.7824098"><ele>407.33333333333337</ele><time>2026-04-11T09:27:32.531Z</time></trkpt><trkpt lat="42.9908639" lon="13.7823272"><ele>405.0</ele><time>2026-04-11T09:27:33.532Z</time></trkpt><trkpt lat="42.9908476" lon="13.7822412"><ele>402.66666666666663</ele><time>2026-04-11T09:27:35.532Z</time></trkpt><trkpt lat="42.9908519" lon="13.7821122"><ele>400.3333333333333</ele><time>2026-04-11T09:27:40.532Z</time></trkpt><trkpt lat="42.9908703" lon="13.7820139"><ele>398.0</ele><time>2026-04-11T09:27:41.532Z</time></trkpt><trkpt lat="42.9908965" lon="13.7818857"><ele>398.25</ele><time>2026-04-11T09:27:42.532Z</time></trkpt><trkpt lat="42.9909322" lon="13.7817268"><ele>398.5</ele><time>2026-04-11T09:27:43.532Z</time></trkpt><trkpt lat="42.9909792" lon="13.7815541"><ele>398.75</ele><time>2026-04-11T09:27:44.532Z</time></trkpt><trkpt lat="42.991038" lon="13.7813465"><ele>399.0</ele><time>2026-04-11T09:27:45.532Z</time></trkpt><trkpt lat="42.9910865" lon="13.7811474"><ele>400.33333333333337</ele><time>2026-04-11T09:27:46.532Z</time></trkpt><trkpt lat="42.9911293" lon="13.780942"><ele>401.6666666666667</ele><time>2026-04-11T09:27:47.532Z</time></trkpt><trkpt lat="42.9911427" lon="13.780735"><ele>403.0</ele><time>2026-04-11T09:27:48.532Z</time></trkpt><trkpt lat="42.9911231" lon="13.7805424"><ele>403.0</ele><time>2026-04-11T09:27:49.532Z</time></trkpt><trkpt lat="42.9910721" lon="13.7803564"><ele>403.0</ele><time>2026-04-11T09:27:50.532Z</time></trkpt><trkpt lat="42.9909814" lon="13.7801576"><ele>403.0</ele><time>2026-04-11T09:27:51.532Z</time></trkpt><trkpt lat="42.9908839" lon="13.7799818"><ele>404.5</ele><time>2026-04-11T09:27:52.532Z</time></trkpt><trkpt lat="42.9907983" lon="13.7798158"><ele>406.0</ele><time>2026-04-11T09:27:53.532Z</time></trkpt><trkpt lat="42.9907261" lon="13.7796561"><ele>407.5</ele><time>2026-04-11T09:27:54.531Z</time></trkpt><trkpt lat="42.9906722" lon="13.779486"><ele>409.0</ele><time>2026-04-11T09:27:55.531Z</time></trkpt><trkpt lat="42.9906256" lon="13.7793191"><ele>409.0</ele><time>2026-04-11T09:27:56.532Z</time></trkpt><trkpt lat="42.9906555" lon="13.779104"><ele>409.0</ele><time>2026-04-11T09:27:57.532Z</time></trkpt><trkpt lat="42.9906961" lon="13.7788787"><ele>409.0</ele><time>2026-04-11T09:27:58.532Z</time></trkpt><trkpt lat="42.9907782" lon="13.7786327"><ele>415.5</ele><time>2026-04-11T09:27:59.532Z</time></trkpt><trkpt lat="42.9908812" lon="13.7783619"><ele>422.0</ele><time>2026-04-11T09:28:00.532Z</time></trkpt><trkpt lat="42.9909877" lon="13.7780781"><ele>422.0</ele><time>2026-04-11T09:28:01.532Z</time></trkpt><trkpt lat="42.9910917" lon="13.7778057"><ele>422.0</ele><time>2026-04-11T09:28:02.532Z</time></trkpt><trkpt lat="42.9911977" lon="13.7775591"><ele>422.0</ele><time>2026-04-11T09:28:03.531Z</time></trkpt><trkpt lat="42.9913198" lon="13.7773167"><ele>423.0</ele><time>2026-04-11T09:28:04.532Z</time></trkpt><trkpt lat="42.9914584" lon="13.7770769"><ele>424.0</ele><time>2026-04-11T09:28:05.532Z</time></trkpt><trkpt lat="42.9915877" lon="13.7768505"><ele>425.0</ele><time>2026-04-11T09:28:06.532Z</time></trkpt><trkpt lat="42.9917031" lon="13.7766296"><ele>427.66666666666663</ele><time>2026-04-11T09:28:07.532Z</time></trkpt><trkpt lat="42.9917962" lon="13.7764213"><ele>430.33333333333337</ele><time>2026-04-11T09:28:08.531Z</time></trkpt><trkpt lat="42.9918574" lon="13.7762251"><ele>433.0</ele><time>2026-04-11T09:28:09.531Z</time></trkpt><trkpt lat="42.9918785" lon="13.7760327"><ele>434.75</ele><time>2026-04-11T09:28:10.532Z</time></trkpt><trkpt lat="42.9918575" lon="13.7758501"><ele>436.5</ele><time>2026-04-11T09:28:11.531Z</time></trkpt><trkpt lat="42.9917926" lon="13.7756802"><ele>438.25</ele><time>2026-04-11T09:28:12.531Z</time></trkpt><trkpt lat="42.9916986" lon="13.7755223"><ele>440.0</ele><time>2026-04-11T09:28:13.531Z</time></trkpt><trkpt lat="42.9916185" lon="13.7753838"><ele>437.75</ele><time>2026-04-11T09:28:14.532Z</time></trkpt><trkpt lat="42.9915677" lon="13.7752319"><ele>435.5</ele><time>2026-04-11T09:28:15.532Z</time></trkpt><trkpt lat="42.9915539" lon="13.7750773"><ele>433.25</ele><time>2026-04-11T09:28:16.532Z</time></trkpt><trkpt lat="42.9915837" lon="13.7749343"><ele>431.0</ele><time>2026-04-11T09:28:17.532Z</time></trkpt><trkpt lat="42.9916584" lon="13.7747661"><ele>434.3333333333333</ele><time>2026-04-11T09:28:18.532Z</time></trkpt><trkpt lat="42.9917504" lon="13.7745616"><ele>437.66666666666663</ele><time>2026-04-11T09:28:19.532Z</time></trkpt><trkpt lat="42.991838" lon="13.7743422"><ele>441.0</ele><time>2026-04-11T09:28:20.532Z</time></trkpt><trkpt lat="42.9918893" lon="13.7741489"><ele>441.0</ele><time>2026-04-11T09:28:21.532Z</time></trkpt><trkpt lat="42.9918993" lon="13.7739846"><ele>441.0</ele><time>2026-04-11T09:28:22.532Z</time></trkpt><trkpt lat="42.9918896" lon="13.7738703"><ele>441.0</ele><time>2026-04-11T09:28:23.532Z</time></trkpt><trkpt lat="42.9918649" lon="13.7737498"><ele>441.0</ele><time>2026-04-11T09:28:25.532Z</time></trkpt><trkpt lat="42.9919441" lon="13.7737881"><ele>441.0</ele><time>2026-04-11T09:28:29.532Z</time></trkpt><trkpt lat="42.9919704" lon="13.7738868"><ele>441.0</ele><time>2026-04-11T09:28:30.531Z</time></trkpt><trkpt lat="42.9920062" lon="13.7740106"><ele>441.0</ele><time>2026-04-11T09:28:31.532Z</time></trkpt><trkpt lat="42.9920075" lon="13.7741519"><ele>441.0</ele><time>2026-04-11T09:28:32.532Z</time></trkpt><trkpt lat="42.9919862" lon="13.7743044"><ele>441.0</ele><time>2026-04-11T09:28:33.532Z</time></trkpt><trkpt lat="42.9919596" lon="13.7744627"><ele>441.0</ele><time>2026-04-11T09:28:34.532Z</time></trkpt><trkpt lat="42.9919366" lon="13.7746021"><ele>441.6</ele><time>2026-04-11T09:28:35.532Z</time></trkpt><trkpt lat="42.991927" lon="13.774729"><ele>442.20000000000005</ele><time>2026-04-11T09:28:36.532Z</time></trkpt><trkpt lat="42.9919396" lon="13.7748517"><ele>442.79999999999995</ele><time>2026-04-11T09:28:37.532Z</time></trkpt><trkpt lat="42.9919781" lon="13.7749444"><ele>443.4</ele><time>2026-04-11T09:28:38.532Z</time></trkpt><trkpt lat="42.9920478" lon="13.7750214"><ele>444.0</ele><time>2026-04-11T09:28:39.532Z</time></trkpt><trkpt lat="42.9921571" lon="13.775103"><ele>443.0</ele><time>2026-04-11T09:28:40.532Z</time></trkpt><trkpt lat="42.9922786" lon="13.7751901"><ele>442.0</ele><time>2026-04-11T09:28:41.532Z</time></trkpt><trkpt lat="42.9924043" lon="13.7752929"><ele>441.0</ele><time>2026-04-11T09:28:42.532Z</time></trkpt><trkpt lat="42.9925227" lon="13.7753775"><ele>440.0</ele><time>2026-04-11T09:28:43.532Z</time></trkpt><trkpt lat="42.9926262" lon="13.7754517"><ele>439.0</ele><time>2026-04-11T09:28:44.532Z</time></trkpt><trkpt lat="42.992717" lon="13.7755351"><ele>438.0</ele><time>2026-04-11T09:28:45.532Z</time></trkpt><trkpt lat="42.9928008" lon="13.7756359"><ele>437.0</ele><time>2026-04-11T09:28:46.532Z</time></trkpt><trkpt lat="42.9928819" lon="13.7757489"><ele>436.0</ele><time>2026-04-11T09:28:47.531Z</time></trkpt><trkpt lat="42.9929638" lon="13.7758683"><ele>436.0</ele><time>2026-04-11T09:28:48.532Z</time></trkpt><trkpt lat="42.9930507" lon="13.7759874"><ele>436.0</ele><time>2026-04-11T09:28:49.532Z</time></trkpt><trkpt lat="42.9931364" lon="13.7761007"><ele>436.0</ele><time>2026-04-11T09:28:50.531Z</time></trkpt><trkpt lat="42.9932273" lon="13.7762124"><ele>436.0</ele><time>2026-04-11T09:28:51.532Z</time></trkpt><trkpt lat="42.9933243" lon="13.7763093"><ele>431.5</ele><time>2026-04-11T09:28:52.531Z</time></trkpt><trkpt lat="42.9934218" lon="13.7763971"><ele>427.0</ele><time>2026-04-11T09:28:53.532Z</time></trkpt><trkpt lat="42.9935266" lon="13.7764741"><ele>422.5</ele><time>2026-04-11T09:28:54.531Z</time></trkpt><trkpt lat="42.9936345" lon="13.7765445"><ele>418.0</ele><time>2026-04-11T09:28:55.531Z</time></trkpt><trkpt lat="42.9937352" lon="13.7766087"><ele>418.00000000000006</ele><time>2026-04-11T09:28:56.532Z</time></trkpt><trkpt lat="42.9938275" lon="13.776654"><ele>418.0</ele><time>2026-04-11T09:28:57.532Z</time></trkpt><trkpt lat="42.9939176" lon="13.7766716"><ele>418.0</ele><time>2026-04-11T09:28:58.532Z</time></trkpt><trkpt lat="42.9939919" lon="13.7766546"><ele>418.0</ele><time>2026-04-11T09:28:59.532Z</time></trkpt><trkpt lat="42.9940608" lon="13.7766198"><ele>418.00000000000006</ele><time>2026-04-11T09:29:00.532Z</time></trkpt><trkpt lat="42.9941385" lon="13.7765881"><ele>418.0</ele><time>2026-04-11T09:29:01.532Z</time></trkpt><trkpt lat="42.9942151" lon="13.7765772"><ele>415.1428571428571</ele><time>2026-04-11T09:29:02.532Z</time></trkpt><trkpt lat="42.9942861" lon="13.7765799"><ele>412.2857142857143</ele><time>2026-04-11T09:29:03.531Z</time></trkpt><trkpt lat="42.9943547" lon="13.7766006"><ele>409.42857142857144</ele><time>2026-04-11T09:29:04.531Z</time></trkpt><trkpt lat="42.9944227" lon="13.7766346"><ele>406.57142857142856</ele><time>2026-04-11T09:29:05.532Z</time></trkpt><trkpt lat="42.9944897" lon="13.776686"><ele>403.7142857142857</ele><time>2026-04-11T09:29:06.532Z</time></trkpt><trkpt lat="42.9945434" lon="13.7767558"><ele>400.85714285714283</ele><time>2026-04-11T09:29:07.532Z</time></trkpt><trkpt lat="42.99458" lon="13.7768473"><ele>398.0</ele><time>2026-04-11T09:29:08.532Z</time></trkpt><trkpt lat="42.9946054" lon="13.7769471"><ele>398.0</ele><time>2026-04-11T09:29:09.532Z</time></trkpt><trkpt lat="42.9946357" lon="13.7770642"><ele>398.0</ele><time>2026-04-11T09:29:10.532Z</time></trkpt><trkpt lat="42.9946752" lon="13.7771669"><ele>398.0</ele><time>2026-04-11T09:29:11.532Z</time></trkpt><trkpt lat="42.994731" lon="13.7772659"><ele>398.0</ele><time>2026-04-11T09:29:12.531Z</time></trkpt><trkpt lat="42.9947972" lon="13.7773606"><ele>398.0</ele><time>2026-04-11T09:29:13.531Z</time></trkpt><trkpt lat="42.9948727" lon="13.7774487"><ele>398.0</ele><time>2026-04-11T09:29:14.532Z</time></trkpt><trkpt lat="42.9949552" lon="13.7775266"><ele>398.0</ele><time>2026-04-11T09:29:15.532Z</time></trkpt><trkpt lat="42.995044" lon="13.7775933"><ele>398.0</ele><time>2026-04-11T09:29:16.532Z</time></trkpt><trkpt lat="42.9951233" lon="13.7776673"><ele>398.0</ele><time>2026-04-11T09:29:17.532Z</time></trkpt><trkpt lat="42.9952002" lon="13.7777538"><ele>398.0</ele><time>2026-04-11T09:29:18.532Z</time></trkpt><trkpt lat="42.9952756" lon="13.7778605"><ele>393.0</ele><time>2026-04-11T09:29:19.532Z</time></trkpt><trkpt lat="42.9953551" lon="13.7779916"><ele>388.0</ele><time>2026-04-11T09:29:20.532Z</time></trkpt><trkpt lat="42.9954368" lon="13.778123"><ele>383.0</ele><time>2026-04-11T09:29:21.531Z</time></trkpt><trkpt lat="42.9955179" lon="13.7782679"><ele>378.0</ele><time>2026-04-11T09:29:22.532Z</time></trkpt><trkpt lat="42.9956095" lon="13.778415"><ele>378.5</ele><time>2026-04-11T09:29:23.532Z</time></trkpt><trkpt lat="42.9957001" lon="13.7785742"><ele>379.0</ele><time>2026-04-11T09:29:24.532Z</time></trkpt><trkpt lat="42.995791" lon="13.7787328"><ele>379.5</ele><time>2026-04-11T09:29:25.532Z</time></trkpt><trkpt lat="42.9958822" lon="13.7788933"><ele>380.0</ele><time>2026-04-11T09:29:26.532Z</time></trkpt><trkpt lat="42.9959799" lon="13.7790574"><ele>377.75</ele><time>2026-04-11T09:29:27.532Z</time></trkpt><trkpt lat="42.9960689" lon="13.7792131"><ele>375.5</ele><time>2026-04-11T09:29:28.531Z</time></trkpt><trkpt lat="42.9961544" lon="13.779357"><ele>373.25</ele><time>2026-04-11T09:29:29.532Z</time></trkpt><trkpt lat="42.9962364" lon="13.7795023"><ele>371.0</ele><time>2026-04-11T09:29:30.532Z</time></trkpt><trkpt lat="42.9963095" lon="13.7796534"><ele>371.0</ele><time>2026-04-11T09:29:31.532Z</time></trkpt><trkpt lat="42.9963653" lon="13.7798119"><ele>371.0</ele><time>2026-04-11T09:29:32.532Z</time></trkpt><trkpt lat="42.9964146" lon="13.7799884"><ele>371.0</ele><time>2026-04-11T09:29:33.532Z</time></trkpt><trkpt lat="42.9964614" lon="13.7801723"><ele>371.0</ele><time>2026-04-11T09:29:34.531Z</time></trkpt><trkpt lat="42.9965101" lon="13.7803568"><ele>370.75</ele><time>2026-04-11T09:29:35.532Z</time></trkpt><trkpt lat="42.9965619" lon="13.7805283"><ele>370.5</ele><time>2026-04-11T09:29:36.532Z</time></trkpt><trkpt lat="42.996625" lon="13.7806807"><ele>370.25</ele><time>2026-04-11T09:29:37.531Z</time></trkpt><trkpt lat="42.9966867" lon="13.7808266"><ele>370.0</ele><time>2026-04-11T09:29:38.532Z</time></trkpt><trkpt lat="42.9967707" lon="13.7809853"><ele>368.75</ele><time>2026-04-11T09:29:39.532Z</time></trkpt><trkpt lat="42.9968478" lon="13.7811329"><ele>367.5</ele><time>2026-04-11T09:29:40.531Z</time></trkpt><trkpt lat="42.9969205" lon="13.7812745"><ele>366.25</ele><time>2026-04-11T09:29:41.532Z</time></trkpt><trkpt lat="42.9969916" lon="13.7814079"><ele>365.0</ele><time>2026-04-11T09:29:42.532Z</time></trkpt><trkpt lat="42.9970514" lon="13.7815369"><ele>365.0</ele><time>2026-04-11T09:29:43.532Z</time></trkpt><trkpt lat="42.9971167" lon="13.7816567"><ele>365.0</ele><time>2026-04-11T09:29:44.532Z</time></trkpt><trkpt lat="42.9971779" lon="13.7817759"><ele>365.0</ele><time>2026-04-11T09:29:45.531Z</time></trkpt><trkpt lat="42.9972458" lon="13.7819081"><ele>365.0</ele><time>2026-04-11T09:29:46.532Z</time></trkpt><trkpt lat="42.9973194" lon="13.782061"><ele>364.5</ele><time>2026-04-11T09:29:47.532Z</time></trkpt><trkpt lat="42.9973896" lon="13.782225"><ele>364.0</ele><time>2026-04-11T09:29:48.532Z</time></trkpt><trkpt lat="42.9974494" lon="13.7823815"><ele>363.5</ele><time>2026-04-11T09:29:49.532Z</time></trkpt><trkpt lat="42.9975052" lon="13.7825227"><ele>363.0</ele><time>2026-04-11T09:29:50.532Z</time></trkpt><trkpt lat="42.9975741" lon="13.7826427"><ele>361.2</ele><time>2026-04-11T09:29:51.532Z</time></trkpt><trkpt lat="42.9976541" lon="13.7827408"><ele>359.4</ele><time>2026-04-11T09:29:52.532Z</time></trkpt><trkpt lat="42.9977437" lon="13.7828253"><ele>357.59999999999997</ele><time>2026-04-11T09:29:53.532Z</time></trkpt><trkpt lat="42.9978425" lon="13.7828989"><ele>355.79999999999995</ele><time>2026-04-11T09:29:54.532Z</time></trkpt><trkpt lat="42.9979454" lon="13.7829662"><ele>354.0</ele><time>2026-04-11T09:29:55.531Z</time></trkpt><trkpt lat="42.9980577" lon="13.7830334"><ele>354.0</ele><time>2026-04-11T09:29:56.531Z</time></trkpt><trkpt lat="42.9981796" lon="13.7831078"><ele>354.0</ele><time>2026-04-11T09:29:57.532Z</time></trkpt><trkpt lat="42.9983083" lon="13.7831784"><ele>354.0</ele><time>2026-04-11T09:29:58.532Z</time></trkpt><trkpt lat="42.9984354" lon="13.7832363"><ele>354.0</ele><time>2026-04-11T09:29:59.531Z</time></trkpt><trkpt lat="42.9985567" lon="13.7832897"><ele>350.5</ele><time>2026-04-11T09:30:00.532Z</time></trkpt><trkpt lat="42.9986747" lon="13.7833397"><ele>347.0</ele><time>2026-04-11T09:30:01.532Z</time></trkpt><trkpt lat="42.9987925" lon="13.7833754"><ele>343.5</ele><time>2026-04-11T09:30:02.532Z</time></trkpt><trkpt lat="42.9989102" lon="13.7833978"><ele>340.0</ele><time>2026-04-11T09:30:03.532Z</time></trkpt><trkpt lat="42.999032" lon="13.7834056"><ele>340.0</ele><time>2026-04-11T09:30:04.532Z</time></trkpt><trkpt lat="42.9991431" lon="13.7834217"><ele>340.0</ele><time>2026-04-11T09:30:05.532Z</time></trkpt><trkpt lat="42.9992572" lon="13.7834609"><ele>340.0</ele><time>2026-04-11T09:30:06.532Z</time></trkpt><trkpt lat="42.9993665" lon="13.7835237"><ele>340.0</ele><time>2026-04-11T09:30:07.531Z</time></trkpt><trkpt lat="42.9994824" lon="13.7836033"><ele>336.5</ele><time>2026-04-11T09:30:08.531Z</time></trkpt><trkpt lat="42.9995991" lon="13.7837017"><ele>333.0</ele><time>2026-04-11T09:30:09.532Z</time></trkpt><trkpt lat="42.9997183" lon="13.7838133"><ele>329.5</ele><time>2026-04-11T09:30:10.532Z</time></trkpt><trkpt lat="42.9998486" lon="13.7839189"><ele>326.0</ele><time>2026-04-11T09:30:11.532Z</time></trkpt><trkpt lat="42.9999887" lon="13.7840264"><ele>326.0</ele><time>2026-04-11T09:30:12.532Z</time></trkpt><trkpt lat="43.0001316" lon="13.7841326"><ele>326.0</ele><time>2026-04-11T09:30:13.532Z</time></trkpt><trkpt lat="43.000267" lon="13.7842312"><ele>326.0</ele><time>2026-04-11T09:30:14.531Z</time></trkpt><trkpt lat="43.0004007" lon="13.7843273"><ele>324.25</ele><time>2026-04-11T09:30:15.531Z</time></trkpt><trkpt lat="43.0005275" lon="13.7844208"><ele>322.5</ele><time>2026-04-11T09:30:16.532Z</time></trkpt><trkpt lat="43.0006497" lon="13.7845099"><ele>320.75</ele><time>2026-04-11T09:30:17.532Z</time></trkpt><trkpt lat="43.0007694" lon="13.784594"><ele>319.0</ele><time>2026-04-11T09:30:18.532Z</time></trkpt><trkpt lat="43.0008818" lon="13.7846751"><ele>318.0</ele><time>2026-04-11T09:30:19.532Z</time></trkpt><trkpt lat="43.0009837" lon="13.7847507"><ele>317.0</ele><time>2026-04-11T09:30:20.531Z</time></trkpt><trkpt lat="43.0010823" lon="13.7848167"><ele>316.0</ele><time>2026-04-11T09:30:21.532Z</time></trkpt><trkpt lat="43.0011789" lon="13.7848711"><ele>315.0</ele><time>2026-04-11T09:30:22.531Z</time></trkpt><trkpt lat="43.0012756" lon="13.7849233"><ele>314.0</ele><time>2026-04-11T09:30:23.532Z</time></trkpt><trkpt lat="43.0013787" lon="13.7849774"><ele>314.0</ele><time>2026-04-11T09:30:24.532Z</time></trkpt><trkpt lat="43.0014825" lon="13.7850257"><ele>314.0</ele><time>2026-04-11T09:30:25.532Z</time></trkpt><trkpt lat="43.001592" lon="13.7850673"><ele>314.0</ele><time>2026-04-11T09:30:26.532Z</time></trkpt><trkpt lat="43.0017108" lon="13.7851081"><ele>314.0</ele><time>2026-04-11T09:30:27.532Z</time></trkpt><trkpt lat="43.0018283" lon="13.7851596"><ele>311.5</ele><time>2026-04-11T09:30:28.531Z</time></trkpt><trkpt lat="43.0019432" lon="13.7852237"><ele>309.0</ele><time>2026-04-11T09:30:29.532Z</time></trkpt><trkpt lat="43.002058" lon="13.7852894"><ele>306.5</ele><time>2026-04-11T09:30:30.532Z</time></trkpt><trkpt lat="43.0021762" lon="13.7853578"><ele>304.0</ele><time>2026-04-11T09:30:31.532Z</time></trkpt><trkpt lat="43.0022949" lon="13.7854233"><ele>304.0</ele><time>2026-04-11T09:30:32.532Z</time></trkpt><trkpt lat="43.0024112" lon="13.7854869"><ele>304.0</ele><time>2026-04-11T09:30:33.532Z</time></trkpt><trkpt lat="43.0025304" lon="13.7855546"><ele>304.0</ele><time>2026-04-11T09:30:34.532Z</time></trkpt><trkpt lat="43.0026538" lon="13.7856229"><ele>304.0</ele><time>2026-04-11T09:30:35.532Z</time></trkpt><trkpt lat="43.0027763" lon="13.7856889"><ele>305.0</ele><time>2026-04-11T09:30:36.532Z</time></trkpt><trkpt lat="43.0028932" lon="13.7857575"><ele>306.0</ele><time>2026-04-11T09:30:37.532Z</time></trkpt><trkpt lat="43.0030074" lon="13.7858301"><ele>307.0</ele><time>2026-04-11T09:30:38.532Z</time></trkpt><trkpt lat="43.0031267" lon="13.7859086"><ele>308.0</ele><time>2026-04-11T09:30:39.532Z</time></trkpt><trkpt lat="43.0032499" lon="13.7859846"><ele>308.75</ele><time>2026-04-11T09:30:40.532Z</time></trkpt><trkpt lat="43.0033861" lon="13.7860595"><ele>309.5</ele><time>2026-04-11T09:30:41.531Z</time></trkpt><trkpt lat="43.0035206" lon="13.7861435"><ele>310.25</ele><time>2026-04-11T09:30:42.532Z</time></trkpt><trkpt lat="43.0036457" lon="13.7862385"><ele>311.0</ele><time>2026-04-11T09:30:43.532Z</time></trkpt><trkpt lat="43.0037582" lon="13.7863384"><ele>311.0</ele><time>2026-04-11T09:30:44.532Z</time></trkpt><trkpt lat="43.0038632" lon="13.7864388"><ele>311.0</ele><time>2026-04-11T09:30:45.532Z</time></trkpt><trkpt lat="43.0039665" lon="13.7865472"><ele>311.0</ele><time>2026-04-11T09:30:46.532Z</time></trkpt><trkpt lat="43.0040656" lon="13.7866523"><ele>311.0</ele><time>2026-04-11T09:30:47.532Z</time></trkpt><trkpt lat="43.0041504" lon="13.7867488"><ele>311.5</ele><time>2026-04-11T09:30:48.532Z</time></trkpt><trkpt lat="43.0042268" lon="13.786836"><ele>312.0</ele><time>2026-04-11T09:30:49.532Z</time></trkpt><trkpt lat="43.0042963" lon="13.7869102"><ele>312.5</ele><time>2026-04-11T09:30:50.531Z</time></trkpt><trkpt lat="43.0043633" lon="13.7869786"><ele>313.0</ele><time>2026-04-11T09:30:51.532Z</time></trkpt><trkpt lat="43.0044258" lon="13.7870448"><ele>313.5</ele><time>2026-04-11T09:30:52.532Z</time></trkpt><trkpt lat="43.0044827" lon="13.7871058"><ele>314.0</ele><time>2026-04-11T09:30:53.532Z</time></trkpt><trkpt lat="43.0045512" lon="13.7871717"><ele>314.0</ele><time>2026-04-11T09:30:54.532Z</time></trkpt><trkpt lat="43.0046338" lon="13.7872488"><ele>314.0</ele><time>2026-04-11T09:30:55.532Z</time></trkpt><trkpt lat="43.0047286" lon="13.7873439"><ele>314.0</ele><time>2026-04-11T09:30:56.532Z</time></trkpt><trkpt lat="43.004824" lon="13.7874648"><ele>314.0</ele><time>2026-04-11T09:30:57.531Z</time></trkpt><trkpt lat="43.0049149" lon="13.787608"><ele>315.0</ele><time>2026-04-11T09:30:58.532Z</time></trkpt><trkpt lat="43.0050064" lon="13.7877635"><ele>316.0</ele><time>2026-04-11T09:30:59.532Z</time></trkpt><trkpt lat="43.0051217" lon="13.7879349"><ele>317.0</ele><time>2026-04-11T09:31:00.532Z</time></trkpt><trkpt lat="43.005268" lon="13.7881208"><ele>317.0</ele><time>2026-04-11T09:31:01.532Z</time></trkpt><trkpt lat="43.0054154" lon="13.788292"><ele>317.0</ele><time>2026-04-11T09:31:02.532Z</time></trkpt><trkpt lat="43.0055385" lon="13.7884416"><ele>317.0</ele><time>2026-04-11T09:31:03.532Z</time></trkpt><trkpt lat="43.0056422" lon="13.788586"><ele>318.75</ele><time>2026-04-11T09:31:04.532Z</time></trkpt><trkpt lat="43.0057318" lon="13.7887487"><ele>320.5</ele><time>2026-04-11T09:31:05.532Z</time></trkpt><trkpt lat="43.005805" lon="13.7889288"><ele>322.25</ele><time>2026-04-11T09:31:06.532Z</time></trkpt><trkpt lat="43.0058631" lon="13.7891033"><ele>324.0</ele><time>2026-04-11T09:31:07.532Z</time></trkpt><trkpt lat="43.0059184" lon="13.7892529"><ele>320.5</ele><time>2026-04-11T09:31:08.531Z</time></trkpt><trkpt lat="43.0059944" lon="13.7893946"><ele>317.0</ele><time>2026-04-11T09:31:09.532Z</time></trkpt><trkpt lat="43.0060966" lon="13.7895559"><ele>313.5</ele><time>2026-04-11T09:31:10.532Z</time></trkpt><trkpt lat="43.0062017" lon="13.7897293"><ele>310.0</ele><time>2026-04-11T09:31:11.532Z</time></trkpt><trkpt lat="43.0062902" lon="13.7898777"><ele>310.0</ele><time>2026-04-11T09:31:12.532Z</time></trkpt><trkpt lat="43.0063715" lon="13.7899918"><ele>310.0</ele><time>2026-04-11T09:31:13.532Z</time></trkpt><trkpt lat="43.0064513" lon="13.7900678"><ele>310.0</ele><time>2026-04-11T09:31:14.532Z</time></trkpt><trkpt lat="43.0065378" lon="13.7901032"><ele>310.0</ele><time>2026-04-11T09:31:15.532Z</time></trkpt><trkpt lat="43.006633" lon="13.7901049"><ele>310.0</ele><time>2026-04-11T09:31:16.532Z</time></trkpt><trkpt lat="43.0067423" lon="13.7900795"><ele>312.6</ele><time>2026-04-11T09:31:17.532Z</time></trkpt><trkpt lat="43.0068604" lon="13.7900375"><ele>315.2</ele><time>2026-04-11T09:31:18.532Z</time></trkpt><trkpt lat="43.0069614" lon="13.7899977"><ele>317.79999999999995</ele><time>2026-04-11T09:31:19.532Z</time></trkpt><trkpt lat="43.0070429" lon="13.7899863"><ele>320.4</ele><time>2026-04-11T09:31:20.531Z</time></trkpt><trkpt lat="43.0071219" lon="13.7900006"><ele>323.0</ele><time>2026-04-11T09:31:21.532Z</time></trkpt><trkpt lat="43.0072091" lon="13.7900396"><ele>323.0</ele><time>2026-04-11T09:31:22.532Z</time></trkpt><trkpt lat="43.0073198" lon="13.7901217"><ele>323.0</ele><time>2026-04-11T09:31:23.532Z</time></trkpt><trkpt lat="43.007441" lon="13.7902288"><ele>323.0</ele><time>2026-04-11T09:31:24.532Z</time></trkpt><trkpt lat="43.0075446" lon="13.7903257"><ele>323.0</ele><time>2026-04-11T09:31:25.532Z</time></trkpt><trkpt lat="43.0076275" lon="13.7904188"><ele>320.79999999999995</ele><time>2026-04-11T09:31:26.532Z</time></trkpt><trkpt lat="43.0076997" lon="13.790533"><ele>318.59999999999997</ele><time>2026-04-11T09:31:27.532Z</time></trkpt><trkpt lat="43.007762" lon="13.7906662"><ele>316.4</ele><time>2026-04-11T09:31:28.532Z</time></trkpt><trkpt lat="43.0078188" lon="13.790786"><ele>314.2</ele><time>2026-04-11T09:31:29.532Z</time></trkpt><trkpt lat="43.007876" lon="13.7908911"><ele>312.0</ele><time>2026-04-11T09:31:30.532Z</time></trkpt><trkpt lat="43.0079459" lon="13.790968"><ele>312.0</ele><time>2026-04-11T09:31:31.532Z</time></trkpt><trkpt lat="43.0080207" lon="13.7910054"><ele>312.0</ele><time>2026-04-11T09:31:32.532Z</time></trkpt><trkpt lat="43.0080923" lon="13.7910193"><ele>312.0</ele><time>2026-04-11T09:31:33.532Z</time></trkpt><trkpt lat="43.0081909" lon="13.7909984"><ele>312.0</ele><time>2026-04-11T09:31:34.532Z</time></trkpt><trkpt lat="43.0082803" lon="13.7909902"><ele>312.0</ele><time>2026-04-11T09:31:35.532Z</time></trkpt><trkpt lat="43.0083596" lon="13.7910103"><ele>312.0</ele><time>2026-04-11T09:31:36.532Z</time></trkpt><trkpt lat="43.0084242" lon="13.7910523"><ele>311.1666666666667</ele><time>2026-04-11T09:31:37.531Z</time></trkpt><trkpt lat="43.00848" lon="13.7911018"><ele>310.3333333333333</ele><time>2026-04-11T09:31:38.532Z</time></trkpt><trkpt lat="43.0085048" lon="13.7912044"><ele>309.5</ele><time>2026-04-11T09:31:39.532Z</time></trkpt><trkpt lat="43.0085288" lon="13.7913227"><ele>308.66666666666663</ele><time>2026-04-11T09:31:40.532Z</time></trkpt><trkpt lat="43.0085611" lon="13.7914251"><ele>307.8333333333333</ele><time>2026-04-11T09:31:41.532Z</time></trkpt><trkpt lat="43.0086208" lon="13.7915071"><ele>307.0</ele><time>2026-04-11T09:31:42.531Z</time></trkpt><trkpt lat="43.0086981" lon="13.7915659"><ele>307.0</ele><time>2026-04-11T09:31:43.532Z</time></trkpt><trkpt lat="43.0087959" lon="13.7916221"><ele>307.0</ele><time>2026-04-11T09:31:44.532Z</time></trkpt><trkpt lat="43.0088998" lon="13.7917029"><ele>307.0</ele><time>2026-04-11T09:31:45.532Z</time></trkpt><trkpt lat="43.0089785" lon="13.7917947"><ele>307.0</ele><time>2026-04-11T09:31:46.531Z</time></trkpt><trkpt lat="43.0090402" lon="13.7918738"><ele>307.0</ele><time>2026-04-11T09:31:47.532Z</time></trkpt><trkpt lat="43.0090954" lon="13.7919333"><ele>306.6</ele><time>2026-04-11T09:31:48.532Z</time></trkpt><trkpt lat="43.009165" lon="13.7920034"><ele>306.2</ele><time>2026-04-11T09:31:50.532Z</time></trkpt><trkpt lat="43.0092432" lon="13.7920738"><ele>305.8</ele><time>2026-04-11T09:31:56.532Z</time></trkpt><trkpt lat="43.009309" lon="13.7921348"><ele>305.4</ele><time>2026-04-11T09:31:57.532Z</time></trkpt><trkpt lat="43.0093893" lon="13.7922041"><ele>305.0</ele><time>2026-04-11T09:31:58.532Z</time></trkpt><trkpt lat="43.0094831" lon="13.7922888"><ele>305.0</ele><time>2026-04-11T09:31:59.532Z</time></trkpt><trkpt lat="43.009587" lon="13.7923871"><ele>305.0</ele><time>2026-04-11T09:32:00.532Z</time></trkpt><trkpt lat="43.0096961" lon="13.7924998"><ele>305.0</ele><time>2026-04-11T09:32:01.532Z</time></trkpt><trkpt lat="43.0098031" lon="13.7926125"><ele>305.0</ele><time>2026-04-11T09:32:02.532Z</time></trkpt><trkpt lat="43.0099099" lon="13.792715"><ele>303.5</ele><time>2026-04-11T09:32:03.532Z</time></trkpt><trkpt lat="43.010024" lon="13.7927953"><ele>302.0</ele><time>2026-04-11T09:32:04.531Z</time></trkpt><trkpt lat="43.0101459" lon="13.7928579"><ele>300.5</ele><time>2026-04-11T09:32:05.532Z</time></trkpt><trkpt lat="43.0102797" lon="13.7929097"><ele>299.0</ele><time>2026-04-11T09:32:06.532Z</time></trkpt><trkpt lat="43.0104238" lon="13.7929433"><ele>299.0</ele><time>2026-04-11T09:32:07.532Z</time></trkpt><trkpt lat="43.0105773" lon="13.7929599"><ele>299.0</ele><time>2026-04-11T09:32:08.532Z</time></trkpt><trkpt lat="43.0107342" lon="13.7929756"><ele>299.0</ele><time>2026-04-11T09:32:09.532Z</time></trkpt><trkpt lat="43.010881" lon="13.7929965"><ele>302.0</ele><time>2026-04-11T09:32:10.532Z</time></trkpt><trkpt lat="43.0110093" lon="13.7930118"><ele>305.0</ele><time>2026-04-11T09:32:11.532Z</time></trkpt><trkpt lat="43.0111303" lon="13.7929995"><ele>308.0</ele><time>2026-04-11T09:32:12.532Z</time></trkpt><trkpt lat="43.0112389" lon="13.7929631"><ele>311.0</ele><time>2026-04-11T09:32:13.531Z</time></trkpt><trkpt lat="43.0113404" lon="13.7929092"><ele>311.0</ele><time>2026-04-11T09:32:14.532Z</time></trkpt><trkpt lat="43.0114487" lon="13.7928288"><ele>311.0</ele><time>2026-04-11T09:32:15.532Z</time></trkpt><trkpt lat="43.0115704" lon="13.792734"><ele>311.0</ele><time>2026-04-11T09:32:16.532Z</time></trkpt><trkpt lat="43.0116838" lon="13.7926699"><ele>311.0</ele><time>2026-04-11T09:32:17.532Z</time></trkpt><trkpt lat="43.0117697" lon="13.7926352"><ele>310.5</ele><time>2026-04-11T09:32:18.532Z</time></trkpt><trkpt lat="43.0118354" lon="13.7926324"><ele>310.0</ele><time>2026-04-11T09:32:19.532Z</time></trkpt><trkpt lat="43.0119437" lon="13.7927516"><ele>309.5</ele><time>2026-04-11T09:32:21.532Z</time></trkpt><trkpt lat="43.0120264" lon="13.7928756"><ele>309.0</ele><time>2026-04-11T09:32:22.532Z</time></trkpt><trkpt lat="43.0121436" lon="13.7930091"><ele>309.75</ele><time>2026-04-11T09:32:23.532Z</time></trkpt><trkpt lat="43.0122654" lon="13.7931138"><ele>310.5</ele><time>2026-04-11T09:32:24.531Z</time></trkpt><trkpt lat="43.0123969" lon="13.7932055"><ele>311.25</ele><time>2026-04-11T09:32:25.532Z</time></trkpt><trkpt lat="43.0125245" lon="13.79329"><ele>312.0</ele><time>2026-04-11T09:32:26.532Z</time></trkpt><trkpt lat="43.0126401" lon="13.7933672"><ele>312.0</ele><time>2026-04-11T09:32:27.532Z</time></trkpt><trkpt lat="43.0127366" lon="13.7934395"><ele>312.0</ele><time>2026-04-11T09:32:28.532Z</time></trkpt><trkpt lat="43.0128179" lon="13.7935228"><ele>312.0</ele><time>2026-04-11T09:32:29.532Z</time></trkpt><trkpt lat="43.0128881" lon="13.7936248"><ele>312.0</ele><time>2026-04-11T09:32:30.532Z</time></trkpt><trkpt lat="43.0129473" lon="13.7937259"><ele>312.0</ele><time>2026-04-11T09:32:31.532Z</time></trkpt><trkpt lat="43.0130061" lon="13.793812"><ele>312.4</ele><time>2026-04-11T09:32:32.531Z</time></trkpt><trkpt lat="43.0130761" lon="13.7938782"><ele>312.79999999999995</ele><time>2026-04-11T09:32:33.532Z</time></trkpt><trkpt lat="43.0131644" lon="13.7939125"><ele>313.2</ele><time>2026-04-11T09:32:34.532Z</time></trkpt><trkpt lat="43.0132754" lon="13.7939112"><ele>313.59999999999997</ele><time>2026-04-11T09:32:35.532Z</time></trkpt><trkpt lat="43.0134241" lon="13.7938879"><ele>314.0</ele><time>2026-04-11T09:32:36.532Z</time></trkpt><trkpt lat="43.0136033" lon="13.7938587"><ele>311.0</ele><time>2026-04-11T09:32:37.532Z</time></trkpt><trkpt lat="43.0137796" lon="13.7938424"><ele>308.0</ele><time>2026-04-11T09:32:38.532Z</time></trkpt><trkpt lat="43.0139349" lon="13.7938799"><ele>305.0</ele><time>2026-04-11T09:32:39.532Z</time></trkpt><trkpt lat="43.0140929" lon="13.7939556"><ele>304.6666666666667</ele><time>2026-04-11T09:32:40.532Z</time></trkpt><trkpt lat="43.0142304" lon="13.794046"><ele>304.3333333333333</ele><time>2026-04-11T09:32:41.532Z</time></trkpt><trkpt lat="43.0143557" lon="13.7941655"><ele>304.0</ele><time>2026-04-11T09:32:42.532Z</time></trkpt><trkpt lat="43.0144854" lon="13.7943125"><ele>302.25</ele><time>2026-04-11T09:32:43.531Z</time></trkpt><trkpt lat="43.014608" lon="13.7944516"><ele>300.5</ele><time>2026-04-11T09:32:44.532Z</time></trkpt><trkpt lat="43.0147114" lon="13.7945606"><ele>298.75</ele><time>2026-04-11T09:32:45.532Z</time></trkpt><trkpt lat="43.0148029" lon="13.7946348"><ele>297.0</ele><time>2026-04-11T09:32:46.532Z</time></trkpt><trkpt lat="43.0148873" lon="13.7946833"><ele>298.5</ele><time>2026-04-11T09:32:47.532Z</time></trkpt><trkpt lat="43.0149988" lon="13.7947221"><ele>300.0</ele><time>2026-04-11T09:32:48.532Z</time></trkpt><trkpt lat="43.015134" lon="13.7947642"><ele>301.5</ele><time>2026-04-11T09:32:49.532Z</time></trkpt><trkpt lat="43.0152491" lon="13.7948224"><ele>303.0</ele><time>2026-04-11T09:32:50.532Z</time></trkpt><trkpt lat="43.0153491" lon="13.7949009"><ele>303.0</ele><time>2026-04-11T09:32:51.532Z</time></trkpt><trkpt lat="43.0154369" lon="13.7949975"><ele>303.0</ele><time>2026-04-11T09:32:52.531Z</time></trkpt><trkpt lat="43.0155047" lon="13.7951115"><ele>303.0</ele><time>2026-04-11T09:32:53.532Z</time></trkpt><trkpt lat="43.0155626" lon="13.7952353"><ele>303.0</ele><time>2026-04-11T09:32:54.532Z</time></trkpt><trkpt lat="43.0156227" lon="13.79537"><ele>303.0</ele><time>2026-04-11T09:32:55.532Z</time></trkpt><trkpt lat="43.0157017" lon="13.7955034"><ele>301.5</ele><time>2026-04-11T09:32:56.532Z</time></trkpt><trkpt lat="43.0157957" lon="13.7956238"><ele>300.0</ele><time>2026-04-11T09:32:57.532Z</time></trkpt><trkpt lat="43.015892" lon="13.79574"><ele>298.5</ele><time>2026-04-11T09:32:58.532Z</time></trkpt><trkpt lat="43.0159787" lon="13.7958522"><ele>297.0</ele><time>2026-04-11T09:32:59.532Z</time></trkpt><trkpt lat="43.0160597" lon="13.7959721"><ele>294.6</ele><time>2026-04-11T09:33:00.532Z</time></trkpt><trkpt lat="43.0161277" lon="13.7960932"><ele>292.2</ele><time>2026-04-11T09:33:01.532Z</time></trkpt><trkpt lat="43.0161918" lon="13.7962136"><ele>289.8</ele><time>2026-04-11T09:33:02.532Z</time></trkpt><trkpt lat="43.0162507" lon="13.7963287"><ele>287.4</ele><time>2026-04-11T09:33:03.532Z</time></trkpt><trkpt lat="43.0163056" lon="13.7964399"><ele>285.0</ele><time>2026-04-11T09:33:04.532Z</time></trkpt><trkpt lat="43.0163599" lon="13.7965498"><ele>285.0</ele><time>2026-04-11T09:33:05.532Z</time></trkpt><trkpt lat="43.0164089" lon="13.7966569"><ele>285.0</ele><time>2026-04-11T09:33:06.531Z</time></trkpt><trkpt lat="43.0164557" lon="13.7967676"><ele>285.0</ele><time>2026-04-11T09:33:07.532Z</time></trkpt><trkpt lat="43.016511" lon="13.7968965"><ele>285.0</ele><time>2026-04-11T09:33:08.532Z</time></trkpt><trkpt lat="43.0165622" lon="13.7970386"><ele>285.0</ele><time>2026-04-11T09:33:09.532Z</time></trkpt><trkpt lat="43.0166185" lon="13.7971799"><ele>284.0</ele><time>2026-04-11T09:33:10.532Z</time></trkpt><trkpt lat="43.0166778" lon="13.7973056"><ele>283.0</ele><time>2026-04-11T09:33:11.531Z</time></trkpt><trkpt lat="43.0167463" lon="13.7974253"><ele>282.0</ele><time>2026-04-11T09:33:12.532Z</time></trkpt><trkpt lat="43.0168157" lon="13.7975555"><ele>281.0</ele><time>2026-04-11T09:33:13.532Z</time></trkpt><trkpt lat="43.0168843" lon="13.7976902"><ele>279.5</ele><time>2026-04-11T09:33:14.532Z</time></trkpt><trkpt lat="43.0169522" lon="13.7978335"><ele>278.0</ele><time>2026-04-11T09:33:15.532Z</time></trkpt><trkpt lat="43.0170221" lon="13.7979807"><ele>276.5</ele><time>2026-04-11T09:33:16.532Z</time></trkpt><trkpt lat="43.0170948" lon="13.7981292"><ele>275.0</ele><time>2026-04-11T09:33:17.532Z</time></trkpt><trkpt lat="43.0171695" lon="13.7982798"><ele>275.0</ele><time>2026-04-11T09:33:18.532Z</time></trkpt><trkpt lat="43.0172394" lon="13.7984281"><ele>275.0</ele><time>2026-04-11T09:33:19.532Z</time></trkpt><trkpt lat="43.0173092" lon="13.798569"><ele>275.0</ele><time>2026-04-11T09:33:20.532Z</time></trkpt><trkpt lat="43.0173718" lon="13.7987053"><ele>275.0</ele><time>2026-04-11T09:33:21.532Z</time></trkpt><trkpt lat="43.0174255" lon="13.7988437"><ele>274.6</ele><time>2026-04-11T09:33:22.532Z</time></trkpt><trkpt lat="43.0174681" lon="13.7989854"><ele>274.2</ele><time>2026-04-11T09:33:23.532Z</time></trkpt><trkpt lat="43.0175057" lon="13.7991231"><ele>273.8</ele><time>2026-04-11T09:33:24.531Z</time></trkpt><trkpt lat="43.0175438" lon="13.799258"><ele>273.4</ele><time>2026-04-11T09:33:25.531Z</time></trkpt><trkpt lat="43.0175848" lon="13.7993952"><ele>273.0</ele><time>2026-04-11T09:33:26.532Z</time></trkpt><trkpt lat="43.0176333" lon="13.7995247"><ele>272.0</ele><time>2026-04-11T09:33:27.532Z</time></trkpt><trkpt lat="43.0176896" lon="13.7996376"><ele>271.0</ele><time>2026-04-11T09:33:28.532Z</time></trkpt><trkpt lat="43.0177479" lon="13.799741"><ele>270.0</ele><time>2026-04-11T09:33:29.532Z</time></trkpt><trkpt lat="43.0178083" lon="13.7998425"><ele>269.0</ele><time>2026-04-11T09:33:30.532Z</time></trkpt><trkpt lat="43.0178644" lon="13.7999494"><ele>268.0</ele><time>2026-04-11T09:33:31.532Z</time></trkpt><trkpt lat="43.0179335" lon="13.8000574"><ele>268.0</ele><time>2026-04-11T09:33:32.532Z</time></trkpt><trkpt lat="43.0180326" lon="13.8001629"><ele>268.0</ele><time>2026-04-11T09:33:33.532Z</time></trkpt><trkpt lat="43.0181546" lon="13.8002596"><ele>268.0</ele><time>2026-04-11T09:33:34.532Z</time></trkpt><trkpt lat="43.018284" lon="13.8003298"><ele>268.0</ele><time>2026-04-11T09:33:35.532Z</time></trkpt><trkpt lat="43.0183987" lon="13.8003663"><ele>266.75</ele><time>2026-04-11T09:33:36.532Z</time></trkpt><trkpt lat="43.0185009" lon="13.8003811"><ele>265.5</ele><time>2026-04-11T09:33:37.532Z</time></trkpt><trkpt lat="43.0186165" lon="13.8003781"><ele>264.25</ele><time>2026-04-11T09:33:38.532Z</time></trkpt><trkpt lat="43.0187379" lon="13.8003792"><ele>263.0</ele><time>2026-04-11T09:33:39.532Z</time></trkpt><trkpt lat="43.0188484" lon="13.8004063"><ele>263.0</ele><time>2026-04-11T09:33:40.532Z</time></trkpt><trkpt lat="43.0189727" lon="13.8004638"><ele>263.0</ele><time>2026-04-11T09:33:41.532Z</time></trkpt><trkpt lat="43.0191104" lon="13.8005499"><ele>263.0</ele><time>2026-04-11T09:33:42.531Z</time></trkpt><trkpt lat="43.0192333" lon="13.8006497"><ele>263.0</ele><time>2026-04-11T09:33:43.532Z</time></trkpt><trkpt lat="43.0193342" lon="13.8007594"><ele>263.0</ele><time>2026-04-11T09:33:44.532Z</time></trkpt><trkpt lat="43.0194427" lon="13.8009025"><ele>263.0</ele><time>2026-04-11T09:33:45.532Z</time></trkpt><trkpt lat="43.0195637" lon="13.8010751"><ele>263.0</ele><time>2026-04-11T09:33:46.532Z</time></trkpt><trkpt lat="43.0196696" lon="13.8012434"><ele>260.0</ele><time>2026-04-11T09:33:47.532Z</time></trkpt><trkpt lat="43.0197598" lon="13.8014096"><ele>257.0</ele><time>2026-04-11T09:33:48.532Z</time></trkpt><trkpt lat="43.0198429" lon="13.8016003"><ele>254.0</ele><time>2026-04-11T09:33:49.532Z</time></trkpt><trkpt lat="43.0199254" lon="13.8018201"><ele>253.0</ele><time>2026-04-11T09:33:50.532Z</time></trkpt><trkpt lat="43.0200032" lon="13.8020454"><ele>252.0</ele><time>2026-04-11T09:33:51.532Z</time></trkpt><trkpt lat="43.0200725" lon="13.8022491"><ele>251.0</ele><time>2026-04-11T09:33:52.532Z</time></trkpt><trkpt lat="43.0201409" lon="13.8024358"><ele>251.0</ele><time>2026-04-11T09:33:53.531Z</time></trkpt><trkpt lat="43.0202117" lon="13.802607"><ele>251.0</ele><time>2026-04-11T09:33:54.531Z</time></trkpt><trkpt lat="43.0202877" lon="13.8027534"><ele>251.0</ele><time>2026-04-11T09:33:55.532Z</time></trkpt><trkpt lat="43.0203737" lon="13.8028755"><ele>251.0</ele><time>2026-04-11T09:33:56.531Z</time></trkpt><trkpt lat="43.0204745" lon="13.8029744"><ele>249.5</ele><time>2026-04-11T09:33:57.532Z</time></trkpt><trkpt lat="43.0206034" lon="13.8030701"><ele>248.0</ele><time>2026-04-11T09:33:58.532Z</time></trkpt><trkpt lat="43.0207348" lon="13.8031674"><ele>246.5</ele><time>2026-04-11T09:33:59.532Z</time></trkpt><trkpt lat="43.0208435" lon="13.8032628"><ele>245.0</ele><time>2026-04-11T09:34:00.532Z</time></trkpt><trkpt lat="43.0209502" lon="13.8033563"><ele>245.0</ele><time>2026-04-11T09:34:01.532Z</time></trkpt><trkpt lat="43.0210521" lon="13.803433"><ele>245.0</ele><time>2026-04-11T09:34:02.532Z</time></trkpt><trkpt lat="43.0211433" lon="13.8034949"><ele>245.0</ele><time>2026-04-11T09:34:03.532Z</time></trkpt><trkpt lat="43.0212281" lon="13.8035652"><ele>245.0</ele><time>2026-04-11T09:34:04.532Z</time></trkpt><trkpt lat="43.0213165" lon="13.8036534"><ele>245.0</ele><time>2026-04-11T09:34:05.531Z</time></trkpt><trkpt lat="43.0214139" lon="13.8037556"><ele>242.25</ele><time>2026-04-11T09:34:06.532Z</time></trkpt><trkpt lat="43.0215081" lon="13.8038685"><ele>239.5</ele><time>2026-04-11T09:34:07.532Z</time></trkpt><trkpt lat="43.0215961" lon="13.8039842"><ele>236.75</ele><time>2026-04-11T09:34:08.532Z</time></trkpt><trkpt lat="43.0216751" lon="13.8040892"><ele>234.0</ele><time>2026-04-11T09:34:09.532Z</time></trkpt><trkpt lat="43.0217524" lon="13.8041979"><ele>234.0</ele><time>2026-04-11T09:34:10.532Z</time></trkpt><trkpt lat="43.0218323" lon="13.8043168"><ele>234.0</ele><time>2026-04-11T09:34:11.532Z</time></trkpt><trkpt lat="43.0219117" lon="13.8044369"><ele>234.0</ele><time>2026-04-11T09:34:12.532Z</time></trkpt><trkpt lat="43.0219902" lon="13.8045607"><ele>234.0</ele><time>2026-04-11T09:34:13.531Z</time></trkpt><trkpt lat="43.0220711" lon="13.8046886"><ele>232.5</ele><time>2026-04-11T09:34:14.532Z</time></trkpt><trkpt lat="43.0221516" lon="13.8048096"><ele>231.0</ele><time>2026-04-11T09:34:15.532Z</time></trkpt><trkpt lat="43.0222309" lon="13.8049212"><ele>229.5</ele><time>2026-04-11T09:34:16.532Z</time></trkpt><trkpt lat="43.0223008" lon="13.8050472"><ele>228.0</ele><time>2026-04-11T09:34:17.532Z</time></trkpt><trkpt lat="43.022365" lon="13.8051855"><ele>228.75</ele><time>2026-04-11T09:34:18.532Z</time></trkpt><trkpt lat="43.0224378" lon="13.8053272"><ele>229.5</ele><time>2026-04-11T09:34:19.532Z</time></trkpt><trkpt lat="43.0225212" lon="13.8054591"><ele>230.25</ele><time>2026-04-11T09:34:20.532Z</time></trkpt><trkpt lat="43.0226072" lon="13.8055927"><ele>231.0</ele><time>2026-04-11T09:34:21.531Z</time></trkpt><trkpt lat="43.022688" lon="13.8057325"><ele>231.0</ele><time>2026-04-11T09:34:22.531Z</time></trkpt><trkpt lat="43.0227558" lon="13.8058781"><ele>231.0</ele><time>2026-04-11T09:34:23.532Z</time></trkpt><trkpt lat="43.0228083" lon="13.8060271"><ele>231.0</ele><time>2026-04-11T09:34:24.532Z</time></trkpt><trkpt lat="43.0228433" lon="13.8061744"><ele>231.0</ele><time>2026-04-11T09:34:25.532Z</time></trkpt><trkpt lat="43.022868" lon="13.8063396"><ele>231.0</ele><time>2026-04-11T09:34:26.532Z</time></trkpt><trkpt lat="43.0228865" lon="13.8065158"><ele>231.0</ele><time>2026-04-11T09:34:27.531Z</time></trkpt><trkpt lat="43.022905" lon="13.8066887"><ele>231.0</ele><time>2026-04-11T09:34:28.532Z</time></trkpt><trkpt lat="43.02293" lon="13.806865"><ele>231.0</ele><time>2026-04-11T09:34:29.532Z</time></trkpt><trkpt lat="43.0229539" lon="13.8070496"><ele>230.75</ele><time>2026-04-11T09:34:30.531Z</time></trkpt><trkpt lat="43.0229776" lon="13.8072369"><ele>230.5</ele><time>2026-04-11T09:34:31.532Z</time></trkpt><trkpt lat="43.0230054" lon="13.8074231"><ele>230.25</ele><time>2026-04-11T09:34:32.532Z</time></trkpt><trkpt lat="43.0230329" lon="13.8076145"><ele>230.0</ele><time>2026-04-11T09:34:33.532Z</time></trkpt><trkpt lat="43.0230645" lon="13.8078099"><ele>228.75</ele><time>2026-04-11T09:34:34.532Z</time></trkpt><trkpt lat="43.0230941" lon="13.8080013"><ele>227.5</ele><time>2026-04-11T09:34:35.532Z</time></trkpt><trkpt lat="43.0231239" lon="13.8081885"><ele>226.25</ele><time>2026-04-11T09:34:36.532Z</time></trkpt><trkpt lat="43.0231548" lon="13.808375"><ele>225.0</ele><time>2026-04-11T09:34:37.532Z</time></trkpt><trkpt lat="43.0231878" lon="13.8085668"><ele>221.66666666666669</ele><time>2026-04-11T09:34:38.532Z</time></trkpt><trkpt lat="43.0232281" lon="13.8087663"><ele>218.33333333333334</ele><time>2026-04-11T09:34:39.532Z</time></trkpt><trkpt lat="43.0232784" lon="13.8089738"><ele>215.0</ele><time>2026-04-11T09:34:40.532Z</time></trkpt><trkpt lat="43.0233303" lon="13.8091741"><ele>219.33333333333334</ele><time>2026-04-11T09:34:41.532Z</time></trkpt><trkpt lat="43.0233859" lon="13.8093678"><ele>223.66666666666669</ele><time>2026-04-11T09:34:42.531Z</time></trkpt><trkpt lat="43.0234426" lon="13.8095622"><ele>228.0</ele><time>2026-04-11T09:34:43.532Z</time></trkpt><trkpt lat="43.0235036" lon="13.8097532"><ele>228.0</ele><time>2026-04-11T09:34:44.531Z</time></trkpt><trkpt lat="43.0235695" lon="13.8099449"><ele>228.0</ele><time>2026-04-11T09:34:45.532Z</time></trkpt><trkpt lat="43.0236388" lon="13.8101369"><ele>228.0</ele><time>2026-04-11T09:34:46.532Z</time></trkpt><trkpt lat="43.023714" lon="13.8103287"><ele>225.25</ele><time>2026-04-11T09:34:47.532Z</time></trkpt><trkpt lat="43.0237845" lon="13.8105073"><ele>222.5</ele><time>2026-04-11T09:34:48.532Z</time></trkpt><trkpt lat="43.0238454" lon="13.810675"><ele>219.75</ele><time>2026-04-11T09:34:49.532Z</time></trkpt><trkpt lat="43.0239005" lon="13.8108293"><ele>217.0</ele><time>2026-04-11T09:34:50.531Z</time></trkpt><trkpt lat="43.0239465" lon="13.8109795"><ele>213.75</ele><time>2026-04-11T09:34:51.531Z</time></trkpt><trkpt lat="43.0239901" lon="13.8111365"><ele>210.5</ele><time>2026-04-11T09:34:52.532Z</time></trkpt><trkpt lat="43.0240305" lon="13.8112954"><ele>207.25</ele><time>2026-04-11T09:34:53.531Z</time></trkpt><trkpt lat="43.0240701" lon="13.8114381"><ele>204.0</ele><time>2026-04-11T09:34:54.532Z</time></trkpt><trkpt lat="43.0241062" lon="13.8115639"><ele>204.0</ele><time>2026-04-11T09:34:55.532Z</time></trkpt><trkpt lat="43.0241387" lon="13.8116664"><ele>204.0</ele><time>2026-04-11T09:34:56.531Z</time></trkpt><trkpt lat="43.0241851" lon="13.8117944"><ele>204.0</ele><time>2026-04-11T09:34:58.532Z</time></trkpt><trkpt lat="43.0242327" lon="13.8118663"><ele>204.0</ele><time>2026-04-11T09:35:01.532Z</time></trkpt><trkpt lat="43.02431" lon="13.8118691"><ele>204.0</ele><time>2026-04-11T09:35:05.532Z</time></trkpt><trkpt lat="43.0243546" lon="13.81178"><ele>204.0</ele><time>2026-04-11T09:35:10.582Z</time></trkpt><trkpt lat="43.024401" lon="13.8116665"><ele>208.6</ele><time>2026-04-11T09:35:13.531Z</time></trkpt><trkpt lat="43.024465" lon="13.8115959"><ele>213.2</ele><time>2026-04-11T09:35:15.532Z</time></trkpt><trkpt lat="43.0245321" lon="13.8115073"><ele>217.79999999999998</ele><time>2026-04-11T09:35:17.57Z</time></trkpt><trkpt lat="43.02457" lon="13.8113691"><ele>222.39999999999998</ele><time>2026-04-11T09:35:19.532Z</time></trkpt><trkpt lat="43.024603" lon="13.8112499"><ele>227.0</ele><time>2026-04-11T09:35:21.532Z</time></trkpt><trkpt lat="43.0246309" lon="13.8111362"><ele>227.00000000000003</ele><time>2026-04-11T09:35:23.532Z</time></trkpt><trkpt lat="43.0246482" lon="13.811048"><ele>227.0</ele><time>2026-04-11T09:35:25.532Z</time></trkpt><trkpt lat="43.0246675" lon="13.8109519"><ele>227.0</ele><time>2026-04-11T09:35:27.532Z</time></trkpt><trkpt lat="43.0246917" lon="13.81083"><ele>227.0</ele><time>2026-04-11T09:35:29.532Z</time></trkpt><trkpt lat="43.0247368" lon="13.8107119"><ele>227.00000000000003</ele><time>2026-04-11T09:35:31.532Z</time></trkpt><trkpt lat="43.0247887" lon="13.810603"><ele>227.0</ele><time>2026-04-11T09:35:33.531Z</time></trkpt><trkpt lat="43.0248591" lon="13.8105289"><ele>227.33333333333334</ele><time>2026-04-11T09:35:35.532Z</time></trkpt><trkpt lat="43.0249297" lon="13.8104467"><ele>227.66666666666669</ele><time>2026-04-11T09:35:37.532Z</time></trkpt><trkpt lat="43.0250128" lon="13.810396"><ele>228.0</ele><time>2026-04-11T09:35:39.531Z</time></trkpt><trkpt lat="43.0251008" lon="13.8104006"><ele>228.33333333333331</ele><time>2026-04-11T09:35:41.532Z</time></trkpt><trkpt lat="43.0251415" lon="13.8102987"><ele>228.66666666666666</ele><time>2026-04-11T09:35:46.512Z</time></trkpt><trkpt lat="43.0251344" lon="13.8101721"><ele>229.0</ele><time>2026-04-11T09:35:48.532Z</time></trkpt><trkpt lat="43.0251006" lon="13.8100702"><ele>228.6</ele><time>2026-04-11T09:35:50.476Z</time></trkpt><trkpt lat="43.0250619" lon="13.8099424"><ele>228.2</ele><time>2026-04-11T09:35:52.532Z</time></trkpt><trkpt lat="43.0250557" lon="13.809802"><ele>227.79999999999998</ele><time>2026-04-11T09:35:54.532Z</time></trkpt><trkpt lat="43.0250677" lon="13.8096881"><ele>227.39999999999998</ele><time>2026-04-11T09:35:56.532Z</time></trkpt><trkpt lat="43.0250332" lon="13.8095888"><ele>227.0</ele><time>2026-04-11T09:35:59.532Z</time></trkpt><trkpt lat="43.0249743" lon="13.809495"><ele>227.0</ele><time>2026-04-11T09:36:01.531Z</time></trkpt><trkpt lat="43.024904" lon="13.8094084"><ele>227.0</ele><time>2026-04-11T09:36:03.532Z</time></trkpt><trkpt lat="43.024835" lon="13.8093158"><ele>227.0</ele><time>2026-04-11T09:36:05.532Z</time></trkpt><trkpt lat="43.0247818" lon="13.8091853"><ele>227.0</ele><time>2026-04-11T09:36:07.531Z</time></trkpt><trkpt lat="43.0247799" lon="13.8090315"><ele>227.0</ele><time>2026-04-11T09:36:09.532Z</time></trkpt><trkpt lat="43.0248163" lon="13.8088825"><ele>226.2</ele><time>2026-04-11T09:36:11.532Z</time></trkpt><trkpt lat="43.0248706" lon="13.8087347"><ele>225.39999999999998</ele><time>2026-04-11T09:36:13.532Z</time></trkpt><trkpt lat="43.024893" lon="13.8085747"><ele>224.60000000000002</ele><time>2026-04-11T09:36:15.532Z</time></trkpt><trkpt lat="43.0249144" lon="13.8084319"><ele>223.8</ele><time>2026-04-11T09:36:17.532Z</time></trkpt><trkpt lat="43.0249916" lon="13.8083751"><ele>223.0</ele><time>2026-04-11T09:36:20.532Z</time></trkpt><trkpt lat="43.0250669" lon="13.8084105"><ele>217.0</ele><time>2026-04-11T09:36:22.532Z</time></trkpt><trkpt lat="43.0251112" lon="13.8084831"><ele>211.0</ele><time>2026-04-11T09:36:26.532Z</time></trkpt><trkpt lat="43.025152" lon="13.808572"><ele>205.0</ele><time>2026-04-11T09:36:29.532Z</time></trkpt><trkpt lat="43.0251988" lon="13.8086439"><ele>199.0</ele><time>2026-04-11T09:36:31.532Z</time></trkpt><trkpt lat="43.0252336" lon="13.8087233"><ele>193.0</ele><time>2026-04-11T09:36:32.532Z</time></trkpt><trkpt lat="43.0252731" lon="13.8088191"><ele>187.0</ele><time>2026-04-11T09:36:33.532Z</time></trkpt><trkpt lat="43.0253163" lon="13.8089148"><ele>181.0</ele><time>2026-04-11T09:36:34.532Z</time></trkpt><trkpt lat="43.0253839" lon="13.8090338"><ele>181.0</ele><time>2026-04-11T09:36:35.532Z</time></trkpt><trkpt lat="43.0254783" lon="13.8091837"><ele>181.0</ele><time>2026-04-11T09:36:36.532Z</time></trkpt><trkpt lat="43.025567" lon="13.8093174"><ele>181.0</ele><time>2026-04-11T09:36:37.532Z</time></trkpt><trkpt lat="43.025639" lon="13.8094172"><ele>181.0</ele><time>2026-04-11T09:36:38.532Z</time></trkpt><trkpt lat="43.0256935" lon="13.8095008"><ele>183.0</ele><time>2026-04-11T09:36:39.532Z</time></trkpt><trkpt lat="43.0257307" lon="13.8095703"><ele>185.0</ele><time>2026-04-11T09:36:40.531Z</time></trkpt><trkpt lat="43.0257651" lon="13.8096434"><ele>187.0</ele><time>2026-04-11T09:36:41.532Z</time></trkpt><trkpt lat="43.0257987" lon="13.8097327"><ele>189.0</ele><time>2026-04-11T09:36:42.532Z</time></trkpt><trkpt lat="43.0258371" lon="13.8098236"><ele>191.0</ele><time>2026-04-11T09:36:43.532Z</time></trkpt><trkpt lat="43.0258864" lon="13.8099077"><ele>193.0</ele><time>2026-04-11T09:36:44.532Z</time></trkpt><trkpt lat="43.0259417" lon="13.8099685"><ele>195.0</ele><time>2026-04-11T09:36:45.532Z</time></trkpt><trkpt lat="43.0260277" lon="13.8100462"><ele>196.5</ele><time>2026-04-11T09:36:47.531Z</time></trkpt><trkpt lat="43.026039" lon="13.8101717"><ele>198.0</ele><time>2026-04-11T09:36:49.532Z</time></trkpt><trkpt lat="43.0259682" lon="13.8103246"><ele>199.5</ele><time>2026-04-11T09:36:51.532Z</time></trkpt><trkpt lat="43.0259276" lon="13.8104058"><ele>201.0</ele><time>2026-04-11T09:36:52.532Z</time></trkpt><trkpt lat="43.0258726" lon="13.8104593"><ele>202.5</ele><time>2026-04-11T09:36:53.532Z</time></trkpt><trkpt lat="43.0258137" lon="13.8105329"><ele>204.0</ele><time>2026-04-11T09:36:54.532Z</time></trkpt><trkpt lat="43.0257574" lon="13.8106084"><ele>204.0</ele><time>2026-04-11T09:36:55.531Z</time></trkpt><trkpt lat="43.0257134" lon="13.8106894"><ele>204.0</ele><time>2026-04-11T09:36:56.532Z</time></trkpt><trkpt lat="43.0256473" lon="13.8108143"><ele>204.0</ele><time>2026-04-11T09:36:58.532Z</time></trkpt><trkpt lat="43.0256924" lon="13.8109259"><ele>204.0</ele><time>2026-04-11T09:37:00.532Z</time></trkpt><trkpt lat="43.025771" lon="13.8110325"><ele>204.0</ele><time>2026-04-11T09:37:02.532Z</time></trkpt><trkpt lat="43.0258972" lon="13.8111235"><ele>197.39999999999998</ele><time>2026-04-11T09:37:04.531Z</time></trkpt><trkpt lat="43.0259777" lon="13.811193"><ele>190.8</ele><time>2026-04-11T09:37:05.532Z</time></trkpt><trkpt lat="43.026056" lon="13.8112524"><ele>184.2</ele><time>2026-04-11T09:37:06.532Z</time></trkpt><trkpt lat="43.0261246" lon="13.8113182"><ele>177.60000000000002</ele><time>2026-04-11T09:37:07.532Z</time></trkpt><trkpt lat="43.026188" lon="13.8113873"><ele>171.0</ele><time>2026-04-11T09:37:08.532Z</time></trkpt><trkpt lat="43.0262687" lon="13.8114957"><ele>171.0</ele><time>2026-04-11T09:37:10.532Z</time></trkpt><trkpt lat="43.0263141" lon="13.8116301"><ele>171.0</ele><time>2026-04-11T09:37:12.532Z</time></trkpt><trkpt lat="43.0263201" lon="13.8117232"><ele>171.0</ele><time>2026-04-11T09:37:14.532Z</time></trkpt><trkpt lat="43.0263474" lon="13.811807"><ele>171.0</ele><time>2026-04-11T09:37:17.532Z</time></trkpt><trkpt lat="43.026423" lon="13.8118209"><ele>171.0</ele><time>2026-04-11T09:37:19.532Z</time></trkpt><trkpt lat="43.0265092" lon="13.8117485"><ele>171.0</ele><time>2026-04-11T09:37:20.531Z</time></trkpt><trkpt lat="43.026571" lon="13.8116941"><ele>166.0</ele><time>2026-04-11T09:37:21.532Z</time></trkpt><trkpt lat="43.026683" lon="13.8116327"><ele>161.0</ele><time>2026-04-11T09:37:23.532Z</time></trkpt><trkpt lat="43.0267942" lon="13.8116236"><ele>156.0</ele><time>2026-04-11T09:37:25.532Z</time></trkpt><trkpt lat="43.0268601" lon="13.8116278"><ele>151.0</ele><time>2026-04-11T09:37:26.532Z</time></trkpt><trkpt lat="43.0269299" lon="13.8116412"><ele>146.0</ele><time>2026-04-11T09:37:27.532Z</time></trkpt><trkpt lat="43.0270418" lon="13.811699"><ele>146.0</ele><time>2026-04-11T09:37:29.532Z</time></trkpt><trkpt lat="43.0271008" lon="13.8117361"><ele>146.0</ele><time>2026-04-11T09:37:30.532Z</time></trkpt><trkpt lat="43.0271681" lon="13.8117643"><ele>146.0</ele><time>2026-04-11T09:37:31.532Z</time></trkpt><trkpt lat="43.0272432" lon="13.8117721"><ele>146.0</ele><time>2026-04-11T09:37:32.532Z</time></trkpt><trkpt lat="43.0273194" lon="13.8117607"><ele>146.0</ele><time>2026-04-11T09:37:33.531Z</time></trkpt><trkpt lat="43.0273929" lon="13.8117336"><ele>146.0</ele><time>2026-04-11T09:37:34.532Z</time></trkpt><trkpt lat="43.0274646" lon="13.8116945"><ele>146.0</ele><time>2026-04-11T09:37:35.532Z</time></trkpt><trkpt lat="43.0275348" lon="13.8116539"><ele>144.0</ele><time>2026-04-11T09:37:36.532Z</time></trkpt><trkpt lat="43.0276103" lon="13.8116116"><ele>142.0</ele><time>2026-04-11T09:37:37.532Z</time></trkpt><trkpt lat="43.0276942" lon="13.8115602"><ele>140.0</ele><time>2026-04-11T09:37:38.532Z</time></trkpt><trkpt lat="43.0277754" lon="13.8115104"><ele>138.0</ele><time>2026-04-11T09:37:39.532Z</time></trkpt><trkpt lat="43.0278466" lon="13.8114611"><ele>136.0</ele><time>2026-04-11T09:37:40.532Z</time></trkpt><trkpt lat="43.0279163" lon="13.8114085"><ele>134.0</ele><time>2026-04-11T09:37:41.532Z</time></trkpt><trkpt lat="43.0279851" lon="13.8113664"><ele>134.0</ele><time>2026-04-11T09:37:42.532Z</time></trkpt><trkpt lat="43.0280529" lon="13.8113437"><ele>134.0</ele><time>2026-04-11T09:37:43.532Z</time></trkpt><trkpt lat="43.0281287" lon="13.8113405"><ele>134.0</ele><time>2026-04-11T09:37:44.532Z</time></trkpt><trkpt lat="43.0282104" lon="13.8113572"><ele>134.0</ele><time>2026-04-11T09:37:45.532Z</time></trkpt><trkpt lat="43.0282922" lon="13.8113962"><ele>134.0</ele><time>2026-04-11T09:37:46.532Z</time></trkpt><trkpt lat="43.0283705" lon="13.8114526"><ele>134.0</ele><time>2026-04-11T09:37:47.532Z</time></trkpt><trkpt lat="43.0284451" lon="13.8115289"><ele>132.66666666666666</ele><time>2026-04-11T09:37:48.532Z</time></trkpt><trkpt lat="43.0285229" lon="13.8116151"><ele>131.33333333333331</ele><time>2026-04-11T09:37:49.531Z</time></trkpt><trkpt lat="43.0285937" lon="13.8116815"><ele>130.0</ele><time>2026-04-11T09:37:50.532Z</time></trkpt><trkpt lat="43.0286944" lon="13.8117076"><ele>128.66666666666666</ele><time>2026-04-11T09:37:52.531Z</time></trkpt><trkpt lat="43.028755" lon="13.8116238"><ele>127.33333333333333</ele><time>2026-04-11T09:37:54.532Z</time></trkpt><trkpt lat="43.0287683" lon="13.8115336"><ele>126.0</ele><time>2026-04-11T09:37:55.532Z</time></trkpt><trkpt lat="43.0287608" lon="13.8114131"><ele>126.0</ele><time>2026-04-11T09:37:56.532Z</time></trkpt><trkpt lat="43.0287469" lon="13.8112899"><ele>126.0</ele><time>2026-04-11T09:37:57.532Z</time></trkpt><trkpt lat="43.0287396" lon="13.8111751"><ele>126.0</ele><time>2026-04-11T09:37:58.532Z</time></trkpt><trkpt lat="43.0287414" lon="13.8110654"><ele>126.0</ele><time>2026-04-11T09:37:59.532Z</time></trkpt><trkpt lat="43.0287474" lon="13.8109605"><ele>126.0</ele><time>2026-04-11T09:38:00.532Z</time></trkpt><trkpt lat="43.0287554" lon="13.8108663"><ele>126.0</ele><time>2026-04-11T09:38:01.532Z</time></trkpt><trkpt lat="43.0287651" lon="13.8107655"><ele>123.42857142857143</ele><time>2026-04-11T09:38:02.532Z</time></trkpt><trkpt lat="43.0287786" lon="13.8106549"><ele>120.85714285714286</ele><time>2026-04-11T09:38:03.532Z</time></trkpt><trkpt lat="43.0287897" lon="13.8105473"><ele>118.28571428571428</ele><time>2026-04-11T09:38:04.532Z</time></trkpt><trkpt lat="43.0288026" lon="13.8104462"><ele>115.71428571428572</ele><time>2026-04-11T09:38:05.531Z</time></trkpt><trkpt lat="43.0288252" lon="13.8103499"><ele>113.14285714285714</ele><time>2026-04-11T09:38:06.532Z</time></trkpt><trkpt lat="43.0288508" lon="13.8102707"><ele>110.57142857142857</ele><time>2026-04-11T09:38:07.531Z</time></trkpt><trkpt lat="43.0288748" lon="13.8101857"><ele>108.0</ele><time>2026-04-11T09:38:08.531Z</time></trkpt><trkpt lat="43.0288736" lon="13.8100432"><ele>105.83333333333333</ele><time>2026-04-11T09:38:10.532Z</time></trkpt><trkpt lat="43.028844" lon="13.8098803"><ele>103.66666666666667</ele><time>2026-04-11T09:38:12.532Z</time></trkpt><trkpt lat="43.0288503" lon="13.8097808"><ele>101.5</ele><time>2026-04-11T09:38:13.532Z</time></trkpt><trkpt lat="43.0288463" lon="13.8096638"><ele>99.33333333333334</ele><time>2026-04-11T09:38:14.532Z</time></trkpt><trkpt lat="43.0288321" lon="13.8095562"><ele>97.16666666666667</ele><time>2026-04-11T09:38:15.532Z</time></trkpt><trkpt lat="43.0288097" lon="13.8094513"><ele>95.0</ele><time>2026-04-11T09:38:16.532Z</time></trkpt><trkpt lat="43.0287947" lon="13.809357"><ele>93.5</ele><time>2026-04-11T09:38:17.532Z</time></trkpt><trkpt lat="43.0287978" lon="13.8092702"><ele>92.0</ele><time>2026-04-11T09:38:18.531Z</time></trkpt><trkpt lat="43.0288248" lon="13.8091809"><ele>90.5</ele><time>2026-04-11T09:38:19.532Z</time></trkpt><trkpt lat="43.0288691" lon="13.8091043"><ele>89.0</ele><time>2026-04-11T09:38:20.532Z</time></trkpt><trkpt lat="43.0289204" lon="13.8090466"><ele>87.5</ele><time>2026-04-11T09:38:21.532Z</time></trkpt><trkpt lat="43.0290193" lon="13.8090086"><ele>86.0</ele><time>2026-04-11T09:38:23.532Z</time></trkpt><trkpt lat="43.0291035" lon="13.8089958"><ele>85.16666666666667</ele><time>2026-04-11T09:38:25.531Z</time></trkpt><trkpt lat="43.029184" lon="13.8089704"><ele>84.33333333333334</ele><time>2026-04-11T09:38:27.532Z</time></trkpt><trkpt lat="43.0292588" lon="13.8089219"><ele>83.5</ele><time>2026-04-11T09:38:29.531Z</time></trkpt><trkpt lat="43.029331" lon="13.8088204"><ele>82.66666666666667</ele><time>2026-04-11T09:38:31.532Z</time></trkpt><trkpt lat="43.0293712" lon="13.8087264"><ele>81.83333333333333</ele><time>2026-04-11T09:38:32.532Z</time></trkpt><trkpt lat="43.0294193" lon="13.8086274"><ele>81.0</ele><time>2026-04-11T09:38:33.531Z</time></trkpt><trkpt lat="43.0294732" lon="13.8085498"><ele>80.39999999999999</ele><time>2026-04-11T09:38:34.532Z</time></trkpt><trkpt lat="43.029533" lon="13.8084798"><ele>79.8</ele><time>2026-04-11T09:38:35.532Z</time></trkpt><trkpt lat="43.0296246" lon="13.8084093"><ele>79.19999999999999</ele><time>2026-04-11T09:38:36.531Z</time></trkpt><trkpt lat="43.0297198" lon="13.8083469"><ele>78.6</ele><time>2026-04-11T09:38:37.532Z</time></trkpt><trkpt lat="43.0297975" lon="13.8083025"><ele>78.0</ele><time>2026-04-11T09:38:38.532Z</time></trkpt><trkpt lat="43.0298747" lon="13.8082767"><ele>78.0</ele><time>2026-04-11T09:38:39.532Z</time></trkpt><trkpt lat="43.0299522" lon="13.808258"><ele>78.0</ele><time>2026-04-11T09:38:40.532Z</time></trkpt><trkpt lat="43.0300352" lon="13.8082215"><ele>78.0</ele><time>2026-04-11T09:38:41.532Z</time></trkpt><trkpt lat="43.0301139" lon="13.8081578"><ele>78.0</ele><time>2026-04-11T09:38:42.532Z</time></trkpt><trkpt lat="43.0301848" lon="13.8081042"><ele>78.0</ele><time>2026-04-11T09:38:43.532Z</time></trkpt><trkpt lat="43.0302612" lon="13.8080771"><ele>78.0</ele><time>2026-04-11T09:38:44.532Z</time></trkpt><trkpt lat="43.0303645" lon="13.8080479"><ele>76.2</ele><time>2026-04-11T09:38:45.532Z</time></trkpt><trkpt lat="43.0304704" lon="13.8080072"><ele>74.4</ele><time>2026-04-11T09:38:46.532Z</time></trkpt><trkpt lat="43.0305516" lon="13.807944"><ele>72.60000000000001</ele><time>2026-04-11T09:38:47.532Z</time></trkpt><trkpt lat="43.0306248" lon="13.8078579"><ele>70.8</ele><time>2026-04-11T09:38:48.532Z</time></trkpt><trkpt lat="43.0307042" lon="13.8077672"><ele>69.0</ele><time>2026-04-11T09:38:49.532Z</time></trkpt><trkpt lat="43.0307897" lon="13.8076858"><ele>67.83333333333333</ele><time>2026-04-11T09:38:50.532Z</time></trkpt><trkpt lat="43.0308798" lon="13.8076082"><ele>66.66666666666667</ele><time>2026-04-11T09:38:51.532Z</time></trkpt><trkpt lat="43.0309608" lon="13.8075467"><ele>65.5</ele><time>2026-04-11T09:38:52.532Z</time></trkpt><trkpt lat="43.0310308" lon="13.8075025"><ele>64.33333333333334</ele><time>2026-04-11T09:38:53.532Z</time></trkpt><trkpt lat="43.0311019" lon="13.8074839"><ele>63.16666666666667</ele><time>2026-04-11T09:38:54.532Z</time></trkpt><trkpt lat="43.0311723" lon="13.8074919"><ele>62.0</ele><time>2026-04-11T09:38:55.532Z</time></trkpt><trkpt lat="43.0312682" lon="13.8075411"><ele>62.0</ele><time>2026-04-11T09:38:57.532Z</time></trkpt><trkpt lat="43.031353" lon="13.8075844"><ele>62.0</ele><time>2026-04-11T09:38:59.532Z</time></trkpt><trkpt lat="43.0314302" lon="13.8076209"><ele>62.0</ele><time>2026-04-11T09:39:01.532Z</time></trkpt><trkpt lat="43.0315155" lon="13.8076327"><ele>62.0</ele><time>2026-04-11T09:39:03.531Z</time></trkpt><trkpt lat="43.0316056" lon="13.807624"><ele>62.0</ele><time>2026-04-11T09:39:05.532Z</time></trkpt><trkpt lat="43.0317165" lon="13.8076056"><ele>60.85714285714286</ele><time>2026-04-11T09:39:07.532Z</time></trkpt><trkpt lat="43.0317781" lon="13.8075867"><ele>59.71428571428572</ele><time>2026-04-11T09:39:08.532Z</time></trkpt><trkpt lat="43.0318427" lon="13.8075261"><ele>58.57142857142857</ele><time>2026-04-11T09:39:09.532Z</time></trkpt><trkpt lat="43.0319127" lon="13.8074554"><ele>57.42857142857143</ele><time>2026-04-11T09:39:10.532Z</time></trkpt><trkpt lat="43.031986" lon="13.8074051"><ele>56.285714285714285</ele><time>2026-04-11T09:39:11.532Z</time></trkpt><trkpt lat="43.0320575" lon="13.8073901"><ele>55.14285714285714</ele><time>2026-04-11T09:39:12.531Z</time></trkpt><trkpt lat="43.0321231" lon="13.8074028"><ele>54.0</ele><time>2026-04-11T09:39:13.532Z</time></trkpt><trkpt lat="43.032188" lon="13.807436"><ele>54.0</ele><time>2026-04-11T09:39:14.532Z</time></trkpt><trkpt lat="43.0322607" lon="13.8074916"><ele>54.00000000000001</ele><time>2026-04-11T09:39:15.531Z</time></trkpt><trkpt lat="43.032333" lon="13.8075728"><ele>54.00000000000001</ele><time>2026-04-11T09:39:16.532Z</time></trkpt><trkpt lat="43.0324107" lon="13.8076877"><ele>54.0</ele><time>2026-04-11T09:39:17.532Z</time></trkpt><trkpt lat="43.032487" lon="13.8078084"><ele>54.0</ele><time>2026-04-11T09:39:18.532Z</time></trkpt><trkpt lat="43.0325553" lon="13.80789"><ele>53.166666666666664</ele><time>2026-04-11T09:39:19.531Z</time></trkpt><trkpt lat="43.0326287" lon="13.8079336"><ele>52.33333333333333</ele><time>2026-04-11T09:39:20.532Z</time></trkpt><trkpt lat="43.032713" lon="13.8079602"><ele>51.5</ele><time>2026-04-11T09:39:21.532Z</time></trkpt><trkpt lat="43.0328033" lon="13.8079869"><ele>50.666666666666664</ele><time>2026-04-11T09:39:22.532Z</time></trkpt><trkpt lat="43.0328908" lon="13.8079939"><ele>49.83333333333333</ele><time>2026-04-11T09:39:23.532Z</time></trkpt><trkpt lat="43.0329833" lon="13.8079865"><ele>49.0</ele><time>2026-04-11T09:39:24.532Z</time></trkpt><trkpt lat="43.0330767" lon="13.8079544"><ele>49.0</ele><time>2026-04-11T09:39:25.531Z</time></trkpt><trkpt lat="43.0331878" lon="13.8078763"><ele>49.0</ele><time>2026-04-11T09:39:26.532Z</time></trkpt><trkpt lat="43.0333009" lon="13.8077998"><ele>49.0</ele><time>2026-04-11T09:39:27.532Z</time></trkpt><trkpt lat="43.0334043" lon="13.8077359"><ele>49.0</ele><time>2026-04-11T09:39:28.531Z</time></trkpt><trkpt lat="43.0335016" lon="13.8076727"><ele>47.5</ele><time>2026-04-11T09:39:29.532Z</time></trkpt><trkpt lat="43.0335866" lon="13.8075953"><ele>46.0</ele><time>2026-04-11T09:39:30.532Z</time></trkpt><trkpt lat="43.0336658" lon="13.8074939"><ele>44.5</ele><time>2026-04-11T09:39:31.532Z</time></trkpt><trkpt lat="43.0337487" lon="13.8073745"><ele>43.0</ele><time>2026-04-11T09:39:32.532Z</time></trkpt><trkpt lat="43.0338323" lon="13.8072324"><ele>43.0</ele><time>2026-04-11T09:39:33.532Z</time></trkpt><trkpt lat="43.0339062" lon="13.8070944"><ele>43.0</ele><time>2026-04-11T09:39:34.532Z</time></trkpt><trkpt lat="43.0339696" lon="13.8069759"><ele>43.0</ele><time>2026-04-11T09:39:35.532Z</time></trkpt><trkpt lat="43.0340351" lon="13.8068717"><ele>43.0</ele><time>2026-04-11T09:39:36.532Z</time></trkpt><trkpt lat="43.0341109" lon="13.8067827"><ele>43.0</ele><time>2026-04-11T09:39:37.532Z</time></trkpt><trkpt lat="43.0341891" lon="13.8067124"><ele>42.333333333333336</ele><time>2026-04-11T09:39:38.532Z</time></trkpt><trkpt lat="43.0342722" lon="13.806657"><ele>41.66666666666667</ele><time>2026-04-11T09:39:39.532Z</time></trkpt><trkpt lat="43.0343645" lon="13.8066113"><ele>41.0</ele><time>2026-04-11T09:39:40.532Z</time></trkpt><trkpt lat="43.0344458" lon="13.8065821"><ele>40.333333333333336</ele><time>2026-04-11T09:39:41.532Z</time></trkpt><trkpt lat="43.0345243" lon="13.8065623"><ele>39.666666666666664</ele><time>2026-04-11T09:39:43.532Z</time></trkpt><trkpt lat="43.0345782" lon="13.8064852"><ele>39.0</ele><time>2026-04-11T09:39:47.531Z</time></trkpt><trkpt lat="43.0345723" lon="13.8063174"><ele>39.0</ele><time>2026-04-11T09:39:49.532Z</time></trkpt><trkpt lat="43.0345873" lon="13.8062026"><ele>39.0</ele><time>2026-04-11T09:39:50.532Z</time></trkpt><trkpt lat="43.0346009" lon="13.8060678"><ele>39.0</ele><time>2026-04-11T09:39:51.532Z</time></trkpt><trkpt lat="43.0346184" lon="13.8059056"><ele>39.0</ele><time>2026-04-11T09:39:52.532Z</time></trkpt><trkpt lat="43.0346431" lon="13.805735"><ele>39.0</ele><time>2026-04-11T09:39:53.532Z</time></trkpt><trkpt lat="43.0346643" lon="13.8055674"><ele>38.75</ele><time>2026-04-11T09:39:54.532Z</time></trkpt><trkpt lat="43.034685" lon="13.8054029"><ele>38.5</ele><time>2026-04-11T09:39:55.531Z</time></trkpt><trkpt lat="43.0347067" lon="13.8052347"><ele>38.25</ele><time>2026-04-11T09:39:56.532Z</time></trkpt><trkpt lat="43.0347279" lon="13.8050572"><ele>38.0</ele><time>2026-04-11T09:39:57.531Z</time></trkpt><trkpt lat="43.0347497" lon="13.8048742"><ele>37.75</ele><time>2026-04-11T09:39:58.532Z</time></trkpt><trkpt lat="43.0347724" lon="13.8046874"><ele>37.5</ele><time>2026-04-11T09:39:59.532Z</time></trkpt><trkpt lat="43.0347915" lon="13.804504"><ele>37.25</ele><time>2026-04-11T09:40:00.532Z</time></trkpt><trkpt lat="43.0347972" lon="13.8043224"><ele>37.0</ele><time>2026-04-11T09:40:01.531Z</time></trkpt><trkpt lat="43.0347743" lon="13.8041455"><ele>37.0</ele><time>2026-04-11T09:40:02.532Z</time></trkpt><trkpt lat="43.0347216" lon="13.8039759"><ele>37.0</ele><time>2026-04-11T09:40:03.531Z</time></trkpt><trkpt lat="43.0346518" lon="13.8038097"><ele>37.0</ele><time>2026-04-11T09:40:04.532Z</time></trkpt><trkpt lat="43.0345779" lon="13.8036433"><ele>37.0</ele><time>2026-04-11T09:40:05.532Z</time></trkpt><trkpt lat="43.0345044" lon="13.8034702"><ele>37.25</ele><time>2026-04-11T09:40:06.532Z</time></trkpt><trkpt lat="43.0344316" lon="13.8032934"><ele>37.5</ele><time>2026-04-11T09:40:07.532Z</time></trkpt><trkpt lat="43.0343566" lon="13.8031181"><ele>37.75</ele><time>2026-04-11T09:40:08.532Z</time></trkpt><trkpt lat="43.0342824" lon="13.8029386"><ele>38.0</ele><time>2026-04-11T09:40:09.532Z</time></trkpt><trkpt lat="43.0342068" lon="13.8027594"><ele>39.25</ele><time>2026-04-11T09:40:10.531Z</time></trkpt><trkpt lat="43.0341337" lon="13.8025956"><ele>40.5</ele><time>2026-04-11T09:40:11.532Z</time></trkpt><trkpt lat="43.0340642" lon="13.8024421"><ele>41.75</ele><time>2026-04-11T09:40:12.532Z</time></trkpt><trkpt lat="43.0339985" lon="13.8022917"><ele>43.0</ele><time>2026-04-11T09:40:13.532Z</time></trkpt><trkpt lat="43.0339318" lon="13.8021402"><ele>43.0</ele><time>2026-04-11T09:40:14.531Z</time></trkpt><trkpt lat="43.0338694" lon="13.8019828"><ele>43.0</ele><time>2026-04-11T09:40:15.532Z</time></trkpt><trkpt lat="43.0338158" lon="13.8018169"><ele>43.0</ele><time>2026-04-11T09:40:16.531Z</time></trkpt><trkpt lat="43.033768" lon="13.8016323"><ele>43.0</ele><time>2026-04-11T09:40:17.531Z</time></trkpt><trkpt lat="43.0337388" lon="13.801436"><ele>43.0</ele><time>2026-04-11T09:40:18.531Z</time></trkpt><trkpt lat="43.0337232" lon="13.8012477"><ele>43.0</ele><time>2026-04-11T09:40:19.532Z</time></trkpt><trkpt lat="43.0337148" lon="13.8010712"><ele>43.0</ele><time>2026-04-11T09:40:20.532Z</time></trkpt><trkpt lat="43.0337108" lon="13.8009085"><ele>43.0</ele><time>2026-04-11T09:40:21.532Z</time></trkpt><trkpt lat="43.0337104" lon="13.8007624"><ele>42.833333333333336</ele><time>2026-04-11T09:40:22.532Z</time></trkpt><trkpt lat="43.03371" lon="13.8006259"><ele>42.66666666666667</ele><time>2026-04-11T09:40:23.532Z</time></trkpt><trkpt lat="43.0337186" lon="13.800515"><ele>42.5</ele><time>2026-04-11T09:40:24.532Z</time></trkpt><trkpt lat="43.0337533" lon="13.8004245"><ele>42.333333333333336</ele><time>2026-04-11T09:40:25.532Z</time></trkpt><trkpt lat="43.0338054" lon="13.8003663"><ele>42.166666666666664</ele><time>2026-04-11T09:40:26.532Z</time></trkpt><trkpt lat="43.0338802" lon="13.8003333"><ele>42.0</ele><time>2026-04-11T09:40:27.532Z</time></trkpt><trkpt lat="43.033984" lon="13.8003288"><ele>42.0</ele><time>2026-04-11T09:40:28.532Z</time></trkpt><trkpt lat="43.0341068" lon="13.8003324"><ele>42.0</ele><time>2026-04-11T09:40:29.532Z</time></trkpt><trkpt lat="43.0342462" lon="13.800336"><ele>42.0</ele><time>2026-04-11T09:40:30.532Z</time></trkpt><trkpt lat="43.0343961" lon="13.8003342"><ele>42.0</ele><time>2026-04-11T09:40:31.532Z</time></trkpt><trkpt lat="43.0345527" lon="13.8003349"><ele>41.333333333333336</ele><time>2026-04-11T09:40:32.532Z</time></trkpt><trkpt lat="43.0347144" lon="13.8003348"><ele>40.66666666666667</ele><time>2026-04-11T09:40:33.532Z</time></trkpt><trkpt lat="43.0348797" lon="13.8003387"><ele>40.0</ele><time>2026-04-11T09:40:34.532Z</time></trkpt><trkpt lat="43.0350492" lon="13.8003431"><ele>38.66666666666667</ele><time>2026-04-11T09:40:35.532Z</time></trkpt><trkpt lat="43.0352203" lon="13.8003506"><ele>37.333333333333336</ele><time>2026-04-11T09:40:36.532Z</time></trkpt><trkpt lat="43.0353942" lon="13.8003566"><ele>36.0</ele><time>2026-04-11T09:40:37.531Z</time></trkpt><trkpt lat="43.0355685" lon="13.8003617"><ele>36.0</ele><time>2026-04-11T09:40:38.532Z</time></trkpt><trkpt lat="43.0357372" lon="13.8003649"><ele>36.0</ele><time>2026-04-11T09:40:39.532Z</time></trkpt><trkpt lat="43.0359014" lon="13.8003726"><ele>36.0</ele><time>2026-04-11T09:40:40.532Z</time></trkpt><trkpt lat="43.0360639" lon="13.8003848"><ele>35.333333333333336</ele><time>2026-04-11T09:40:41.532Z</time></trkpt><trkpt lat="43.0362243" lon="13.8003949"><ele>34.66666666666667</ele><time>2026-04-11T09:40:42.532Z</time></trkpt><trkpt lat="43.0363814" lon="13.8004026"><ele>34.0</ele><time>2026-04-11T09:40:43.532Z</time></trkpt><trkpt lat="43.0365322" lon="13.8004041"><ele>34.25</ele><time>2026-04-11T09:40:44.531Z</time></trkpt><trkpt lat="43.0366799" lon="13.8004156"><ele>34.5</ele><time>2026-04-11T09:40:45.531Z</time></trkpt><trkpt lat="43.0368209" lon="13.8004264"><ele>34.75</ele><time>2026-04-11T09:40:46.532Z</time></trkpt><trkpt lat="43.0369543" lon="13.8004366"><ele>35.0</ele><time>2026-04-11T09:40:47.532Z</time></trkpt><trkpt lat="43.0370729" lon="13.8004448"><ele>35.0</ele><time>2026-04-11T09:40:48.532Z</time></trkpt><trkpt lat="43.0371695" lon="13.800448"><ele>35.0</ele><time>2026-04-11T09:40:49.532Z</time></trkpt><trkpt lat="43.0372411" lon="13.8004613"><ele>35.0</ele><time>2026-04-11T09:40:50.532Z</time></trkpt><trkpt lat="43.0373311" lon="13.8004486"><ele>35.0</ele><time>2026-04-11T09:40:52.531Z</time></trkpt><trkpt lat="43.0373779" lon="13.8003801"><ele>35.0</ele><time>2026-04-11T09:40:54.532Z</time></trkpt><trkpt lat="43.0373965" lon="13.800289"><ele>35.0</ele><time>2026-04-11T09:40:55.531Z</time></trkpt><trkpt lat="43.0374146" lon="13.8001483"><ele>35.5</ele><time>2026-04-11T09:40:56.531Z</time></trkpt><trkpt lat="43.0374259" lon="13.7999916"><ele>36.0</ele><time>2026-04-11T09:40:57.532Z</time></trkpt><trkpt lat="43.0374338" lon="13.7997883"><ele>36.5</ele><time>2026-04-11T09:40:58.532Z</time></trkpt><trkpt lat="43.0374375" lon="13.7995562"><ele>37.0</ele><time>2026-04-11T09:40:59.532Z</time></trkpt><trkpt lat="43.0374361" lon="13.7993121"><ele>37.0</ele><time>2026-04-11T09:41:00.532Z</time></trkpt><trkpt lat="43.0374164" lon="13.7990708"><ele>37.0</ele><time>2026-04-11T09:41:01.532Z</time></trkpt><trkpt lat="43.0373905" lon="13.798836"><ele>37.0</ele><time>2026-04-11T09:41:02.531Z</time></trkpt><trkpt lat="43.0373592" lon="13.7986108"><ele>37.25</ele><time>2026-04-11T09:41:03.531Z</time></trkpt><trkpt lat="43.0373211" lon="13.7984063"><ele>37.5</ele><time>2026-04-11T09:41:04.531Z</time></trkpt><trkpt lat="43.0372807" lon="13.7982231"><ele>37.75</ele><time>2026-04-11T09:41:05.531Z</time></trkpt><trkpt lat="43.0372481" lon="13.7980724"><ele>38.0</ele><time>2026-04-11T09:41:06.532Z</time></trkpt><trkpt lat="43.0372374" lon="13.7979491"><ele>38.0</ele><time>2026-04-11T09:41:07.532Z</time></trkpt><trkpt lat="43.037249" lon="13.7978473"><ele>38.0</ele><time>2026-04-11T09:41:08.532Z</time></trkpt><trkpt lat="43.0372673" lon="13.7977246"><ele>38.0</ele><time>2026-04-11T09:41:09.532Z</time></trkpt><trkpt lat="43.0372949" lon="13.7976271"><ele>38.0</ele><time>2026-04-11T09:41:10.531Z</time></trkpt><trkpt lat="43.0373637" lon="13.7975244"><ele>38.0</ele><time>2026-04-11T09:41:12.532Z</time></trkpt><trkpt lat="43.0375053" lon="13.7974764"><ele>40.25</ele><time>2026-04-11T09:41:14.532Z</time></trkpt><trkpt lat="43.0376277" lon="13.7974677"><ele>42.5</ele><time>2026-04-11T09:41:15.532Z</time></trkpt><trkpt lat="43.0377525" lon="13.7974606"><ele>44.75</ele><time>2026-04-11T09:41:16.532Z</time></trkpt><trkpt lat="43.0378877" lon="13.7974459"><ele>47.0</ele><time>2026-04-11T09:41:17.532Z</time></trkpt><trkpt lat="43.0380259" lon="13.7974321"><ele>47.0</ele><time>2026-04-11T09:41:18.532Z</time></trkpt><trkpt lat="43.0381601" lon="13.7974199"><ele>47.0</ele><time>2026-04-11T09:41:19.532Z</time></trkpt><trkpt lat="43.0382877" lon="13.7974032"><ele>47.0</ele><time>2026-04-11T09:41:20.532Z</time></trkpt><trkpt lat="43.038412" lon="13.797369"><ele>47.0</ele><time>2026-04-11T09:41:21.532Z</time></trkpt><trkpt lat="43.0385417" lon="13.7973076"><ele>49.666666666666664</ele><time>2026-04-11T09:41:22.531Z</time></trkpt><trkpt lat="43.0386843" lon="13.7972265"><ele>52.33333333333333</ele><time>2026-04-11T09:41:23.532Z</time></trkpt><trkpt lat="43.0388324" lon="13.7971391"><ele>55.0</ele><time>2026-04-11T09:41:24.532Z</time></trkpt><trkpt lat="43.0389887" lon="13.7970455"><ele>58.0</ele><time>2026-04-11T09:41:25.532Z</time></trkpt><trkpt lat="43.0391389" lon="13.7969456"><ele>61.0</ele><time>2026-04-11T09:41:26.532Z</time></trkpt><trkpt lat="43.0392895" lon="13.7968393"><ele>64.0</ele><time>2026-04-11T09:41:27.532Z</time></trkpt><trkpt lat="43.039442" lon="13.7967309"><ele>64.66666666666666</ele><time>2026-04-11T09:41:28.532Z</time></trkpt><trkpt lat="43.0396028" lon="13.7966209"><ele>65.33333333333333</ele><time>2026-04-11T09:41:29.532Z</time></trkpt><trkpt lat="43.0397617" lon="13.7965175"><ele>66.0</ele><time>2026-04-11T09:41:30.532Z</time></trkpt><trkpt lat="43.0399192" lon="13.7964092"><ele>71.0</ele><time>2026-04-11T09:41:31.532Z</time></trkpt><trkpt lat="43.0400742" lon="13.7963034"><ele>76.0</ele><time>2026-04-11T09:41:32.532Z</time></trkpt><trkpt lat="43.0402232" lon="13.7961996"><ele>81.0</ele><time>2026-04-11T09:41:33.532Z</time></trkpt><trkpt lat="43.0403674" lon="13.7960957"><ele>81.0</ele><time>2026-04-11T09:41:34.531Z</time></trkpt><trkpt lat="43.0405071" lon="13.7959932"><ele>81.0</ele><time>2026-04-11T09:41:35.532Z</time></trkpt><trkpt lat="43.0406524" lon="13.7958966"><ele>81.0</ele><time>2026-04-11T09:41:36.531Z</time></trkpt><trkpt lat="43.0407987" lon="13.7958038"><ele>84.0</ele><time>2026-04-11T09:41:37.532Z</time></trkpt><trkpt lat="43.0409363" lon="13.795715"><ele>87.0</ele><time>2026-04-11T09:41:38.532Z</time></trkpt><trkpt lat="43.0410635" lon="13.7956451"><ele>90.0</ele><time>2026-04-11T09:41:39.532Z</time></trkpt><trkpt lat="43.0411837" lon="13.7955815"><ele>93.0</ele><time>2026-04-11T09:41:40.531Z</time></trkpt><trkpt lat="43.0412942" lon="13.7955158"><ele>93.0</ele><time>2026-04-11T09:41:41.532Z</time></trkpt><trkpt lat="43.0414015" lon="13.7954392"><ele>93.0</ele><time>2026-04-11T09:41:42.532Z</time></trkpt><trkpt lat="43.0414961" lon="13.7953105"><ele>93.0</ele><time>2026-04-11T09:41:43.532Z</time></trkpt><trkpt lat="43.0415936" lon="13.7951833"><ele>93.0</ele><time>2026-04-11T09:41:44.532Z</time></trkpt><trkpt lat="43.0416834" lon="13.7950409"><ele>95.0</ele><time>2026-04-11T09:41:45.532Z</time></trkpt><trkpt lat="43.0417626" lon="13.7948849"><ele>97.0</ele><time>2026-04-11T09:41:46.532Z</time></trkpt><trkpt lat="43.0418326" lon="13.7947142"><ele>99.0</ele><time>2026-04-11T09:41:47.532Z</time></trkpt><trkpt lat="43.0418926" lon="13.7945343"><ele>101.0</ele><time>2026-04-11T09:41:48.532Z</time></trkpt><trkpt lat="43.0419519" lon="13.7943523"><ele>103.25</ele><time>2026-04-11T09:41:49.532Z</time></trkpt><trkpt lat="43.0420079" lon="13.7941782"><ele>105.5</ele><time>2026-04-11T09:41:50.532Z</time></trkpt><trkpt lat="43.0420716" lon="13.7940196"><ele>107.75</ele><time>2026-04-11T09:41:51.532Z</time></trkpt><trkpt lat="43.0421297" lon="13.7938532"><ele>110.0</ele><time>2026-04-11T09:41:52.532Z</time></trkpt><trkpt lat="43.0421924" lon="13.7936907"><ele>110.0</ele><time>2026-04-11T09:41:53.532Z</time></trkpt><trkpt lat="43.0422564" lon="13.7935229"><ele>110.0</ele><time>2026-04-11T09:41:54.531Z</time></trkpt><trkpt lat="43.0423199" lon="13.7933317"><ele>110.0</ele><time>2026-04-11T09:41:55.532Z</time></trkpt><trkpt lat="43.0423798" lon="13.7931358"><ele>110.0</ele><time>2026-04-11T09:41:56.532Z</time></trkpt><trkpt lat="43.0424447" lon="13.7929275"><ele>111.33333333333333</ele><time>2026-04-11T09:41:57.532Z</time></trkpt><trkpt lat="43.0425164" lon="13.7927268"><ele>112.66666666666666</ele><time>2026-04-11T09:41:58.532Z</time></trkpt><trkpt lat="43.0425899" lon="13.7925439"><ele>114.0</ele><time>2026-04-11T09:41:59.531Z</time></trkpt><trkpt lat="43.042659" lon="13.7923833"><ele>114.5</ele><time>2026-04-11T09:42:00.532Z</time></trkpt><trkpt lat="43.0427371" lon="13.7922154"><ele>115.0</ele><time>2026-04-11T09:42:01.532Z</time></trkpt><trkpt lat="43.0428174" lon="13.7920542"><ele>115.5</ele><time>2026-04-11T09:42:02.532Z</time></trkpt><trkpt lat="43.0428975" lon="13.7918912"><ele>116.0</ele><time>2026-04-11T09:42:03.531Z</time></trkpt><trkpt lat="43.0429813" lon="13.7917373"><ele>116.0</ele><time>2026-04-11T09:42:04.532Z</time></trkpt><trkpt lat="43.0430729" lon="13.7915864"><ele>116.0</ele><time>2026-04-11T09:42:05.532Z</time></trkpt><trkpt lat="43.0431683" lon="13.791452"><ele>116.0</ele><time>2026-04-11T09:42:06.531Z</time></trkpt><trkpt lat="43.0432673" lon="13.7913176"><ele>116.0</ele><time>2026-04-11T09:42:07.532Z</time></trkpt><trkpt lat="43.0433749" lon="13.7911984"><ele>118.0</ele><time>2026-04-11T09:42:08.532Z</time></trkpt><trkpt lat="43.043487" lon="13.7910732"><ele>120.0</ele><time>2026-04-11T09:42:09.532Z</time></trkpt><trkpt lat="43.0435947" lon="13.7909418"><ele>122.0</ele><time>2026-04-11T09:42:10.532Z</time></trkpt><trkpt lat="43.043697" lon="13.7908134"><ele>124.0</ele><time>2026-04-11T09:42:11.532Z</time></trkpt><trkpt lat="43.0437966" lon="13.790679"><ele>126.0</ele><time>2026-04-11T09:42:12.532Z</time></trkpt><trkpt lat="43.0438929" lon="13.7905472"><ele>128.0</ele><time>2026-04-11T09:42:13.531Z</time></trkpt><trkpt lat="43.0439859" lon="13.7904387"><ele>130.0</ele><time>2026-04-11T09:42:14.531Z</time></trkpt><trkpt lat="43.0440911" lon="13.7903434"><ele>132.0</ele><time>2026-04-11T09:42:15.532Z</time></trkpt><trkpt lat="43.0441937" lon="13.7902466"><ele>135.0</ele><time>2026-04-11T09:42:16.532Z</time></trkpt><trkpt lat="43.0442906" lon="13.7901223"><ele>138.0</ele><time>2026-04-11T09:42:17.532Z</time></trkpt><trkpt lat="43.0443803" lon="13.7899632"><ele>141.0</ele><time>2026-04-11T09:42:18.532Z</time></trkpt><trkpt lat="43.0444535" lon="13.7897965"><ele>144.0</ele><time>2026-04-11T09:42:19.532Z</time></trkpt><trkpt lat="43.0445063" lon="13.7896151"><ele>144.0</ele><time>2026-04-11T09:42:20.532Z</time></trkpt><trkpt lat="43.0445503" lon="13.7893791"><ele>144.0</ele><time>2026-04-11T09:42:21.532Z</time></trkpt><trkpt lat="43.0445915" lon="13.7891211"><ele>144.0</ele><time>2026-04-11T09:42:22.532Z</time></trkpt><trkpt lat="43.0446293" lon="13.788881"><ele>144.0</ele><time>2026-04-11T09:42:23.531Z</time></trkpt><trkpt lat="43.0446635" lon="13.7886416"><ele>144.0</ele><time>2026-04-11T09:42:24.532Z</time></trkpt><trkpt lat="43.0446991" lon="13.7884143"><ele>144.0</ele><time>2026-04-11T09:42:25.532Z</time></trkpt><trkpt lat="43.0447275" lon="13.7881968"><ele>144.0</ele><time>2026-04-11T09:42:26.531Z</time></trkpt><trkpt lat="43.044751" lon="13.7879772"><ele>144.0</ele><time>2026-04-11T09:42:27.532Z</time></trkpt><trkpt lat="43.0447684" lon="13.7877673"><ele>144.0</ele><time>2026-04-11T09:42:28.532Z</time></trkpt><trkpt lat="43.0447761" lon="13.7875742"><ele>145.75</ele><time>2026-04-11T09:42:29.531Z</time></trkpt><trkpt lat="43.0447824" lon="13.7873838"><ele>147.5</ele><time>2026-04-11T09:42:30.531Z</time></trkpt><trkpt lat="43.044785" lon="13.7871846"><ele>149.25</ele><time>2026-04-11T09:42:31.532Z</time></trkpt><trkpt lat="43.0447773" lon="13.787016"><ele>151.0</ele><time>2026-04-11T09:42:32.531Z</time></trkpt><trkpt lat="43.0447708" lon="13.7868718"><ele>152.6</ele><time>2026-04-11T09:42:33.532Z</time></trkpt><trkpt lat="43.0447662" lon="13.7867212"><ele>154.2</ele><time>2026-04-11T09:42:34.532Z</time></trkpt><trkpt lat="43.0447606" lon="13.7865868"><ele>155.8</ele><time>2026-04-11T09:42:35.531Z</time></trkpt><trkpt lat="43.0447531" lon="13.7864515"><ele>157.4</ele><time>2026-04-11T09:42:36.531Z</time></trkpt><trkpt lat="43.0447452" lon="13.7863304"><ele>159.0</ele><time>2026-04-11T09:42:37.532Z</time></trkpt><trkpt lat="43.0447376" lon="13.7862085"><ele>159.0</ele><time>2026-04-11T09:42:38.532Z</time></trkpt><trkpt lat="43.0447257" lon="13.7860845"><ele>159.0</ele><time>2026-04-11T09:42:39.532Z</time></trkpt><trkpt lat="43.0446971" lon="13.7859378"><ele>159.0</ele><time>2026-04-11T09:42:40.531Z</time></trkpt><trkpt lat="43.0446715" lon="13.785785"><ele>159.0</ele><time>2026-04-11T09:42:41.532Z</time></trkpt><trkpt lat="43.0446454" lon="13.7856005"><ele>163.33333333333334</ele><time>2026-04-11T09:42:42.532Z</time></trkpt><trkpt lat="43.0446164" lon="13.7853974"><ele>167.66666666666669</ele><time>2026-04-11T09:42:43.532Z</time></trkpt><trkpt lat="43.0445806" lon="13.7851789"><ele>172.0</ele><time>2026-04-11T09:42:44.531Z</time></trkpt><trkpt lat="43.0445503" lon="13.7849152"><ele>176.0</ele><time>2026-04-11T09:42:45.532Z</time></trkpt><trkpt lat="43.0445218" lon="13.7846673"><ele>180.0</ele><time>2026-04-11T09:42:46.532Z</time></trkpt><trkpt lat="43.0444942" lon="13.7844483"><ele>184.0</ele><time>2026-04-11T09:42:47.532Z</time></trkpt><trkpt lat="43.044456" lon="13.7842663"><ele>185.75</ele><time>2026-04-11T09:42:48.532Z</time></trkpt><trkpt lat="43.0444258" lon="13.7841047"><ele>187.5</ele><time>2026-04-11T09:42:49.531Z</time></trkpt><trkpt lat="43.0444047" lon="13.783958"><ele>189.25</ele><time>2026-04-11T09:42:50.532Z</time></trkpt><trkpt lat="43.0444034" lon="13.7837864"><ele>191.0</ele><time>2026-04-11T09:42:51.531Z</time></trkpt><trkpt lat="43.0444151" lon="13.783604"><ele>192.0</ele><time>2026-04-11T09:42:52.532Z</time></trkpt><trkpt lat="43.044441" lon="13.7834228"><ele>193.0</ele><time>2026-04-11T09:42:53.532Z</time></trkpt><trkpt lat="43.044471" lon="13.7832466"><ele>194.0</ele><time>2026-04-11T09:42:54.532Z</time></trkpt><trkpt lat="43.0445036" lon="13.7830721"><ele>195.0</ele><time>2026-04-11T09:42:55.532Z</time></trkpt><trkpt lat="43.0445326" lon="13.7828926"><ele>195.0</ele><time>2026-04-11T09:42:56.532Z</time></trkpt><trkpt lat="43.0445618" lon="13.7827101"><ele>195.0</ele><time>2026-04-11T09:42:57.532Z</time></trkpt><trkpt lat="43.0445884" lon="13.7825248"><ele>195.0</ele><time>2026-04-11T09:42:58.532Z</time></trkpt><trkpt lat="43.0446252" lon="13.78234"><ele>195.0</ele><time>2026-04-11T09:42:59.532Z</time></trkpt><trkpt lat="43.0446655" lon="13.7821583"><ele>196.25</ele><time>2026-04-11T09:43:00.532Z</time></trkpt><trkpt lat="43.0447019" lon="13.7819745"><ele>197.5</ele><time>2026-04-11T09:43:01.532Z</time></trkpt><trkpt lat="43.0447367" lon="13.7817956"><ele>198.75</ele><time>2026-04-11T09:43:02.532Z</time></trkpt><trkpt lat="43.0447606" lon="13.7816149"><ele>200.0</ele><time>2026-04-11T09:43:03.532Z</time></trkpt><trkpt lat="43.0447802" lon="13.7814374"><ele>200.8</ele><time>2026-04-11T09:43:04.532Z</time></trkpt><trkpt lat="43.0447919" lon="13.7812694"><ele>201.6</ele><time>2026-04-11T09:43:05.532Z</time></trkpt><trkpt lat="43.0447865" lon="13.7811154"><ele>202.39999999999998</ele><time>2026-04-11T09:43:06.531Z</time></trkpt><trkpt lat="43.0447771" lon="13.780989"><ele>203.2</ele><time>2026-04-11T09:43:07.532Z</time></trkpt><trkpt lat="43.0447755" lon="13.7808964"><ele>204.0</ele><time>2026-04-11T09:43:08.532Z</time></trkpt><trkpt lat="43.0448171" lon="13.7807247"><ele>206.25</ele><time>2026-04-11T09:43:10.532Z</time></trkpt><trkpt lat="43.0448682" lon="13.7806034"><ele>208.5</ele><time>2026-04-11T09:43:11.532Z</time></trkpt><trkpt lat="43.0449205" lon="13.7804365"><ele>210.75</ele><time>2026-04-11T09:43:12.532Z</time></trkpt><trkpt lat="43.0449477" lon="13.780247"><ele>213.0</ele><time>2026-04-11T09:43:13.532Z</time></trkpt><trkpt lat="43.0449644" lon="13.7800625"><ele>215.75</ele><time>2026-04-11T09:43:14.532Z</time></trkpt><trkpt lat="43.0449877" lon="13.7798739"><ele>218.5</ele><time>2026-04-11T09:43:15.532Z</time></trkpt><trkpt lat="43.0450137" lon="13.7796788"><ele>221.25</ele><time>2026-04-11T09:43:16.532Z</time></trkpt><trkpt lat="43.0450333" lon="13.7794858"><ele>224.0</ele><time>2026-04-11T09:43:17.532Z</time></trkpt><trkpt lat="43.0450526" lon="13.7793037"><ele>226.5</ele><time>2026-04-11T09:43:18.532Z</time></trkpt><trkpt lat="43.0450687" lon="13.7791255"><ele>229.0</ele><time>2026-04-11T09:43:19.532Z</time></trkpt><trkpt lat="43.0450814" lon="13.7789429"><ele>231.5</ele><time>2026-04-11T09:43:20.531Z</time></trkpt><trkpt lat="43.0450881" lon="13.7787525"><ele>234.0</ele><time>2026-04-11T09:43:21.532Z</time></trkpt><trkpt lat="43.0450867" lon="13.7785511"><ele>234.5</ele><time>2026-04-11T09:43:22.532Z</time></trkpt><trkpt lat="43.0450735" lon="13.7783474"><ele>235.0</ele><time>2026-04-11T09:43:23.532Z</time></trkpt><trkpt lat="43.0450461" lon="13.778147"><ele>235.5</ele><time>2026-04-11T09:43:24.532Z</time></trkpt><trkpt lat="43.0450154" lon="13.777946"><ele>236.0</ele><time>2026-04-11T09:43:25.532Z</time></trkpt><trkpt lat="43.044989" lon="13.7777453"><ele>235.66666666666669</ele><time>2026-04-11T09:43:26.532Z</time></trkpt><trkpt lat="43.044973" lon="13.7775457"><ele>235.33333333333331</ele><time>2026-04-11T09:43:27.531Z</time></trkpt><trkpt lat="43.0449616" lon="13.7773408"><ele>235.0</ele><time>2026-04-11T09:43:28.532Z</time></trkpt><trkpt lat="43.0449978" lon="13.7771183"><ele>236.33333333333331</ele><time>2026-04-11T09:43:29.531Z</time></trkpt><trkpt lat="43.0450525" lon="13.7768796"><ele>237.66666666666669</ele><time>2026-04-11T09:43:30.532Z</time></trkpt><trkpt lat="43.045111" lon="13.7766269"><ele>239.0</ele><time>2026-04-11T09:43:31.531Z</time></trkpt><trkpt lat="43.0451789" lon="13.7763936"><ele>242.66666666666669</ele><time>2026-04-11T09:43:32.532Z</time></trkpt><trkpt lat="43.0452428" lon="13.7761683"><ele>246.33333333333331</ele><time>2026-04-11T09:43:33.532Z</time></trkpt><trkpt lat="43.0453012" lon="13.7759553"><ele>250.0</ele><time>2026-04-11T09:43:34.531Z</time></trkpt><trkpt lat="43.0453552" lon="13.775749"><ele>250.0</ele><time>2026-04-11T09:43:35.531Z</time></trkpt><trkpt lat="43.0454017" lon="13.7755448"><ele>250.0</ele><time>2026-04-11T09:43:36.532Z</time></trkpt><trkpt lat="43.0454331" lon="13.7753361"><ele>250.0</ele><time>2026-04-11T09:43:37.532Z</time></trkpt><trkpt lat="43.045447" lon="13.7751222"><ele>250.0</ele><time>2026-04-11T09:43:38.532Z</time></trkpt><trkpt lat="43.0454511" lon="13.7749088"><ele>250.0</ele><time>2026-04-11T09:43:39.532Z</time></trkpt><trkpt lat="43.0454565" lon="13.774701"><ele>250.0</ele><time>2026-04-11T09:43:40.532Z</time></trkpt><trkpt lat="43.0454622" lon="13.774505"><ele>249.6</ele><time>2026-04-11T09:43:41.531Z</time></trkpt><trkpt lat="43.0454712" lon="13.7743333"><ele>249.2</ele><time>2026-04-11T09:43:42.531Z</time></trkpt><trkpt lat="43.045479" lon="13.7741884"><ele>248.8</ele><time>2026-04-11T09:43:43.532Z</time></trkpt><trkpt lat="43.0454845" lon="13.7740585"><ele>248.4</ele><time>2026-04-11T09:43:44.531Z</time></trkpt><trkpt lat="43.0454899" lon="13.7739449"><ele>248.0</ele><time>2026-04-11T09:43:45.532Z</time></trkpt><trkpt lat="43.0454935" lon="13.7738376"><ele>248.00000000000003</ele><time>2026-04-11T09:43:46.532Z</time></trkpt><trkpt lat="43.0455097" lon="13.7737408"><ele>248.0</ele><time>2026-04-11T09:43:47.532Z</time></trkpt><trkpt lat="43.0455637" lon="13.773609"><ele>248.0</ele><time>2026-04-11T09:43:49.532Z</time></trkpt><trkpt lat="43.0456245" lon="13.7734929"><ele>248.0</ele><time>2026-04-11T09:43:51.531Z</time></trkpt><trkpt lat="43.0456752" lon="13.7733997"><ele>248.00000000000003</ele><time>2026-04-11T09:43:52.532Z</time></trkpt><trkpt lat="43.0457195" lon="13.7733191"><ele>248.0</ele><time>2026-04-11T09:43:53.532Z</time></trkpt><trkpt lat="43.0457626" lon="13.7732384"><ele>251.60000000000002</ele><time>2026-04-11T09:43:54.532Z</time></trkpt><trkpt lat="43.0458292" lon="13.7731095"><ele>255.20000000000002</ele><time>2026-04-11T09:43:56.532Z</time></trkpt><trkpt lat="43.045898" lon="13.7730034"><ele>258.8</ele><time>2026-04-11T09:43:58.532Z</time></trkpt><trkpt lat="43.0459566" lon="13.7729368"><ele>262.40000000000003</ele><time>2026-04-11T09:43:59.531Z</time></trkpt><trkpt lat="43.0460217" lon="13.7728452"><ele>266.0</ele><time>2026-04-11T09:44:00.531Z</time></trkpt><trkpt lat="43.0460687" lon="13.7727534"><ele>268.6666666666667</ele><time>2026-04-11T09:44:01.532Z</time></trkpt><trkpt lat="43.0461151" lon="13.7726436"><ele>271.33333333333337</ele><time>2026-04-11T09:44:02.532Z</time></trkpt><trkpt lat="43.0461543" lon="13.7725351"><ele>274.0</ele><time>2026-04-11T09:44:03.532Z</time></trkpt><trkpt lat="43.0461878" lon="13.7724195"><ele>276.6666666666667</ele><time>2026-04-11T09:44:04.532Z</time></trkpt><trkpt lat="43.046218" lon="13.7723026"><ele>279.3333333333333</ele><time>2026-04-11T09:44:05.532Z</time></trkpt><trkpt lat="43.0462359" lon="13.7721889"><ele>282.0</ele><time>2026-04-11T09:44:06.532Z</time></trkpt><trkpt lat="43.0462491" lon="13.7720963"><ele>282.0</ele><time>2026-04-11T09:44:07.531Z</time></trkpt><trkpt lat="43.0462502" lon="13.7719025"><ele>282.0</ele><time>2026-04-11T09:44:09.532Z</time></trkpt><trkpt lat="43.0462345" lon="13.7717738"><ele>282.0</ele><time>2026-04-11T09:44:10.532Z</time></trkpt><trkpt lat="43.0462126" lon="13.7716486"><ele>282.0</ele><time>2026-04-11T09:44:11.532Z</time></trkpt><trkpt lat="43.0461965" lon="13.771549"><ele>282.0</ele><time>2026-04-11T09:44:12.532Z</time></trkpt><trkpt lat="43.0461781" lon="13.7714519"><ele>283.8333333333333</ele><time>2026-04-11T09:44:13.531Z</time></trkpt><trkpt lat="43.0461646" lon="13.7713488"><ele>285.6666666666667</ele><time>2026-04-11T09:44:14.532Z</time></trkpt><trkpt lat="43.0461583" lon="13.7712312"><ele>287.5</ele><time>2026-04-11T09:44:15.532Z</time></trkpt><trkpt lat="43.0461567" lon="13.7711076"><ele>289.33333333333337</ele><time>2026-04-11T09:44:16.532Z</time></trkpt><trkpt lat="43.0461491" lon="13.7709859"><ele>291.1666666666667</ele><time>2026-04-11T09:44:17.531Z</time></trkpt><trkpt lat="43.046136" lon="13.7708662"><ele>293.0</ele><time>2026-04-11T09:44:18.532Z</time></trkpt><trkpt lat="43.0461266" lon="13.7707371"><ele>293.0</ele><time>2026-04-11T09:44:19.532Z</time></trkpt><trkpt lat="43.0461215" lon="13.770611"><ele>293.0</ele><time>2026-04-11T09:44:20.532Z</time></trkpt><trkpt lat="43.0461133" lon="13.7704935"><ele>293.0</ele><time>2026-04-11T09:44:21.532Z</time></trkpt><trkpt lat="43.0461015" lon="13.770373"><ele>293.0</ele><time>2026-04-11T09:44:22.532Z</time></trkpt><trkpt lat="43.0460833" lon="13.770269"><ele>293.0</ele><time>2026-04-11T09:44:23.532Z</time></trkpt><trkpt lat="43.0460516" lon="13.7701665"><ele>293.0</ele><time>2026-04-11T09:44:24.532Z</time></trkpt><trkpt lat="43.046015" lon="13.7700529"><ele>291.8</ele><time>2026-04-11T09:44:25.532Z</time></trkpt><trkpt lat="43.0459888" lon="13.7699372"><ele>290.6</ele><time>2026-04-11T09:44:26.532Z</time></trkpt><trkpt lat="43.0459709" lon="13.7698264"><ele>289.4</ele><time>2026-04-11T09:44:27.531Z</time></trkpt><trkpt lat="43.0459432" lon="13.7697287"><ele>288.2</ele><time>2026-04-11T09:44:28.531Z</time></trkpt><trkpt lat="43.0458762" lon="13.7695803"><ele>287.0</ele><time>2026-04-11T09:44:30.532Z</time></trkpt><trkpt lat="43.0458332" lon="13.7694969"><ele>287.0</ele><time>2026-04-11T09:44:31.532Z</time></trkpt><trkpt lat="43.045805" lon="13.7694163"><ele>287.0</ele><time>2026-04-11T09:44:32.532Z</time></trkpt><trkpt lat="43.0457953" lon="13.7693259"><ele>287.0</ele><time>2026-04-11T09:44:33.532Z</time></trkpt><trkpt lat="43.0457867" lon="13.7692077"><ele>287.0</ele><time>2026-04-11T09:44:34.532Z</time></trkpt><trkpt lat="43.0457717" lon="13.7690803"><ele>287.0</ele><time>2026-04-11T09:44:35.532Z</time></trkpt><trkpt lat="43.0457506" lon="13.768964"><ele>287.0</ele><time>2026-04-11T09:44:36.532Z</time></trkpt><trkpt lat="43.0457335" lon="13.7688623"><ele>285.83333333333337</ele><time>2026-04-11T09:44:37.532Z</time></trkpt><trkpt lat="43.045724" lon="13.7687766"><ele>284.6666666666667</ele><time>2026-04-11T09:44:38.532Z</time></trkpt><trkpt lat="43.0457247" lon="13.7686092"><ele>283.5</ele><time>2026-04-11T09:44:40.532Z</time></trkpt><trkpt lat="43.0457273" lon="13.7685137"><ele>282.3333333333333</ele><time>2026-04-11T09:44:41.532Z</time></trkpt><trkpt lat="43.0457264" lon="13.7684152"><ele>281.16666666666663</ele><time>2026-04-11T09:44:42.532Z</time></trkpt><trkpt lat="43.0457192" lon="13.7683133"><ele>280.0</ele><time>2026-04-11T09:44:43.532Z</time></trkpt><trkpt lat="43.0457078" lon="13.7681898"><ele>280.0</ele><time>2026-04-11T09:44:44.532Z</time></trkpt><trkpt lat="43.0456939" lon="13.7680548"><ele>280.0</ele><time>2026-04-11T09:44:45.531Z</time></trkpt><trkpt lat="43.0456859" lon="13.7679046"><ele>280.0</ele><time>2026-04-11T09:44:46.532Z</time></trkpt><trkpt lat="43.0456829" lon="13.7677717"><ele>280.0</ele><time>2026-04-11T09:44:47.532Z</time></trkpt><trkpt lat="43.0456838" lon="13.7676853"><ele>280.0</ele><time>2026-04-11T09:44:48.532Z</time></trkpt><trkpt lat="43.0456792" lon="13.7675957"><ele>280.0</ele><time>2026-04-11T09:44:50.532Z</time></trkpt><trkpt lat="43.0456691" lon="13.7674934"><ele>282.0</ele><time>2026-04-11T09:45:34.532Z</time></trkpt><trkpt lat="43.0456589" lon="13.7673794"><ele>284.0</ele><time>2026-04-11T09:45:36.532Z</time></trkpt><trkpt lat="43.0456503" lon="13.7672131"><ele>286.0</ele><time>2026-04-11T09:45:38.532Z</time></trkpt><trkpt lat="43.0456424" lon="13.7670884"><ele>288.0</ele><time>2026-04-11T09:45:39.532Z</time></trkpt><trkpt lat="43.0456406" lon="13.7669632"><ele>290.0</ele><time>2026-04-11T09:45:40.532Z</time></trkpt><trkpt lat="43.0456405" lon="13.7668409"><ele>291.33333333333337</ele><time>2026-04-11T09:45:41.532Z</time></trkpt><trkpt lat="43.0456369" lon="13.7667219"><ele>292.6666666666667</ele><time>2026-04-11T09:45:42.532Z</time></trkpt><trkpt lat="43.0456315" lon="13.7666027"><ele>294.0</ele><time>2026-04-11T09:45:43.532Z</time></trkpt><trkpt lat="43.0456287" lon="13.7665005"><ele>295.3333333333333</ele><time>2026-04-11T09:45:44.531Z</time></trkpt><trkpt lat="43.0456274" lon="13.7663955"><ele>296.66666666666663</ele><time>2026-04-11T09:45:45.532Z</time></trkpt><trkpt lat="43.0456306" lon="13.7662784"><ele>298.0</ele><time>2026-04-11T09:45:46.532Z</time></trkpt><trkpt lat="43.0456472" lon="13.7661663"><ele>298.75</ele><time>2026-04-11T09:45:47.532Z</time></trkpt><trkpt lat="43.0456671" lon="13.7660055"><ele>299.5</ele><time>2026-04-11T09:45:48.532Z</time></trkpt><trkpt lat="43.0457173" lon="13.7658161"><ele>300.25</ele><time>2026-04-11T09:45:49.532Z</time></trkpt><trkpt lat="43.0457654" lon="13.765664"><ele>301.0</ele><time>2026-04-11T09:45:50.531Z</time></trkpt><trkpt lat="43.0457939" lon="13.7655263"><ele>302.0</ele><time>2026-04-11T09:45:51.532Z</time></trkpt><trkpt lat="43.0458312" lon="13.7653988"><ele>303.0</ele><time>2026-04-11T09:45:52.532Z</time></trkpt><trkpt lat="43.0458717" lon="13.7652592"><ele>304.0</ele><time>2026-04-11T09:45:53.531Z</time></trkpt><trkpt lat="43.0459098" lon="13.7651189"><ele>305.0</ele><time>2026-04-11T09:45:54.532Z</time></trkpt><trkpt lat="43.0459503" lon="13.7649903"><ele>306.0</ele><time>2026-04-11T09:45:55.532Z</time></trkpt><trkpt lat="43.0459881" lon="13.7648728"><ele>307.40000000000003</ele><time>2026-04-11T09:45:56.532Z</time></trkpt><trkpt lat="43.0460261" lon="13.7647292"><ele>308.8</ele><time>2026-04-11T09:45:57.531Z</time></trkpt><trkpt lat="43.0460583" lon="13.7645947"><ele>310.20000000000005</ele><time>2026-04-11T09:45:58.532Z</time></trkpt><trkpt lat="43.0460854" lon="13.7644645"><ele>311.6</ele><time>2026-04-11T09:45:59.532Z</time></trkpt><trkpt lat="43.0461099" lon="13.7643525"><ele>313.0</ele><time>2026-04-11T09:46:00.532Z</time></trkpt><trkpt lat="43.0461324" lon="13.7642477"><ele>313.66666666666663</ele><time>2026-04-11T09:46:01.532Z</time></trkpt><trkpt lat="43.0461498" lon="13.7641423"><ele>314.3333333333333</ele><time>2026-04-11T09:46:02.532Z</time></trkpt><trkpt lat="43.0461622" lon="13.7640382"><ele>315.0</ele><time>2026-04-11T09:46:03.532Z</time></trkpt><trkpt lat="43.0461658" lon="13.7639259"><ele>315.6666666666667</ele><time>2026-04-11T09:46:04.532Z</time></trkpt><trkpt lat="43.0461699" lon="13.7638025"><ele>316.33333333333337</ele><time>2026-04-11T09:46:05.531Z</time></trkpt><trkpt lat="43.0461785" lon="13.7636766"><ele>317.0</ele><time>2026-04-11T09:46:06.531Z</time></trkpt><trkpt lat="43.0461801" lon="13.7635463"><ele>318.0</ele><time>2026-04-11T09:46:07.532Z</time></trkpt><trkpt lat="43.0461875" lon="13.7634192"><ele>319.0</ele><time>2026-04-11T09:46:08.532Z</time></trkpt><trkpt lat="43.0461885" lon="13.763289"><ele>320.0</ele><time>2026-04-11T09:46:09.531Z</time></trkpt><trkpt lat="43.0461924" lon="13.7631535"><ele>321.0</ele><time>2026-04-11T09:46:10.532Z</time></trkpt><trkpt lat="43.046196" lon="13.7630253"><ele>322.0</ele><time>2026-04-11T09:46:11.532Z</time></trkpt><trkpt lat="43.0462006" lon="13.7628974"><ele>322.0</ele><time>2026-04-11T09:46:12.532Z</time></trkpt><trkpt lat="43.0462048" lon="13.7627635"><ele>322.0</ele><time>2026-04-11T09:46:13.532Z</time></trkpt><trkpt lat="43.0462119" lon="13.7626266"><ele>322.0</ele><time>2026-04-11T09:46:14.532Z</time></trkpt><trkpt lat="43.0462115" lon="13.7624938"><ele>322.0</ele><time>2026-04-11T09:46:15.532Z</time></trkpt><trkpt lat="43.0462058" lon="13.7623633"><ele>322.0</ele><time>2026-04-11T09:46:16.532Z</time></trkpt><trkpt lat="43.046196" lon="13.7622459"><ele>321.7142857142857</ele><time>2026-04-11T09:46:17.532Z</time></trkpt><trkpt lat="43.0461729" lon="13.7621304"><ele>321.42857142857144</ele><time>2026-04-11T09:46:18.532Z</time></trkpt><trkpt lat="43.0461592" lon="13.7620223"><ele>321.1428571428571</ele><time>2026-04-11T09:46:19.532Z</time></trkpt><trkpt lat="43.0461585" lon="13.7619216"><ele>320.8571428571429</ele><time>2026-04-11T09:46:20.531Z</time></trkpt><trkpt lat="43.0461732" lon="13.7618267"><ele>320.57142857142856</ele><time>2026-04-11T09:46:21.532Z</time></trkpt><trkpt lat="43.0462049" lon="13.7617467"><ele>320.2857142857143</ele><time>2026-04-11T09:46:22.532Z</time></trkpt><trkpt lat="43.046255" lon="13.7616874"><ele>320.0</ele><time>2026-04-11T09:46:23.532Z</time></trkpt><trkpt lat="43.0463165" lon="13.761639"><ele>318.0</ele><time>2026-04-11T09:46:24.531Z</time></trkpt><trkpt lat="43.0463816" lon="13.7616081"><ele>316.0</ele><time>2026-04-11T09:46:25.532Z</time></trkpt><trkpt lat="43.0464906" lon="13.7615571"><ele>314.0</ele><time>2026-04-11T09:46:27.532Z</time></trkpt><trkpt lat="43.0465913" lon="13.7615048"><ele>312.0</ele><time>2026-04-11T09:46:29.532Z</time></trkpt><trkpt lat="43.0466885" lon="13.7614745"><ele>310.0</ele><time>2026-04-11T09:46:31.532Z</time></trkpt><trkpt lat="43.046777" lon="13.7613989"><ele>310.0</ele><time>2026-04-11T09:46:33.531Z</time></trkpt><trkpt lat="43.0468223" lon="13.7613331"><ele>310.0</ele><time>2026-04-11T09:46:34.531Z</time></trkpt><trkpt lat="43.0468702" lon="13.7612491"><ele>310.0</ele><time>2026-04-11T09:46:35.531Z</time></trkpt><trkpt lat="43.0469211" lon="13.7611465"><ele>310.0</ele><time>2026-04-11T09:46:36.532Z</time></trkpt><trkpt lat="43.0469759" lon="13.7610379"><ele>310.0</ele><time>2026-04-11T09:46:37.531Z</time></trkpt><trkpt lat="43.0470334" lon="13.7609213"><ele>310.0</ele><time>2026-04-11T09:46:38.532Z</time></trkpt><trkpt lat="43.0470966" lon="13.7607918"><ele>311.0</ele><time>2026-04-11T09:46:39.532Z</time></trkpt><trkpt lat="43.047162" lon="13.7606554"><ele>312.0</ele><time>2026-04-11T09:46:40.532Z</time></trkpt><trkpt lat="43.0472148" lon="13.7605255"><ele>313.0</ele><time>2026-04-11T09:46:41.531Z</time></trkpt><trkpt lat="43.0472601" lon="13.7603964"><ele>314.0</ele><time>2026-04-11T09:46:42.532Z</time></trkpt><trkpt lat="43.0472889" lon="13.7602578"><ele>315.0</ele><time>2026-04-11T09:46:43.532Z</time></trkpt><trkpt lat="43.0473148" lon="13.7601164"><ele>315.8</ele><time>2026-04-11T09:46:44.532Z</time></trkpt><trkpt lat="43.0473489" lon="13.7599702"><ele>316.6</ele><time>2026-04-11T09:46:45.532Z</time></trkpt><trkpt lat="43.0473692" lon="13.7598284"><ele>317.4</ele><time>2026-04-11T09:46:46.532Z</time></trkpt><trkpt lat="43.0473845" lon="13.7596893"><ele>318.2</ele><time>2026-04-11T09:46:47.532Z</time></trkpt><trkpt lat="43.0473952" lon="13.7595457"><ele>319.0</ele><time>2026-04-11T09:46:48.532Z</time></trkpt><trkpt lat="43.0474004" lon="13.7594005"><ele>319.5</ele><time>2026-04-11T09:46:49.532Z</time></trkpt><trkpt lat="43.0474026" lon="13.7592445"><ele>320.0</ele><time>2026-04-11T09:46:50.531Z</time></trkpt><trkpt lat="43.047405" lon="13.7590825"><ele>320.5</ele><time>2026-04-11T09:46:51.532Z</time></trkpt><trkpt lat="43.0474055" lon="13.7589148"><ele>321.0</ele><time>2026-04-11T09:46:52.532Z</time></trkpt><trkpt lat="43.0474103" lon="13.7587433"><ele>321.0</ele><time>2026-04-11T09:46:53.532Z</time></trkpt><trkpt lat="43.0474244" lon="13.7585627"><ele>321.0</ele><time>2026-04-11T09:46:54.531Z</time></trkpt><trkpt lat="43.0474331" lon="13.758389"><ele>321.0</ele><time>2026-04-11T09:46:55.532Z</time></trkpt><trkpt lat="43.0474348" lon="13.7582438"><ele>321.0</ele><time>2026-04-11T09:46:56.532Z</time></trkpt><trkpt lat="43.0474389" lon="13.7581096"><ele>322.6</ele><time>2026-04-11T09:46:57.532Z</time></trkpt><trkpt lat="43.0474443" lon="13.7579811"><ele>324.20000000000005</ele><time>2026-04-11T09:46:58.532Z</time></trkpt><trkpt lat="43.0474411" lon="13.7578477"><ele>325.79999999999995</ele><time>2026-04-11T09:46:59.531Z</time></trkpt><trkpt lat="43.0474278" lon="13.7577038"><ele>327.4</ele><time>2026-04-11T09:47:00.532Z</time></trkpt><trkpt lat="43.047411" lon="13.7575574"><ele>329.0</ele><time>2026-04-11T09:47:01.532Z</time></trkpt><trkpt lat="43.0474005" lon="13.7573948"><ele>330.0</ele><time>2026-04-11T09:47:02.532Z</time></trkpt><trkpt lat="43.0473942" lon="13.7572108"><ele>331.0</ele><time>2026-04-11T09:47:03.532Z</time></trkpt><trkpt lat="43.0473913" lon="13.7570382"><ele>332.0</ele><time>2026-04-11T09:47:04.531Z</time></trkpt><trkpt lat="43.047385" lon="13.7568812"><ele>333.0</ele><time>2026-04-11T09:47:05.532Z</time></trkpt><trkpt lat="43.0473794" lon="13.7567282"><ele>331.0</ele><time>2026-04-11T09:47:06.532Z</time></trkpt><trkpt lat="43.0473813" lon="13.7565754"><ele>329.0</ele><time>2026-04-11T09:47:07.532Z</time></trkpt><trkpt lat="43.0473848" lon="13.7564253"><ele>327.0</ele><time>2026-04-11T09:47:08.532Z</time></trkpt><trkpt lat="43.0473876" lon="13.7562707"><ele>325.0</ele><time>2026-04-11T09:47:09.532Z</time></trkpt><trkpt lat="43.0473947" lon="13.7561085"><ele>323.4</ele><time>2026-04-11T09:47:10.532Z</time></trkpt><trkpt lat="43.0474075" lon="13.755937"><ele>321.8</ele><time>2026-04-11T09:47:11.532Z</time></trkpt><trkpt lat="43.0474205" lon="13.755779"><ele>320.2</ele><time>2026-04-11T09:47:12.532Z</time></trkpt><trkpt lat="43.0474339" lon="13.7556443"><ele>318.6</ele><time>2026-04-11T09:47:13.532Z</time></trkpt><trkpt lat="43.0474447" lon="13.7555283"><ele>317.0</ele><time>2026-04-11T09:47:14.532Z</time></trkpt><trkpt lat="43.0474738" lon="13.7553712"><ele>317.0</ele><time>2026-04-11T09:47:16.532Z</time></trkpt><trkpt lat="43.0474361" lon="13.7552434"><ele>317.0</ele><time>2026-04-11T09:47:18.532Z</time></trkpt><trkpt lat="43.0473806" lon="13.7550955"><ele>317.0</ele><time>2026-04-11T09:47:20.532Z</time></trkpt><trkpt lat="43.0473738" lon="13.7549912"><ele>317.0</ele><time>2026-04-11T09:47:21.531Z</time></trkpt><trkpt lat="43.0473823" lon="13.7548476"><ele>317.0</ele><time>2026-04-11T09:47:22.532Z</time></trkpt><trkpt lat="43.0474058" lon="13.7546715"><ele>317.0</ele><time>2026-04-11T09:47:23.532Z</time></trkpt><trkpt lat="43.0474344" lon="13.7544741"><ele>317.0</ele><time>2026-04-11T09:47:24.532Z</time></trkpt><trkpt lat="43.0474605" lon="13.7542645"><ele>317.0</ele><time>2026-04-11T09:47:25.532Z</time></trkpt><trkpt lat="43.047479" lon="13.7540542"><ele>322.25</ele><time>2026-04-11T09:47:26.532Z</time></trkpt><trkpt lat="43.0474945" lon="13.7538573"><ele>327.5</ele><time>2026-04-11T09:47:27.531Z</time></trkpt><trkpt lat="43.0475111" lon="13.7536913"><ele>332.75</ele><time>2026-04-11T09:47:28.532Z</time></trkpt><trkpt lat="43.0475445" lon="13.7535438"><ele>338.0</ele><time>2026-04-11T09:47:29.532Z</time></trkpt><trkpt lat="43.0475992" lon="13.7534224"><ele>338.0</ele><time>2026-04-11T09:47:30.532Z</time></trkpt><trkpt lat="43.0476829" lon="13.7533313"><ele>338.0</ele><time>2026-04-11T09:47:31.532Z</time></trkpt><trkpt lat="43.0477912" lon="13.7532746"><ele>338.0</ele><time>2026-04-11T09:47:32.532Z</time></trkpt><trkpt lat="43.0479132" lon="13.75325"><ele>338.0</ele><time>2026-04-11T09:47:33.532Z</time></trkpt><trkpt lat="43.0480357" lon="13.7532679"><ele>338.0</ele><time>2026-04-11T09:47:34.532Z</time></trkpt><trkpt lat="43.0481397" lon="13.7533344"><ele>338.0</ele><time>2026-04-11T09:47:35.531Z</time></trkpt><trkpt lat="43.0482166" lon="13.7534301"><ele>338.0</ele><time>2026-04-11T09:47:36.532Z</time></trkpt><trkpt lat="43.0482683" lon="13.7535536"><ele>338.0</ele><time>2026-04-11T09:47:37.532Z</time></trkpt><trkpt lat="43.0482991" lon="13.7536976"><ele>338.0</ele><time>2026-04-11T09:47:38.532Z</time></trkpt><trkpt lat="43.0483249" lon="13.7538412"><ele>339.2</ele><time>2026-04-11T09:47:39.532Z</time></trkpt><trkpt lat="43.0483502" lon="13.7539722"><ele>340.4</ele><time>2026-04-11T09:47:40.532Z</time></trkpt><trkpt lat="43.0483821" lon="13.7540825"><ele>341.59999999999997</ele><time>2026-04-11T09:47:41.532Z</time></trkpt><trkpt lat="43.0484206" lon="13.754193"><ele>342.79999999999995</ele><time>2026-04-11T09:47:42.532Z</time></trkpt><trkpt lat="43.0484744" lon="13.7543083"><ele>344.0</ele><time>2026-04-11T09:47:43.531Z</time></trkpt><trkpt lat="43.0485393" lon="13.754418"><ele>344.0</ele><time>2026-04-11T09:47:44.532Z</time></trkpt><trkpt lat="43.0486187" lon="13.7544954"><ele>344.0</ele><time>2026-04-11T09:47:45.532Z</time></trkpt><trkpt lat="43.0486991" lon="13.7545378"><ele>344.0</ele><time>2026-04-11T09:47:46.532Z</time></trkpt><trkpt lat="43.0487713" lon="13.754563"><ele>344.0</ele><time>2026-04-11T09:47:47.531Z</time></trkpt><trkpt lat="43.0488435" lon="13.7545854"><ele>344.0</ele><time>2026-04-11T09:47:48.532Z</time></trkpt><trkpt lat="43.0489148" lon="13.7546028"><ele>344.0</ele><time>2026-04-11T09:47:49.532Z</time></trkpt><trkpt lat="43.0489863" lon="13.7546142"><ele>344.0</ele><time>2026-04-11T09:47:50.531Z</time></trkpt><trkpt lat="43.0490586" lon="13.7546317"><ele>344.0</ele><time>2026-04-11T09:47:51.532Z</time></trkpt><trkpt lat="43.0491265" lon="13.7546478"><ele>344.0</ele><time>2026-04-11T09:47:52.532Z</time></trkpt><trkpt lat="43.0492288" lon="13.7546922"><ele>344.0</ele><time>2026-04-11T09:47:54.532Z</time></trkpt><trkpt lat="43.0493135" lon="13.7547413"><ele>344.0</ele><time>2026-04-11T09:47:56.532Z</time></trkpt><trkpt lat="43.0493918" lon="13.7546705"><ele>344.0</ele><time>2026-04-11T09:47:59.532Z</time></trkpt><trkpt lat="43.0493908" lon="13.7544461"><ele>347.6</ele><time>2026-04-11T09:48:01.531Z</time></trkpt><trkpt lat="43.0493794" lon="13.7542982"><ele>351.2</ele><time>2026-04-11T09:48:02.532Z</time></trkpt><trkpt lat="43.0493695" lon="13.7541598"><ele>354.8</ele><time>2026-04-11T09:48:03.532Z</time></trkpt><trkpt lat="43.0493622" lon="13.7540316"><ele>358.40000000000003</ele><time>2026-04-11T09:48:04.532Z</time></trkpt><trkpt lat="43.0493557" lon="13.7539299"><ele>362.0</ele><time>2026-04-11T09:48:05.532Z</time></trkpt><trkpt lat="43.0493542" lon="13.7537833"><ele>362.0</ele><time>2026-04-11T09:48:07.532Z</time></trkpt><trkpt lat="43.0493519" lon="13.7536628"><ele>362.0</ele><time>2026-04-11T09:48:09.532Z</time></trkpt><trkpt lat="43.049347" lon="13.7535665"><ele>362.0</ele><time>2026-04-11T09:48:11.532Z</time></trkpt></trkseg></trk></gpx>